Darstellungsparameter: Aktuell verwendete Einstellungen:
Skalierung der Graphiken ... ?
xyx+y,   Skalierungsfaktor:      Skalierung: Modus: x, Faktor: 1
Darstellungszeitraum ... ?
Vom - - bis: - -   Zeitraum: 20.11.2009 - 19.12.2009
Min/Max/Avg-Anzeige ... ?
Zeige MMA aktuell
Zeige MMA Monat
Zeige MMA alles
Zeige --A aktuell
Zeige --A Monat
Zeige --A alles
Keine MMA-Anzeige
MMA:
Average (ber die Originaldaten)
MMA-Basis: 20.11.2009 - 19.12.2009
Quicknavigation für Darstellung... ?
Tage:      1T, 2T, 3T, 5T -1T -2T -3T -5T +1T +2T +3T +5T
Wochen: 1W, 2W, 3W -1W -2W -3W +1W +2W +3W
Monate: 1M, 3M, 6M -1M -3M -6M +1M +3M +6M
Jahre:    1J, 3J, 5J, 10J -1J -3J -5J -10J +1J +3J +5J +10J
Nutze für die Darstellung ... ?
Originaldaten oder Mittelwerte auf ...
Stundenbasis Tagesbasis Wochenbasis
Monatsbasis Jahresbasis      Datenbasis: Original-Daten
Darstellen als:
Statistik (Auto) Statistik J:M      Darstellung:
Zur Graphik,    zurück zur Übersicht aller Sensoren.
 
Tabellarische Datenbersicht: ?
 
Sensor: Nr:Datum:Temp:Abs-Feuchte:Windchill:Wind:
Aussen-T/F 1 20-11-2009 00:02:01 5.1 C 6.09 g/m*3 5.1 C 0 km/h
2 20-11-2009 00:14:01 5 C 6.05 g/m*3 5 C 0 km/h
3 20-11-2009 00:26:02 4.9 C 6.08 g/m*3 4.9 C 0 km/h
4 20-11-2009 00:38:02 4.8 C 6.04 g/m*3 4.8 C 0 km/h
5 20-11-2009 00:50:02 4.8 C 6.1 g/m*3 4.8 C 0 km/h
6 20-11-2009 01:02:02 4.7 C 6.06 g/m*3 4.7 C 0 km/h
7 20-11-2009 01:14:02 4.7 C 6.06 g/m*3 4.7 C 0 km/h
8 20-11-2009 01:26:02 4.6 C 6.02 g/m*3 4.6 C 0 km/h
9 20-11-2009 01:38:02 4.5 C 5.98 g/m*3 4.5 C 0 km/h
10 20-11-2009 01:50:02 4.4 C 5.94 g/m*3 4.4 C 0 km/h
11 20-11-2009 02:02:02 4.3 C 5.9 g/m*3 4.3 C 0 km/h
12 20-11-2009 02:14:02 4.2 C 5.86 g/m*3 4.2 C 0 km/h
13 20-11-2009 02:26:02 4.2 C 5.86 g/m*3 4.2 C 0 km/h
14 20-11-2009 02:38:02 4.2 C 5.93 g/m*3 4.2 C 0 km/h
15 20-11-2009 02:50:02 4.2 C 5.93 g/m*3 4.2 C 0 km/h
16 20-11-2009 03:02:02 4 C 5.85 g/m*3 4 C 0 km/h
17 20-11-2009 03:14:02 4 C 5.85 g/m*3 4 C 0 km/h
18 20-11-2009 03:26:02 3.9 C 5.87 g/m*3 3.9 C 0 km/h
19 20-11-2009 03:38:02 3.8 C 5.83 g/m*3 3.8 C 0 km/h
20 20-11-2009 03:50:02 3.7 C 5.8 g/m*3 3.7 C 0 km/h
21 20-11-2009 04:02:02 3.8 C 5.83 g/m*3 3.8 C 0 km/h
22 20-11-2009 04:14:02 3.6 C 5.76 g/m*3 3.6 C 0 km/h
23 20-11-2009 04:26:03 3.4 C 5.68 g/m*3 3.4 C 0 km/h
24 20-11-2009 04:38:03 3.5 C 5.72 g/m*3 3.5 C 0 km/h
25 20-11-2009 04:50:03 3.6 C 5.76 g/m*3 3.6 C 0 km/h
Sensor: Nr:Datum:Temp:Abs-Feuchte:Windchill:Wind:
Aussen-T/F 26 20-11-2009 05:02:03 3.5 C 5.72 g/m*3 3.5 C 0 km/h
27 20-11-2009 05:14:03 3.5 C 5.78 g/m*3 3.5 C 0 km/h
28 20-11-2009 05:26:03 3.4 C 5.74 g/m*3 3.4 C 0 km/h
29 20-11-2009 05:38:03 3.3 C 5.7 g/m*3 3.3 C 0 km/h
30 20-11-2009 05:50:03 3.4 C 5.74 g/m*3 3.4 C 0 km/h
31 20-11-2009 06:02:03 3.2 C 5.66 g/m*3 3.2 C 0 km/h
32 20-11-2009 06:14:03 3.1 C 5.63 g/m*3 3.1 C 0 km/h
33 20-11-2009 06:26:03 3.1 C 5.63 g/m*3 3.1 C 0 km/h
34 20-11-2009 06:38:03 3 C 5.59 g/m*3 3 C 0 km/h
35 20-11-2009 06:50:03 3 C 5.59 g/m*3 3 C 0 km/h
36 20-11-2009 07:02:02 3.1 C 5.69 g/m*3 3.1 C 0 km/h
37 20-11-2009 07:14:02 3.1 C 5.69 g/m*3 3.1 C 0 km/h
38 20-11-2009 07:26:01 3.1 C 5.69 g/m*3 3.1 C 0 km/h
39 20-11-2009 07:38:02 3 C 5.65 g/m*3 3 C 0 km/h
40 20-11-2009 07:50:02 2.8 C 5.57 g/m*3 2.8 C 0 km/h
41 20-11-2009 08:02:02 2.8 C 5.57 g/m*3 2.8 C 0 km/h
42 20-11-2009 08:14:02 2.8 C 5.57 g/m*3 2.8 C 0 km/h
43 20-11-2009 08:26:02 2.8 C 5.57 g/m*3 2.8 C 0 km/h
44 20-11-2009 08:38:02 2.9 C 5.61 g/m*3 2.9 C 0 km/h
45 20-11-2009 08:50:02 3 C 5.65 g/m*3 3 C 0 km/h
46 20-11-2009 09:02:02 3.1 C 5.69 g/m*3 3.1 C 0 km/h
47 20-11-2009 09:14:03 3.2 C 5.72 g/m*3 3.2 C 0 km/h
48 20-11-2009 09:26:02 3.4 C 5.8 g/m*3 3.4 C 0 km/h
49 20-11-2009 09:38:02 3.6 C 5.88 g/m*3 3.6 C 0 km/h
50 20-11-2009 09:50:01 3.9 C 6 g/m*3 3.9 C 0 km/h
Sensor: Nr:Datum:Temp:Abs-Feuchte:Windchill:Wind:
Aussen-T/F 51 20-11-2009 10:02:01 4.3 C 6.16 g/m*3 4.3 C 0 km/h
52 20-11-2009 10:14:01 4.3 C 6.16 g/m*3 4.3 C 0 km/h
53 20-11-2009 10:26:02 4.6 C 6.29 g/m*3 4.6 C 0 km/h
54 20-11-2009 10:38:01 5.4 C 6.63 g/m*3 5.4 C 0 km/h
55 20-11-2009 10:50:02 5.7 C 6.76 g/m*3 5.7 C 0 km/h
56 20-11-2009 11:02:02 5.6 C 6.72 g/m*3 5.6 C 0 km/h
57 20-11-2009 11:14:02 5.7 C 6.76 g/m*3 5.7 C 0 km/h
58 20-11-2009 11:26:02 5.9 C 6.85 g/m*3 5.9 C 0 km/h
59 20-11-2009 11:38:02 6.5 C 7.12 g/m*3 6.5 C 0 km/h
60 20-11-2009 11:50:02 7.1 C 7.33 g/m*3 7.1 C 0 km/h
61 20-11-2009 12:02:02 7.7 C 7.7 g/m*3 7.7 C 0 km/h
62 20-11-2009 12:14:02 8.5 C 8.03 g/m*3 8.5 C 0 km/h
63 20-11-2009 12:26:02 9.2 C 8.39 g/m*3 9.2 C 0 km/h
64 20-11-2009 12:38:01 10.1 C 8.79 g/m*3 10.1 C 0 km/h
65 20-11-2009 12:50:02 10.8 C 9.09 g/m*3 10.8 C 0 km/h
66 20-11-2009 13:02:01 11.4 C 9.24 g/m*3 11.4 C 0 km/h
67 20-11-2009 13:14:01 12.1 C 8.9 g/m*3 12.1 C 0 km/h
68 20-11-2009 13:26:02 13.9 C 7.55 g/m*3 13.9 C 0 km/h
69 20-11-2009 13:38:02 15 C 6.67 g/m*3 15 C 0 km/h
70 20-11-2009 13:50:02 15.3 C 6.53 g/m*3 15.3 C 0 km/h
71 20-11-2009 14:02:03 15.5 C 6.34 g/m*3 15.5 C 0 km/h
72 20-11-2009 14:14:03 15.4 C 6.44 g/m*3 15.4 C 0 km/h
73 20-11-2009 14:26:02 15.2 C 6.49 g/m*3 15.2 C 0 km/h
74 20-11-2009 14:38:02 15.2 C 6.62 g/m*3 15.2 C 0 km/h
75 20-11-2009 14:50:01 14.8 C 6.71 g/m*3 14.8 C 0 km/h
Sensor: Nr:Datum:Temp:Abs-Feuchte:Windchill:Wind:
Aussen-T/F 76 20-11-2009 15:02:02 14.6 C 6.76 g/m*3 14.6 C 0 km/h
77 20-11-2009 15:14:02 14.6 C 6.76 g/m*3 14.6 C 0 km/h
78 20-11-2009 15:26:01 14.8 C 6.71 g/m*3 14.8 C 0 km/h
79 20-11-2009 15:38:02 14.5 C 6.84 g/m*3 14.5 C 0 km/h
80 20-11-2009 15:50:02 13.9 C 7.07 g/m*3 13.9 C 0 km/h
81 20-11-2009 16:02:02 13.5 C 7.25 g/m*3 13.5 C 0 km/h
82 20-11-2009 16:14:02 13 C 7.26 g/m*3 13 C 0 km/h
83 20-11-2009 16:26:02 12.6 C 7.41 g/m*3 12.6 C 0 km/h
84 20-11-2009 16:38:02 12.3 C 7.38 g/m*3 12.3 C 0 km/h
85 20-11-2009 16:50:02 12.1 C 7.4 g/m*3 12.1 C 0 km/h
86 20-11-2009 17:02:02 12 C 7.46 g/m*3 12 C 0 km/h
87 20-11-2009 17:14:02 11.7 C 7.43 g/m*3 11.7 C 0 km/h
88 20-11-2009 17:26:02 11.7 C 7.64 g/m*3 11.7 C 0 km/h
89 20-11-2009 17:38:02 11.7 C 7.64 g/m*3 11.7 C 0 km/h
90 20-11-2009 17:50:02 11.7 C 7.64 g/m*3 11.7 C 0 km/h
91 20-11-2009 18:02:02 11.6 C 7.69 g/m*3 11.6 C 0 km/h
92 20-11-2009 18:14:02 11.6 C 7.8 g/m*3 11.6 C 0 km/h
93 20-11-2009 18:26:02 11.5 C 7.75 g/m*3 11.5 C 0 km/h
94 20-11-2009 18:38:02 11.6 C 7.8 g/m*3 11.6 C 0 km/h
95 20-11-2009 18:50:01 11.1 C 7.66 g/m*3 11.1 C 0 km/h
96 20-11-2009 19:02:01 11.2 C 7.8 g/m*3 11.2 C 0 km/h
97 20-11-2009 19:14:01 11.1 C 7.76 g/m*3 11.1 C 0 km/h
98 20-11-2009 19:26:02 11.1 C 7.76 g/m*3 11.1 C 0 km/h
99 20-11-2009 19:38:01 10.9 C 7.66 g/m*3 10.9 C 0 km/h
100 20-11-2009 19:50:01 10.9 C 7.76 g/m*3 10.9 C 0 km/h
Sensor: Nr:Datum:Temp:Abs-Feuchte:Windchill:Wind:
Aussen-T/F 101 20-11-2009 20:02:01 10.8 C 7.71 g/m*3 10.8 C 0 km/h
102 20-11-2009 20:14:01 10.5 C 7.57 g/m*3 10.5 C 0 km/h
103 20-11-2009 20:26:02 10.5 C 7.66 g/m*3 10.5 C 0 km/h
104 20-11-2009 20:38:01 10.5 C 7.66 g/m*3 10.5 C 0 km/h
105 20-11-2009 20:50:03 10.5 C 7.76 g/m*3 10.5 C 0 km/h
106 20-11-2009 21:02:02 10.6 C 7.71 g/m*3 10.6 C 0 km/h
107 20-11-2009 21:14:02 10.6 C 7.81 g/m*3 10.6 C 0 km/h
108 20-11-2009 21:26:02 10.6 C 7.81 g/m*3 10.6 C 0 km/h
109 20-11-2009 21:38:02 10.6 C 7.71 g/m*3 10.6 C 0 km/h
110 20-11-2009 21:50:01 10.4 C 7.61 g/m*3 10.4 C 0 km/h
111 20-11-2009 22:02:02 10.4 C 7.71 g/m*3 10.4 C 0 km/h
112 20-11-2009 22:14:02 10.5 C 7.86 g/m*3 10.5 C 0 km/h
113 20-11-2009 22:26:01 10.4 C 7.81 g/m*3 10.4 C 0 km/h
114 20-11-2009 22:38:01 10.4 C 7.81 g/m*3 10.4 C 0 km/h
115 20-11-2009 22:50:01 10.2 C 7.71 g/m*3 10.2 C 0 km/h
116 20-11-2009 23:02:02 10.2 C 7.71 g/m*3 10.2 C 0 km/h
117 20-11-2009 23:14:02 10.1 C 7.75 g/m*3 10.1 C 0 km/h
118 20-11-2009 23:26:01 10.1 C 7.75 g/m*3 10.1 C 0 km/h
119 20-11-2009 23:38:02 10 C 7.71 g/m*3 10 C 0 km/h
120 20-11-2009 23:51:03 10.1 C 7.75 g/m*3 10.1 C 0 km/h
121 21-11-2009 00:03:03 10 C 7.71 g/m*3 10 C 0 km/h
122 21-11-2009 00:15:03 9.8 C 7.79 g/m*3 9.8 C 0 km/h
123 21-11-2009 00:27:03 10.1 C 7.85 g/m*3 10.1 C 0 km/h
124 21-11-2009 00:39:03 10.2 C 7.8 g/m*3 10.2 C 0 km/h
125 21-11-2009 00:51:03 10.1 C 7.75 g/m*3 10.1 C 0 km/h
Sensor: Nr:Datum:Temp:Abs-Feuchte:Windchill:Wind:
Aussen-T/F 126 21-11-2009 01:03:03 10.2 C 7.8 g/m*3 10.2 C 0 km/h
127 21-11-2009 01:15:03 10.4 C 7.9 g/m*3 10.4 C 0 km/h
128 21-11-2009 01:27:03 10.2 C 7.71 g/m*3 10.2 C 0 km/h
129 21-11-2009 01:39:03 10.1 C 7.75 g/m*3 10.1 C 0 km/h
130 21-11-2009 01:51:03 10.2 C 7.8 g/m*3 10.2 C 0 km/h
131 21-11-2009 02:03:03 10 C 7.8 g/m*3 10 C 0 km/h
132 21-11-2009 02:15:04 10 C 7.8 g/m*3 10 C 0 km/h
133 21-11-2009 02:27:04 10.1 C 7.85 g/m*3 10.1 C 0 km/h
134 21-11-2009 02:39:04 10 C 7.8 g/m*3 10 C 0 km/h
135 21-11-2009 02:51:04 10.1 C 7.85 g/m*3 10.1 C 0 km/h
136 21-11-2009 03:03:04 10.2 C 7.9 g/m*3 10.2 C 0 km/h
137 21-11-2009 03:15:04 10.2 C 7.9 g/m*3 10.2 C 0 km/h
138 21-11-2009 03:27:04 10.1 C 7.75 g/m*3 10.1 C 0 km/h
139 21-11-2009 03:39:04 10 C 7.71 g/m*3 10 C 0 km/h
140 21-11-2009 03:51:04 10 C 7.8 g/m*3 10 C 0 km/h
141 21-11-2009 04:03:04 10.1 C 7.85 g/m*3 10.1 C 0 km/h
142 21-11-2009 04:15:04 10.1 C 7.85 g/m*3 10.1 C 0 km/h
143 21-11-2009 04:27:04 10.1 C 7.85 g/m*3 10.1 C 0 km/h
144 21-11-2009 04:39:04 9.9 C 7.84 g/m*3 9.9 C 0 km/h
145 21-11-2009 04:51:04 9.8 C 7.79 g/m*3 9.8 C 0 km/h
146 21-11-2009 05:03:04 9.7 C 7.74 g/m*3 9.7 C 0 km/h
147 21-11-2009 05:15:04 9.6 C 7.69 g/m*3 9.6 C 0 km/h
148 21-11-2009 05:27:04 9.5 C 7.74 g/m*3 9.5 C 0 km/h
149 21-11-2009 05:39:04 9.3 C 7.64 g/m*3 9.3 C 0 km/h
150 21-11-2009 05:51:04 9.3 C 7.64 g/m*3 9.3 C 0 km/h
Sensor: Nr:Datum:Temp:Abs-Feuchte:Windchill:Wind:
Aussen-T/F 151 21-11-2009 06:03:05 9.4 C 7.78 g/m*3 9.4 C 0 km/h
152 21-11-2009 06:15:05 9.4 C 7.78 g/m*3 9.4 C 0 km/h
153 21-11-2009 06:27:05 9.3 C 7.73 g/m*3 9.3 C 0 km/h
154 21-11-2009 06:39:05 9.3 C 7.73 g/m*3 9.3 C 0 km/h
155 21-11-2009 06:51:05 9.3 C 7.73 g/m*3 9.3 C 0 km/h
156 21-11-2009 07:03:05 9.3 C 7.82 g/m*3 9.3 C 0 km/h
157 21-11-2009 07:15:05 9.5 C 7.92 g/m*3 9.5 C 0 km/h
158 21-11-2009 07:27:05 9.5 C 8.01 g/m*3 9.5 C 0 km/h
159 21-11-2009 07:39:03 9.3 C 7.91 g/m*3 9.3 C 0 km/h
160 21-11-2009 07:51:02 9.3 C 8 g/m*3 9.3 C 0 km/h
161 21-11-2009 08:03:02 9.4 C 8.05 g/m*3 9.4 C 0 km/h
162 21-11-2009 08:15:02 9.3 C 8 g/m*3 9.3 C 0 km/h
163 21-11-2009 08:27:02 9.4 C 8.14 g/m*3 9.4 C 0 km/h
164 21-11-2009 08:39:02 9.5 C 8.19 g/m*3 9.5 C 0 km/h
165 21-11-2009 08:51:02 9.5 C 8.19 g/m*3 9.5 C 0 km/h
166 21-11-2009 09:03:02 9.6 C 8.24 g/m*3 9.6 C 0 km/h
167 21-11-2009 09:15:02 9.7 C 8.3 g/m*3 9.7 C 0 km/h
168 21-11-2009 09:27:02 9.8 C 8.35 g/m*3 9.8 C 0 km/h
169 21-11-2009 09:39:02 10 C 8.36 g/m*3 10 C 0 km/h
170 21-11-2009 09:51:02 10 C 8.27 g/m*3 10 C 0 km/h
171 21-11-2009 10:03:02 10.1 C 8.32 g/m*3 10.1 C 0 km/h
172 21-11-2009 10:15:02 10.3 C 8.43 g/m*3 10.3 C 0 km/h
173 21-11-2009 10:27:02 10.4 C 8.48 g/m*3 10.4 C 0 km/h
174 21-11-2009 10:39:02 10.5 C 8.53 g/m*3 10.5 C 0 km/h
175 21-11-2009 10:51:01 10.7 C 8.64 g/m*3 10.7 C 0 km/h
Sensor: Nr:Datum:Temp:Abs-Feuchte:Windchill:Wind:
Aussen-T/F 176 21-11-2009 11:03:01 11.2 C 8.92 g/m*3 11.2 C 0 km/h
177 21-11-2009 11:15:01 11.7 C 8.99 g/m*3 11.7 C 0 km/h
178 21-11-2009 11:27:01 12.2 C 9.17 g/m*3 12.2 C 0 km/h
179 21-11-2009 11:39:01 12.7 C 9.02 g/m*3 12.7 C 0 km/h
180 21-11-2009 11:51:01 13 C 8.85 g/m*3 13 C 0 km/h
181 21-11-2009 12:03:01 13.2 C 8.5 g/m*3 13.2 C 0 km/h
182 21-11-2009 12:15:02 13.8 C 8.46 g/m*3 13.8 C 0 km/h
183 21-11-2009 12:27:02 14 C 8.32 g/m*3 14 C 0 km/h
184 21-11-2009 12:39:01 14.2 C 8.43 g/m*3 14.2 C 0 km/h
185 21-11-2009 12:51:01 14.2 C 8.3 g/m*3 14.2 C 0 km/h
186 21-11-2009 13:03:01 14.3 C 8.48 g/m*3 14.3 C 0 km/h
187 21-11-2009 13:15:02 14.3 C 8.35 g/m*3 14.3 C 0 km/h
188 21-11-2009 13:27:02 14.4 C 8.53 g/m*3 14.4 C 0 km/h
189 21-11-2009 13:39:01 14.6 C 8.76 g/m*3 14.6 C 0 km/h
190 21-11-2009 13:51:03 14.5 C 8.71 g/m*3 14.5 C 0 km/h
191 21-11-2009 14:03:02 14.5 C 8.46 g/m*3 14.5 C 0 km/h
192 21-11-2009 14:15:02 14.9 C 7.9 g/m*3 14.9 C 0 km/h
193 21-11-2009 14:27:02 15.6 C 7.58 g/m*3 15.6 C 0 km/h
194 21-11-2009 14:39:02 15.6 C 7.05 g/m*3 15.6 C 0 km/h
195 21-11-2009 14:51:02 15.4 C 7.49 g/m*3 15.4 C 0 km/h
196 21-11-2009 15:03:02 15.3 C 7.84 g/m*3 15.3 C 0 km/h
197 21-11-2009 15:15:02 15.1 C 7.74 g/m*3 15.1 C 0 km/h
198 21-11-2009 15:27:03 15.1 C 7.61 g/m*3 15.1 C 0 km/h
199 21-11-2009 15:39:02 14.9 C 7.77 g/m*3 14.9 C 0 km/h
200 21-11-2009 15:51:02 14.6 C 7.76 g/m*3 14.6 C 0 km/h
Sensor: Nr:Datum:Temp:Abs-Feuchte:Windchill:Wind:
Aussen-T/F 201 21-11-2009 16:03:01 14.4 C 7.66 g/m*3 14.4 C 0 km/h
202 21-11-2009 16:15:02 14.3 C 7.49 g/m*3 14.3 C 0 km/h
203 21-11-2009 16:27:02 14.3 C 7.25 g/m*3 14.3 C 0 km/h
204 21-11-2009 16:39:02 14.1 C 7.16 g/m*3 14.1 C 0 km/h
205 21-11-2009 16:51:02 14 C 7.24 g/m*3 14 C 0 km/h
206 21-11-2009 17:03:02 14 C 7.12 g/m*3 14 C 0 km/h
207 21-11-2009 17:15:02 13.7 C 7.22 g/m*3 13.7 C 0 km/h
208 21-11-2009 17:27:02 13.3 C 7.16 g/m*3 13.3 C 0 km/h
209 21-11-2009 17:39:03 13.1 C 7.19 g/m*3 13.1 C 0 km/h
210 21-11-2009 17:51:02 13 C 7.14 g/m*3 13 C 0 km/h
211 21-11-2009 18:03:02 12.9 C 7.21 g/m*3 12.9 C 0 km/h
212 21-11-2009 18:15:02 12.6 C 7.19 g/m*3 12.6 C 0 km/h
213 21-11-2009 18:27:02 12.5 C 7.15 g/m*3 12.5 C 0 km/h
214 21-11-2009 18:39:02 12.4 C 7.21 g/m*3 12.4 C 0 km/h
215 21-11-2009 18:51:02 12.4 C 7.21 g/m*3 12.4 C 0 km/h
216 21-11-2009 19:03:02 12.6 C 7.3 g/m*3 12.6 C 0 km/h
217 21-11-2009 19:15:02 12.5 C 7.26 g/m*3 12.5 C 0 km/h
218 21-11-2009 19:27:02 12.4 C 7.21 g/m*3 12.4 C 0 km/h
219 21-11-2009 19:39:02 12.3 C 7.28 g/m*3 12.3 C 0 km/h
220 21-11-2009 19:51:01 12.1 C 7.29 g/m*3 12.1 C 0 km/h
221 21-11-2009 20:03:02 12.1 C 7.18 g/m*3 12.1 C 0 km/h
222 21-11-2009 20:15:01 12.2 C 7.12 g/m*3 12.2 C 0 km/h
223 21-11-2009 20:27:01 12.2 C 7.12 g/m*3 12.2 C 0 km/h
224 21-11-2009 20:39:02 12.2 C 7.01 g/m*3 12.2 C 0 km/h
225 21-11-2009 20:51:02 12.2 C 7.01 g/m*3 12.2 C 0 km/h
Sensor: Nr:Datum:Temp:Abs-Feuchte:Windchill:Wind:
Aussen-T/F 226 21-11-2009 21:03:02 12.1 C 6.97 g/m*3 12.1 C 0 km/h
227 21-11-2009 21:15:02 12.2 C 6.91 g/m*3 12.2 C 0 km/h
228 21-11-2009 21:27:02 12.2 C 6.91 g/m*3 12.2 C 0 km/h
229 21-11-2009 21:39:01 12.1 C 6.86 g/m*3 12.1 C 0 km/h
230 21-11-2009 21:51:01 12.1 C 6.97 g/m*3 12.1 C 0 km/h
231 21-11-2009 22:03:02 12.5 C 6.82 g/m*3 12.5 C 0 km/h
232 21-11-2009 22:16:03 12.7 C 6.68 g/m*3 12.7 C 0 km/h
233 21-11-2009 22:28:03 12.4 C 6.77 g/m*3 12.4 C 0 km/h
234 21-11-2009 22:40:03 12.2 C 6.91 g/m*3 12.2 C 0 km/h
235 21-11-2009 22:52:03 12 C 6.93 g/m*3 12 C 0 km/h
236 21-11-2009 23:04:03 11.9 C 7.1 g/m*3 11.9 C 0 km/h
237 21-11-2009 23:16:03 11.9 C 7.1 g/m*3 11.9 C 0 km/h
238 21-11-2009 23:28:03 12 C 6.93 g/m*3 12 C 0 km/h
239 21-11-2009 23:40:03 12.1 C 6.86 g/m*3 12.1 C 0 km/h
240 21-11-2009 23:52:03 12.1 C 7.08 g/m*3 12.1 C 0 km/h
241 22-11-2009 00:04:03 11.8 C 7.16 g/m*3 11.8 C 0 km/h
242 22-11-2009 00:16:03 11.7 C 7.22 g/m*3 11.7 C 0 km/h
243 22-11-2009 00:28:03 11.7 C 7.32 g/m*3 11.7 C 0 km/h
244 22-11-2009 00:40:03 11.6 C 7.28 g/m*3 11.6 C 0 km/h
245 22-11-2009 00:52:03 11.3 C 7.24 g/m*3 11.3 C 0 km/h
246 22-11-2009 01:04:03 11.3 C 7.45 g/m*3 11.3 C 0 km/h
247 22-11-2009 01:16:03 11.1 C 7.45 g/m*3 11.1 C 0 km/h
248 22-11-2009 01:28:03 11 C 7.51 g/m*3 11 C 0 km/h
249 22-11-2009 01:40:03 10.9 C 7.66 g/m*3 10.9 C 0 km/h
250 22-11-2009 01:52:03 10.8 C 7.61 g/m*3 10.8 C 0 km/h
Sensor: Nr:Datum:Temp:Abs-Feuchte:Windchill:Wind:
Aussen-T/F 251 22-11-2009 02:04:03 10.7 C 7.66 g/m*3 10.7 C 0 km/h
252 22-11-2009 02:16:04 10.6 C 7.61 g/m*3 10.6 C 0 km/h
253 22-11-2009 02:28:04 10.6 C 7.52 g/m*3 10.6 C 0 km/h
254 22-11-2009 02:40:04 10.7 C 7.46 g/m*3 10.7 C 0 km/h
255 22-11-2009 02:52:04 11.4 C 6.98 g/m*3 11.4 C 0 km/h
256 22-11-2009 03:04:04 11.8 C 6.74 g/m*3 11.8 C 0 km/h
257 22-11-2009 03:16:04 11.8 C 6.63 g/m*3 11.8 C 0 km/h
258 22-11-2009 03:28:04 11.3 C 6.83 g/m*3 11.3 C 0 km/h
259 22-11-2009 03:40:04 11 C 6.91 g/m*3 11 C 0 km/h
260 22-11-2009 03:52:04 10.9 C 6.96 g/m*3 10.9 C 0 km/h
261 22-11-2009 04:04:04 10.8 C 7.02 g/m*3 10.8 C 0 km/h
262 22-11-2009 04:16:04 10.6 C 7.03 g/m*3 10.6 C 0 km/h
263 22-11-2009 04:28:04 10.4 C 7.04 g/m*3 10.4 C 0 km/h
264 22-11-2009 04:40:04 10.4 C 7.13 g/m*3 10.4 C 0 km/h
265 22-11-2009 04:52:04 10.3 C 7.09 g/m*3 10.3 C 0 km/h
266 22-11-2009 05:04:04 10.3 C 7.09 g/m*3 10.3 C 0 km/h
267 22-11-2009 05:16:04 10.2 C 7.04 g/m*3 10.2 C 0 km/h
268 22-11-2009 05:28:04 10.2 C 7.04 g/m*3 10.2 C 0 km/h
269 22-11-2009 05:40:04 10.1 C 7.09 g/m*3 10.1 C 0 km/h
270 22-11-2009 05:52:04 10.1 C 7.09 g/m*3 10.1 C 0 km/h
271 22-11-2009 06:04:04 10.1 C 7.19 g/m*3 10.1 C 0 km/h
272 22-11-2009 06:16:05 10 C 7.24 g/m*3 10 C 0 km/h
273 22-11-2009 06:28:05 10 C 7.24 g/m*3 10 C 0 km/h
274 22-11-2009 06:40:05 9.9 C 7.38 g/m*3 9.9 C 0 km/h
275 22-11-2009 06:52:05 9.9 C 7.38 g/m*3 9.9 C 0 km/h
Sensor: Nr:Datum:Temp:Abs-Feuchte:Windchill:Wind:
Aussen-T/F 276 22-11-2009 07:04:05 9.9 C 7.28 g/m*3 9.9 C 0 km/h
277 22-11-2009 07:16:05 9.9 C 7.28 g/m*3 9.9 C 0 km/h
278 22-11-2009 07:28:05 9.7 C 7.28 g/m*3 9.7 C 0 km/h
279 22-11-2009 07:40:05 9.8 C 7.33 g/m*3 9.8 C 0 km/h
280 22-11-2009 07:52:05 9.8 C 7.33 g/m*3 9.8 C 0 km/h
281 22-11-2009 08:04:02 10.2 C 7.52 g/m*3 10.2 C 0 km/h
282 22-11-2009 08:16:03 11 C 7.41 g/m*3 11 C 0 km/h
283 22-11-2009 08:28:03 11.5 C 7.44 g/m*3 11.5 C 0 km/h
284 22-11-2009 08:40:02 12.3 C 7.38 g/m*3 12.3 C 0 km/h
285 22-11-2009 08:52:02 13.5 C 7.37 g/m*3 13.5 C 0 km/h
286 22-11-2009 09:04:02 14.1 C 7.16 g/m*3 14.1 C 0 km/h
287 22-11-2009 09:16:03 14 C 7.24 g/m*3 14 C 0 km/h
288 22-11-2009 09:28:03 13.9 C 7.31 g/m*3 13.9 C 0 km/h
289 22-11-2009 09:40:02 13.9 C 7.43 g/m*3 13.9 C 0 km/h
290 22-11-2009 09:52:03 13.7 C 7.22 g/m*3 13.7 C 0 km/h
291 22-11-2009 10:04:02 13.6 C 7.18 g/m*3 13.6 C 0 km/h
292 22-11-2009 10:16:02 13.7 C 6.87 g/m*3 13.7 C 0 km/h
293 22-11-2009 10:28:02 14 C 6.51 g/m*3 14 C 0 km/h
294 22-11-2009 10:40:02 14.1 C 6.19 g/m*3 14.1 C 0 km/h
295 22-11-2009 10:52:01 14.1 C 6.07 g/m*3 14.1 C 0 km/h
296 22-11-2009 11:04:02 14 C 6.03 g/m*3 14 C 0 km/h
297 22-11-2009 11:16:01 13.9 C 6.11 g/m*3 13.9 C 0 km/h
298 22-11-2009 11:28:01 13.9 C 5.99 g/m*3 13.9 C 0 km/h
299 22-11-2009 11:40:01 14 C 5.91 g/m*3 14 C 0 km/h
300 22-11-2009 11:52:01 13.6 C 6 g/m*3 13.6 C 0 km/h
Sensor: Nr:Datum:Temp:Abs-Feuchte:Windchill:Wind:
Aussen-T/F 301 22-11-2009 12:04:02 13.6 C 6 g/m*3 13.6 C 0 km/h
302 22-11-2009 12:16:01 13.7 C 6.04 g/m*3 13.7 C 0 km/h
303 22-11-2009 12:28:01 13.8 C 6.08 g/m*3 13.8 C 0 km/h
304 22-11-2009 12:40:02 13.7 C 6.04 g/m*3 13.7 C 0 km/h
305 22-11-2009 12:52:01 13.8 C 6.2 g/m*3 13.8 C 0 km/h
306 22-11-2009 13:04:02 13.7 C 6.04 g/m*3 13.7 C 0 km/h
307 22-11-2009 13:16:02 13.8 C 6.08 g/m*3 13.8 C 0 km/h
308 22-11-2009 13:28:02 13.8 C 5.96 g/m*3 13.8 C 0 km/h
309 22-11-2009 13:40:01 13.8 C 5.96 g/m*3 13.8 C 0 km/h
310 22-11-2009 13:52:01 14 C 5.79 g/m*3 14 C 0 km/h
311 22-11-2009 14:04:02 13.9 C 5.75 g/m*3 13.9 C 0 km/h
312 22-11-2009 14:16:02 14 C 5.67 g/m*3 14 C 0 km/h
313 22-11-2009 14:28:02 14 C 5.67 g/m*3 14 C 0 km/h
314 22-11-2009 14:40:01 14.1 C 5.58 g/m*3 14.1 C 0 km/h
315 22-11-2009 14:52:01 14 C 5.55 g/m*3 14 C 0 km/h
316 22-11-2009 15:04:01 13.6 C 5.41 g/m*3 13.6 C 0 km/h
317 22-11-2009 15:16:02 13.3 C 5.55 g/m*3 13.3 C 0 km/h
318 22-11-2009 15:28:02 13.3 C 5.55 g/m*3 13.3 C 0 km/h
319 22-11-2009 15:40:01 13.2 C 5.4 g/m*3 13.2 C 0 km/h
320 22-11-2009 15:52:02 13 C 5.44 g/m*3 13 C 0 km/h
321 22-11-2009 16:04:01 12.9 C 5.52 g/m*3 12.9 C 0 km/h
322 22-11-2009 16:16:02 13 C 5.56 g/m*3 13 C 0 km/h
323 22-11-2009 16:28:02 12.9 C 5.64 g/m*3 12.9 C 0 km/h
324 22-11-2009 16:40:01 12.5 C 5.61 g/m*3 12.5 C 0 km/h
325 22-11-2009 16:52:02 12 C 5.54 g/m*3 12 C 0 km/h
Sensor: Nr:Datum:Temp:Abs-Feuchte:Windchill:Wind:
Aussen-T/F 326 22-11-2009 17:04:02 11.7 C 5.65 g/m*3 11.7 C 0 km/h
327 22-11-2009 17:16:02 11.6 C 5.72 g/m*3 11.6 C 0 km/h
328 22-11-2009 17:28:02 11.5 C 5.68 g/m*3 11.5 C 0 km/h
329 22-11-2009 17:40:02 11.5 C 5.68 g/m*3 11.5 C 0 km/h
330 22-11-2009 17:52:02 11.6 C 5.72 g/m*3 11.6 C 0 km/h
331 22-11-2009 18:04:02 11.5 C 5.68 g/m*3 11.5 C 0 km/h
332 22-11-2009 18:16:02 11.5 C 5.58 g/m*3 11.5 C 0 km/h
333 22-11-2009 18:28:02 11.8 C 5.58 g/m*3 11.8 C 0 km/h
334 22-11-2009 18:40:02 11.8 C 5.58 g/m*3 11.8 C 0 km/h
335 22-11-2009 18:52:01 11.8 C 5.47 g/m*3 11.8 C 0 km/h
336 22-11-2009 19:04:02 11.8 C 5.37 g/m*3 11.8 C 0 km/h
337 22-11-2009 19:16:02 12 C 5.44 g/m*3 12 C 0 km/h
338 22-11-2009 19:28:02 11.8 C 5.47 g/m*3 11.8 C 0 km/h
339 22-11-2009 19:40:02 12.2 C 5.5 g/m*3 12.2 C 0 km/h
340 22-11-2009 19:52:02 12.7 C 5.57 g/m*3 12.7 C 0 km/h
341 22-11-2009 20:04:02 12.4 C 6.12 g/m*3 12.4 C 0 km/h
342 22-11-2009 20:16:02 10.8 C 6.92 g/m*3 10.8 C 0 km/h
343 22-11-2009 20:28:02 10.5 C 6.89 g/m*3 10.5 C 0 km/h
344 22-11-2009 20:40:01 10.7 C 6.68 g/m*3 10.7 C 0 km/h
345 22-11-2009 20:52:02 10.7 C 6.58 g/m*3 10.7 C 0 km/h
346 22-11-2009 21:04:02 10.7 C 6.38 g/m*3 10.7 C 0 km/h
347 22-11-2009 21:16:02 10.8 C 6.13 g/m*3 10.8 C 0 km/h
348 22-11-2009 21:28:02 11 C 5.71 g/m*3 11 C 0 km/h
349 22-11-2009 21:40:01 10.7 C 5.7 g/m*3 10.7 C 0 km/h
350 22-11-2009 21:52:02 10.9 C 5.77 g/m*3 10.9 C 0 km/h
Sensor: Nr:Datum:Temp:Abs-Feuchte:Windchill:Wind:
Aussen-T/F 351 22-11-2009 22:04:01 10.8 C 5.54 g/m*3 10.8 C 0 km/h
352 22-11-2009 22:17:02 10.8 C 5.44 g/m*3 10.8 C 0 km/h
353 22-11-2009 22:29:02 10.6 C 5.27 g/m*3 10.6 C 0 km/h
354 22-11-2009 22:41:02 10.7 C 5.3 g/m*3 10.7 C 0 km/h
355 22-11-2009 22:53:02 9.9 C 5.98 g/m*3 9.9 C 0 km/h
356 22-11-2009 23:05:02 9.8 C 6.03 g/m*3 9.8 C 0 km/h
357 22-11-2009 23:17:02 10.3 C 5.75 g/m*3 10.3 C 0 km/h
358 22-11-2009 23:29:02 10.7 C 5.5 g/m*3 10.7 C 0 km/h
359 22-11-2009 23:41:02 10.4 C 5.49 g/m*3 10.4 C 0 km/h
360 22-11-2009 23:53:02 10.2 C 5.52 g/m*3 10.2 C 0 km/h
361 23-11-2009 00:05:02 10.1 C 5.39 g/m*3 10.1 C 0 km/h
362 23-11-2009 00:17:02 10.3 C 5.36 g/m*3 10.3 C 0 km/h
363 23-11-2009 00:29:02 10.4 C 5.4 g/m*3 10.4 C 0 km/h
364 23-11-2009 00:41:02 10.3 C 5.36 g/m*3 10.3 C 0 km/h
365 23-11-2009 00:53:02 10.5 C 5.53 g/m*3 10.5 C 0 km/h
366 23-11-2009 01:05:03 8.9 C 6.48 g/m*3 8.9 C 0 km/h
367 23-11-2009 01:17:03 8.3 C 6.66 g/m*3 8.3 C 0 km/h
368 23-11-2009 01:29:03 8.4 C 6.62 g/m*3 8.4 C 0 km/h
369 23-11-2009 01:41:03 9.1 C 6.39 g/m*3 9.1 C 0 km/h
370 23-11-2009 01:53:03 9.1 C 6.21 g/m*3 9.1 C 0 km/h
371 23-11-2009 02:05:03 9 C 6.17 g/m*3 9 C 0 km/h
372 23-11-2009 02:17:03 9.1 C 6.21 g/m*3 9.1 C 0 km/h
373 23-11-2009 02:29:03 8.5 C 6.4 g/m*3 8.5 C 0 km/h
374 23-11-2009 02:41:03 8.2 C 6.28 g/m*3 8.2 C 0 km/h
375 23-11-2009 02:53:03 8.3 C 6.15 g/m*3 8.3 C 0 km/h
Sensor: Nr:Datum:Temp:Abs-Feuchte:Windchill:Wind:
Aussen-T/F 376 23-11-2009 03:05:03 8.5 C 6.06 g/m*3 8.5 C 0 km/h
377 23-11-2009 03:17:03 8.6 C 6.1 g/m*3 8.6 C 0 km/h
378 23-11-2009 03:29:03 8.5 C 6.06 g/m*3 8.5 C 0 km/h
379 23-11-2009 03:41:03 8.5 C 6.15 g/m*3 8.5 C 0 km/h
380 23-11-2009 03:53:03 8.5 C 5.98 g/m*3 8.5 C 0 km/h
381 23-11-2009 04:05:03 8.6 C 5.76 g/m*3 8.6 C 0 km/h
382 23-11-2009 04:17:03 8.7 C 5.79 g/m*3 8.7 C 0 km/h
383 23-11-2009 04:29:03 8.7 C 5.88 g/m*3 8.7 C 0 km/h
384 23-11-2009 04:41:03 8.6 C 5.93 g/m*3 8.6 C 0 km/h
385 23-11-2009 04:53:03 8.9 C 5.87 g/m*3 8.9 C 0 km/h
386 23-11-2009 05:05:04 8.9 C 5.87 g/m*3 8.9 C 0 km/h
387 23-11-2009 05:17:04 8.6 C 5.93 g/m*3 8.6 C 0 km/h
388 23-11-2009 05:29:04 8.8 C 5.92 g/m*3 8.8 C 0 km/h
389 23-11-2009 05:41:04 8.8 C 5.92 g/m*3 8.8 C 0 km/h
390 23-11-2009 05:53:04 8.7 C 6.05 g/m*3 8.7 C 0 km/h
391 23-11-2009 06:05:04 8.9 C 6.04 g/m*3 8.9 C 0 km/h
392 23-11-2009 06:17:04 8.9 C 5.96 g/m*3 8.9 C 0 km/h
393 23-11-2009 06:29:04 9.1 C 5.86 g/m*3 9.1 C 0 km/h
394 23-11-2009 06:41:04 9.1 C 5.86 g/m*3 9.1 C 0 km/h
395 23-11-2009 06:53:04 9.2 C 5.8 g/m*3 9.2 C 0 km/h
396 23-11-2009 07:05:02 9 C 5.99 g/m*3 9 C 0 km/h
397 23-11-2009 07:17:01 8.8 C 6.18 g/m*3 8.8 C 0 km/h
398 23-11-2009 07:29:01 8.8 C 6.18 g/m*3 8.8 C 0 km/h
399 23-11-2009 07:41:01 8.9 C 6.22 g/m*3 8.9 C 0 km/h
400 23-11-2009 07:53:01 9.2 C 6.16 g/m*3 9.2 C 0 km/h
Sensor: Nr:Datum:Temp:Abs-Feuchte:Windchill:Wind:
Aussen-T/F 401 23-11-2009 08:05:02 9.1 C 6.21 g/m*3 9.1 C 0 km/h
402 23-11-2009 08:17:01 9.3 C 6.11 g/m*3 9.3 C 0 km/h
403 23-11-2009 08:29:01 9.5 C 6.01 g/m*3 9.5 C 0 km/h
404 23-11-2009 08:41:01 9.6 C 5.95 g/m*3 9.6 C 0 km/h
405 23-11-2009 08:53:01 9.9 C 5.98 g/m*3 9.9 C 0 km/h
406 23-11-2009 09:05:02 9.7 C 6.08 g/m*3 9.7 C 0 km/h
407 23-11-2009 09:17:02 9.8 C 6.22 g/m*3 9.8 C 0 km/h
408 23-11-2009 09:29:02 9.8 C 6.31 g/m*3 9.8 C 0 km/h
409 23-11-2009 09:41:01 10.1 C 6.15 g/m*3 10.1 C 0 km/h
410 23-11-2009 09:53:01 10.3 C 6.13 g/m*3 10.3 C 0 km/h
411 23-11-2009 10:05:02 10.5 C 6.11 g/m*3 10.5 C 0 km/h
412 23-11-2009 10:17:01 10.5 C 6.11 g/m*3 10.5 C 0 km/h
413 23-11-2009 10:29:01 10.5 C 6.01 g/m*3 10.5 C 0 km/h
414 23-11-2009 10:41:02 10.4 C 6.26 g/m*3 10.4 C 0 km/h
415 23-11-2009 10:53:02 10.1 C 6.43 g/m*3 10.1 C 0 km/h
416 23-11-2009 11:05:02 10.5 C 6.5 g/m*3 10.5 C 0 km/h
417 23-11-2009 11:17:01 10.7 C 6.48 g/m*3 10.7 C 0 km/h
418 23-11-2009 11:29:01 10.9 C 6.47 g/m*3 10.9 C 0 km/h
419 23-11-2009 11:41:02 11 C 6.51 g/m*3 11 C 0 km/h
420 23-11-2009 11:53:02 11 C 6.51 g/m*3 11 C 0 km/h
421 23-11-2009 12:05:02 11.1 C 6.65 g/m*3 11.1 C 0 km/h
422 23-11-2009 12:17:01 11.3 C 6.73 g/m*3 11.3 C 0 km/h
423 23-11-2009 12:29:01 11.2 C 6.69 g/m*3 11.2 C 0 km/h
424 23-11-2009 12:41:02 11.3 C 6.73 g/m*3 11.3 C 0 km/h
425 23-11-2009 12:53:02 11.2 C 6.89 g/m*3 11.2 C 0 km/h
Sensor: Nr:Datum:Temp:Abs-Feuchte:Windchill:Wind:
Aussen-T/F 426 23-11-2009 13:05:02 10.8 C 7.12 g/m*3 10.8 C 0 km/h
427 23-11-2009 13:17:02 10.4 C 7.42 g/m*3 10.4 C 0 km/h
428 23-11-2009 13:29:02 10.4 C 7.61 g/m*3 10.4 C 0 km/h
429 23-11-2009 13:41:02 10.6 C 7.52 g/m*3 10.6 C 0 km/h
430 23-11-2009 13:53:01 10.7 C 7.56 g/m*3 10.7 C 0 km/h
431 23-11-2009 14:05:02 10.7 C 7.76 g/m*3 10.7 C 0 km/h
432 23-11-2009 14:17:02 11 C 7.71 g/m*3 11 C 0 km/h
433 23-11-2009 14:29:02 11.1 C 7.76 g/m*3 11.1 C 0 km/h
434 23-11-2009 14:41:02 11.3 C 7.75 g/m*3 11.3 C 0 km/h
435 23-11-2009 14:53:02 11.5 C 7.85 g/m*3 11.5 C 0 km/h
436 23-11-2009 15:05:02 11.5 C 7.85 g/m*3 11.5 C 0 km/h
437 23-11-2009 15:17:02 11.4 C 8.01 g/m*3 11.4 C 0 km/h
438 23-11-2009 15:29:03 11.5 C 8.06 g/m*3 11.5 C 0 km/h
439 23-11-2009 15:41:01 11.1 C 7.96 g/m*3 11.1 C 0 km/h
440 23-11-2009 15:53:02 11.1 C 8.16 g/m*3 11.1 C 0 km/h
441 23-11-2009 16:05:01 11.2 C 8.11 g/m*3 11.2 C 0 km/h
442 23-11-2009 16:17:02 11.3 C 8.06 g/m*3 11.3 C 0 km/h
443 23-11-2009 16:29:02 11.1 C 8.06 g/m*3 11.1 C 0 km/h
444 23-11-2009 16:41:02 11.2 C 8.11 g/m*3 11.2 C 0 km/h
445 23-11-2009 16:53:02 11.2 C 8.11 g/m*3 11.2 C 0 km/h
446 23-11-2009 17:05:02 11.1 C 8.16 g/m*3 11.1 C 0 km/h
447 23-11-2009 17:17:02 11 C 8.21 g/m*3 11 C 0 km/h
448 23-11-2009 17:29:02 10.8 C 8.2 g/m*3 10.8 C 0 km/h
449 23-11-2009 17:41:03 10.9 C 8.26 g/m*3 10.9 C 0 km/h
450 23-11-2009 17:53:02 11.1 C 8.16 g/m*3 11.1 C 0 km/h
Sensor: Nr:Datum:Temp:Abs-Feuchte:Windchill:Wind:
Aussen-T/F 451 23-11-2009 18:05:02 11.5 C 8.16 g/m*3 11.5 C 0 km/h
452 23-11-2009 18:17:01 11.6 C 8 g/m*3 11.6 C 0 km/h
453 23-11-2009 18:29:01 11.7 C 7.84 g/m*3 11.7 C 0 km/h
454 23-11-2009 18:41:02 11.8 C 7.79 g/m*3 11.8 C 0 km/h
455 23-11-2009 18:53:02 11.9 C 7.73 g/m*3 11.9 C 0 km/h
456 23-11-2009 19:05:02 11.7 C 7.84 g/m*3 11.7 C 0 km/h
457 23-11-2009 19:17:02 11.7 C 7.84 g/m*3 11.7 C 0 km/h
458 23-11-2009 19:29:02 11.8 C 7.89 g/m*3 11.8 C 0 km/h
459 23-11-2009 19:41:02 11.7 C 7.74 g/m*3 11.7 C 0 km/h
460 23-11-2009 19:53:02 11.7 C 7.84 g/m*3 11.7 C 0 km/h
461 23-11-2009 20:05:02 11.9 C 7.84 g/m*3 11.9 C 0 km/h
462 23-11-2009 20:17:02 11.8 C 7.89 g/m*3 11.8 C 0 km/h
463 23-11-2009 20:29:02 11.9 C 7.94 g/m*3 11.9 C 0 km/h
464 23-11-2009 20:41:02 11.6 C 8 g/m*3 11.6 C 0 km/h
465 23-11-2009 20:53:01 11.5 C 8.06 g/m*3 11.5 C 0 km/h
466 23-11-2009 21:05:02 11.4 C 8.21 g/m*3 11.4 C 0 km/h
467 23-11-2009 21:17:01 11.4 C 8.31 g/m*3 11.4 C 0 km/h
468 23-11-2009 21:29:01 11.4 C 8.42 g/m*3 11.4 C 0 km/h
469 23-11-2009 21:41:02 11.5 C 8.37 g/m*3 11.5 C 0 km/h
470 23-11-2009 21:53:02 11.5 C 8.26 g/m*3 11.5 C 0 km/h
471 23-11-2009 22:06:04 11.8 C 8.1 g/m*3 11.8 C 0 km/h
472 23-11-2009 22:18:04 12 C 7.99 g/m*3 12 C 0 km/h
473 23-11-2009 22:30:04 12.2 C 7.99 g/m*3 12.2 C 0 km/h
474 23-11-2009 22:42:04 12.1 C 8.04 g/m*3 12.1 C 0 km/h
475 23-11-2009 22:54:04 11.8 C 8.1 g/m*3 11.8 C 0 km/h
Sensor: Nr:Datum:Temp:Abs-Feuchte:Windchill:Wind:
Aussen-T/F 476 23-11-2009 23:06:04 11.2 C 8.31 g/m*3 11.2 C 0 km/h
477 23-11-2009 23:18:04 10.6 C 8.1 g/m*3 10.6 C 0 km/h
478 23-11-2009 23:30:04 10.3 C 7.95 g/m*3 10.3 C 0 km/h
479 23-11-2009 23:42:04 10.5 C 7.66 g/m*3 10.5 C 0 km/h
480 23-11-2009 23:54:04 11 C 7.01 g/m*3 11 C 0 km/h
481 24-11-2009 00:06:04 11.1 C 6.45 g/m*3 11.1 C 0 km/h
482 24-11-2009 00:18:04 10.8 C 6.52 g/m*3 10.8 C 0 km/h
483 24-11-2009 00:30:04 11 C 6.31 g/m*3 11 C 0 km/h
484 24-11-2009 00:42:04 11.3 C 6.12 g/m*3 11.3 C 0 km/h
485 24-11-2009 00:54:04 11.5 C 6.2 g/m*3 11.5 C 0 km/h
486 24-11-2009 01:06:04 11.2 C 6.28 g/m*3 11.2 C 0 km/h
487 24-11-2009 01:18:04 11.1 C 6.25 g/m*3 11.1 C 0 km/h
488 24-11-2009 01:30:05 11 C 6.41 g/m*3 11 C 0 km/h
489 24-11-2009 01:42:05 11.1 C 6.55 g/m*3 11.1 C 0 km/h
490 24-11-2009 01:54:05 11.1 C 6.45 g/m*3 11.1 C 0 km/h
491 24-11-2009 02:06:05 11.2 C 6.28 g/m*3 11.2 C 0 km/h
492 24-11-2009 02:18:05 11.2 C 6.28 g/m*3 11.2 C 0 km/h
493 24-11-2009 02:30:05 11 C 6.21 g/m*3 11 C 0 km/h
494 24-11-2009 02:42:05 11 C 6.11 g/m*3 11 C 0 km/h
495 24-11-2009 02:54:05 11 C 6.11 g/m*3 11 C 0 km/h
496 24-11-2009 03:06:05 10.9 C 6.17 g/m*3 10.9 C 0 km/h
497 24-11-2009 03:18:05 10.8 C 6.23 g/m*3 10.8 C 0 km/h
498 24-11-2009 03:30:05 10.7 C 6.29 g/m*3 10.7 C 0 km/h
499 24-11-2009 03:42:05 10.7 C 6.19 g/m*3 10.7 C 0 km/h
500 24-11-2009 03:54:05 10.7 C 6.19 g/m*3 10.7 C 0 km/h
Sensor: Nr:Datum:Temp:Abs-Feuchte:Windchill:Wind:
Aussen-T/F 501 24-11-2009 04:06:05 10.7 C 6.29 g/m*3 10.7 C 0 km/h
502 24-11-2009 04:18:05 10.6 C 6.25 g/m*3 10.6 C 0 km/h
503 24-11-2009 04:30:05 10.5 C 6.3 g/m*3 10.5 C 0 km/h
504 24-11-2009 04:42:05 10.5 C 6.3 g/m*3 10.5 C 0 km/h
505 24-11-2009 04:54:05 10.4 C 6.36 g/m*3 10.4 C 0 km/h
506 24-11-2009 05:06:05 10.5 C 6.4 g/m*3 10.5 C 0 km/h
507 24-11-2009 05:18:05 10.5 C 6.4 g/m*3 10.5 C 0 km/h
508 24-11-2009 05:30:06 10.6 C 6.34 g/m*3 10.6 C 0 km/h
509 24-11-2009 05:42:06 10.6 C 6.44 g/m*3 10.6 C 0 km/h
510 24-11-2009 05:54:06 10.4 C 6.46 g/m*3 10.4 C 0 km/h
511 24-11-2009 06:06:06 10.5 C 6.5 g/m*3 10.5 C 0 km/h
512 24-11-2009 06:18:06 10.4 C 6.55 g/m*3 10.4 C 0 km/h
513 24-11-2009 06:30:06 10.4 C 6.55 g/m*3 10.4 C 0 km/h
514 24-11-2009 06:42:06 10.4 C 6.55 g/m*3 10.4 C 0 km/h
515 24-11-2009 06:54:02 10.3 C 6.51 g/m*3 10.3 C 0 km/h
516 24-11-2009 07:06:02 10.5 C 6.5 g/m*3 10.5 C 0 km/h
517 24-11-2009 07:18:02 10.5 C 6.4 g/m*3 10.5 C 0 km/h
518 24-11-2009 07:30:02 10.3 C 6.32 g/m*3 10.3 C 0 km/h
519 24-11-2009 07:42:02 9.9 C 6.35 g/m*3 9.9 C 0 km/h
520 24-11-2009 07:54:02 9.8 C 6.31 g/m*3 9.8 C 0 km/h
521 24-11-2009 08:06:01 9.7 C 6.36 g/m*3 9.7 C 0 km/h
522 24-11-2009 08:18:02 9.5 C 6.28 g/m*3 9.5 C 0 km/h
523 24-11-2009 08:30:02 9.5 C 6.37 g/m*3 9.5 C 0 km/h
524 24-11-2009 08:42:02 9.4 C 6.33 g/m*3 9.4 C 0 km/h
525 24-11-2009 08:54:02 9.4 C 6.42 g/m*3 9.4 C 0 km/h
Sensor: Nr:Datum:Temp:Abs-Feuchte:Windchill:Wind:
Aussen-T/F 526 24-11-2009 09:06:03 9.8 C 6.49 g/m*3 9.8 C 0 km/h
527 24-11-2009 09:18:02 10 C 6.39 g/m*3 10 C 0 km/h
528 24-11-2009 09:30:02 10 C 6.48 g/m*3 10 C 0 km/h
529 24-11-2009 09:42:02 10.1 C 6.62 g/m*3 10.1 C 0 km/h
530 24-11-2009 09:54:01 10.2 C 6.66 g/m*3 10.2 C 0 km/h
531 24-11-2009 10:06:01 10.4 C 6.84 g/m*3 10.4 C 0 km/h
532 24-11-2009 10:18:01 10.5 C 6.98 g/m*3 10.5 C 0 km/h
533 24-11-2009 10:30:01 10.3 C 6.99 g/m*3 10.3 C 0 km/h
534 24-11-2009 10:42:02 10.3 C 7.37 g/m*3 10.3 C 0 km/h
535 24-11-2009 10:54:02 10.6 C 7.61 g/m*3 10.6 C 0 km/h
536 24-11-2009 11:06:02 11 C 7.71 g/m*3 11 C 0 km/h
537 24-11-2009 11:18:02 11.1 C 7.76 g/m*3 11.1 C 0 km/h
538 24-11-2009 11:30:02 11.4 C 7.9 g/m*3 11.4 C 0 km/h
539 24-11-2009 11:42:02 11.5 C 8.06 g/m*3 11.5 C 0 km/h
540 24-11-2009 11:54:01 11.4 C 8.21 g/m*3 11.4 C 0 km/h
541 24-11-2009 12:06:02 11.5 C 8.37 g/m*3 11.5 C 0 km/h
542 24-11-2009 12:18:01 11.7 C 8.58 g/m*3 11.7 C 0 km/h
543 24-11-2009 12:30:01 11.9 C 8.79 g/m*3 11.9 C 0 km/h
544 24-11-2009 12:42:02 12.2 C 8.96 g/m*3 12.2 C 0 km/h
545 24-11-2009 12:54:02 12.3 C 9.01 g/m*3 12.3 C 0 km/h
546 24-11-2009 13:06:02 12.5 C 9.24 g/m*3 12.5 C 0 km/h
547 24-11-2009 13:18:01 12.8 C 9.3 g/m*3 12.8 C 0 km/h
548 24-11-2009 13:30:01 13.3 C 9.24 g/m*3 13.3 C 0 km/h
549 24-11-2009 13:42:02 13.3 C 9.24 g/m*3 13.3 C 0 km/h
550 24-11-2009 13:54:02 13.7 C 9.35 g/m*3 13.7 C 0 km/h
Sensor: Nr:Datum:Temp:Abs-Feuchte:Windchill:Wind:
Aussen-T/F 551 24-11-2009 14:06:02 13.9 C 9.23 g/m*3 13.9 C 0 km/h
552 24-11-2009 14:18:01 14.1 C 8.86 g/m*3 14.1 C 0 km/h
553 24-11-2009 14:30:01 14.2 C 8.43 g/m*3 14.2 C 0 km/h
554 24-11-2009 14:42:02 14.4 C 8.03 g/m*3 14.4 C 0 km/h
555 24-11-2009 14:54:02 14.4 C 7.91 g/m*3 14.4 C 0 km/h
556 24-11-2009 15:06:02 14.2 C 8.06 g/m*3 14.2 C 0 km/h
557 24-11-2009 15:18:02 13.9 C 8.39 g/m*3 13.9 C 0 km/h
558 24-11-2009 15:30:02 13.7 C 8.41 g/m*3 13.7 C 0 km/h
559 24-11-2009 15:42:02 13.6 C 8.47 g/m*3 13.6 C 0 km/h
560 24-11-2009 15:54:02 13.5 C 8.54 g/m*3 13.5 C 0 km/h
561 24-11-2009 16:06:02 13.5 C 8.42 g/m*3 13.5 C 0 km/h
562 24-11-2009 16:18:02 13.4 C 8.25 g/m*3 13.4 C 0 km/h
563 24-11-2009 16:30:02 13.3 C 8.2 g/m*3 13.3 C 0 km/h
564 24-11-2009 16:42:02 13.3 C 8.2 g/m*3 13.3 C 0 km/h
565 24-11-2009 16:54:01 13.2 C 8.15 g/m*3 13.2 C 0 km/h
566 24-11-2009 17:06:02 13.4 C 8.25 g/m*3 13.4 C 0 km/h
567 24-11-2009 17:18:02 13.2 C 8.15 g/m*3 13.2 C 0 km/h
568 24-11-2009 17:30:02 13.3 C 8.2 g/m*3 13.3 C 0 km/h
569 24-11-2009 17:42:02 13.2 C 8.15 g/m*3 13.2 C 0 km/h
570 24-11-2009 17:54:02 13.2 C 8.27 g/m*3 13.2 C 0 km/h
571 24-11-2009 18:06:02 13.1 C 8.22 g/m*3 13.1 C 0 km/h
572 24-11-2009 18:18:02 13.1 C 8.33 g/m*3 13.1 C 0 km/h
573 24-11-2009 18:30:03 13.1 C 8.33 g/m*3 13.1 C 0 km/h
574 24-11-2009 18:42:01 13 C 8.28 g/m*3 13 C 0 km/h
575 24-11-2009 18:54:02 13 C 8.28 g/m*3 13 C 0 km/h
Sensor: Nr:Datum:Temp:Abs-Feuchte:Windchill:Wind:
Aussen-T/F 576 24-11-2009 19:06:01 13.1 C 8.22 g/m*3 13.1 C 0 km/h
577 24-11-2009 19:18:02 13.1 C 8.1 g/m*3 13.1 C 0 km/h
578 24-11-2009 19:30:02 13 C 8.05 g/m*3 13 C 0 km/h
579 24-11-2009 19:42:02 13 C 8.05 g/m*3 13 C 0 km/h
580 24-11-2009 19:54:02 13 C 7.94 g/m*3 13 C 0 km/h
581 24-11-2009 20:06:02 13 C 7.94 g/m*3 13 C 0 km/h
582 24-11-2009 20:18:02 13.1 C 7.87 g/m*3 13.1 C 0 km/h
583 24-11-2009 20:30:02 13.1 C 7.87 g/m*3 13.1 C 0 km/h
584 24-11-2009 20:42:02 13.1 C 7.76 g/m*3 13.1 C 0 km/h
585 24-11-2009 20:54:02 13.2 C 7.81 g/m*3 13.2 C 0 km/h
586 24-11-2009 21:06:01 13.3 C 7.74 g/m*3 13.3 C 0 km/h
587 24-11-2009 21:18:02 13.4 C 7.67 g/m*3 13.4 C 0 km/h
588 24-11-2009 21:30:02 13.3 C 7.63 g/m*3 13.3 C 0 km/h
589 24-11-2009 21:42:01 13.3 C 7.63 g/m*3 13.3 C 0 km/h
590 24-11-2009 21:54:02 13.1 C 7.53 g/m*3 13.1 C 0 km/h
591 24-11-2009 22:06:01 13.3 C 7.51 g/m*3 13.3 C 0 km/h
592 24-11-2009 22:18:02 13.3 C 7.39 g/m*3 13.3 C 0 km/h
593 24-11-2009 22:30:02 13.4 C 7.32 g/m*3 13.4 C 0 km/h
594 24-11-2009 22:42:01 13.3 C 7.28 g/m*3 13.3 C 0 km/h
595 24-11-2009 22:55:03 13.3 C 7.28 g/m*3 13.3 C 0 km/h
596 24-11-2009 23:07:03 13.2 C 7.12 g/m*3 13.2 C 0 km/h
597 24-11-2009 23:19:03 13.2 C 7 g/m*3 13.2 C 0 km/h
598 24-11-2009 23:31:03 13.2 C 6.89 g/m*3 13.2 C 0 km/h
599 24-11-2009 23:43:03 13.2 C 6.77 g/m*3 13.2 C 0 km/h
600 24-11-2009 23:55:03 13.1 C 6.62 g/m*3 13.1 C 0 km/h
Sensor: Nr:Datum:Temp:Abs-Feuchte:Windchill:Wind:
Aussen-T/F 601 25-11-2009 00:07:03 13.2 C 6.54 g/m*3 13.2 C 0 km/h
602 25-11-2009 00:19:03 13.2 C 6.54 g/m*3 13.2 C 0 km/h
603 25-11-2009 00:31:03 13.2 C 6.54 g/m*3 13.2 C 0 km/h
604 25-11-2009 00:43:03 13.2 C 6.54 g/m*3 13.2 C 0 km/h
605 25-11-2009 00:55:03 13.1 C 6.5 g/m*3 13.1 C 0 km/h
606 25-11-2009 01:07:03 13.1 C 6.62 g/m*3 13.1 C 0 km/h
607 25-11-2009 01:19:03 13.1 C 6.73 g/m*3 13.1 C 0 km/h
608 25-11-2009 01:31:03 12.9 C 6.88 g/m*3 12.9 C 0 km/h
609 25-11-2009 01:43:04 13 C 6.8 g/m*3 13 C 0 km/h
610 25-11-2009 01:55:04 13.1 C 6.85 g/m*3 13.1 C 0 km/h
611 25-11-2009 02:07:04 13 C 7.03 g/m*3 13 C 0 km/h
612 25-11-2009 02:19:04 12.9 C 7.1 g/m*3 12.9 C 0 km/h
613 25-11-2009 02:31:04 12.8 C 7.06 g/m*3 12.8 C 0 km/h
614 25-11-2009 02:43:04 12.9 C 6.99 g/m*3 12.9 C 0 km/h
615 25-11-2009 02:55:04 12.9 C 6.76 g/m*3 12.9 C 0 km/h
616 25-11-2009 03:07:04 12.9 C 6.76 g/m*3 12.9 C 0 km/h
617 25-11-2009 03:19:04 13 C 6.58 g/m*3 13 C 0 km/h
618 25-11-2009 03:31:04 13 C 6.46 g/m*3 13 C 0 km/h
619 25-11-2009 03:43:04 13.1 C 6.5 g/m*3 13.1 C 0 km/h
620 25-11-2009 03:55:04 13.1 C 6.5 g/m*3 13.1 C 0 km/h
621 25-11-2009 04:07:04 13 C 6.46 g/m*3 13 C 0 km/h
622 25-11-2009 04:19:04 12.9 C 6.42 g/m*3 12.9 C 0 km/h
623 25-11-2009 04:31:04 13 C 6.24 g/m*3 13 C 0 km/h
624 25-11-2009 04:43:04 12.8 C 6.38 g/m*3 12.8 C 0 km/h
625 25-11-2009 04:55:04 12.7 C 6.35 g/m*3 12.7 C 0 km/h
Sensor: Nr:Datum:Temp:Abs-Feuchte:Windchill:Wind:
Aussen-T/F 626 25-11-2009 05:07:04 12.7 C 6.35 g/m*3 12.7 C 0 km/h
627 25-11-2009 05:19:04 12.6 C 6.31 g/m*3 12.6 C 0 km/h
628 25-11-2009 05:31:04 12.4 C 6.23 g/m*3 12.4 C 0 km/h
629 25-11-2009 05:43:05 12.2 C 6.26 g/m*3 12.2 C 0 km/h
630 25-11-2009 05:55:05 12.1 C 6.33 g/m*3 12.1 C 0 km/h
631 25-11-2009 06:07:05 11.9 C 6.35 g/m*3 11.9 C 0 km/h
632 25-11-2009 06:19:05 11.7 C 6.38 g/m*3 11.7 C 0 km/h
633 25-11-2009 06:31:05 11.5 C 6.3 g/m*3 11.5 C 0 km/h
634 25-11-2009 06:43:05 11.4 C 6.36 g/m*3 11.4 C 0 km/h
635 25-11-2009 06:55:05 11.2 C 6.28 g/m*3 11.2 C 0 km/h
636 25-11-2009 07:07:02 11.2 C 6.28 g/m*3 11.2 C 0 km/h
637 25-11-2009 07:19:03 11.2 C 6.28 g/m*3 11.2 C 0 km/h
638 25-11-2009 07:31:02 10.7 C 6.29 g/m*3 10.7 C 0 km/h
639 25-11-2009 07:43:02 10.1 C 6.24 g/m*3 10.1 C 0 km/h
640 25-11-2009 07:55:02 10 C 6.3 g/m*3 10 C 0 km/h
641 25-11-2009 08:07:01 9.8 C 6.31 g/m*3 9.8 C 0 km/h
642 25-11-2009 08:19:02 9.5 C 6.28 g/m*3 9.5 C 0 km/h
643 25-11-2009 08:31:01 9.5 C 6.28 g/m*3 9.5 C 0 km/h
644 25-11-2009 08:43:01 9.4 C 6.33 g/m*3 9.4 C 0 km/h
645 25-11-2009 08:55:02 9.3 C 6.29 g/m*3 9.3 C 0 km/h
646 25-11-2009 09:07:02 9.5 C 6.46 g/m*3 9.5 C 0 km/h
647 25-11-2009 09:19:02 9.4 C 6.33 g/m*3 9.4 C 0 km/h
648 25-11-2009 09:31:02 9.4 C 6.42 g/m*3 9.4 C 0 km/h
649 25-11-2009 09:43:02 9.5 C 6.37 g/m*3 9.5 C 0 km/h
650 25-11-2009 09:55:02 10.2 C 6.28 g/m*3 10.2 C 0 km/h
Sensor: Nr:Datum:Temp:Abs-Feuchte:Windchill:Wind:
Aussen-T/F 651 25-11-2009 10:07:02 10.6 C 6.34 g/m*3 10.6 C 0 km/h
652 25-11-2009 10:19:02 11.2 C 6.18 g/m*3 11.2 C 0 km/h
653 25-11-2009 10:31:01 11.5 C 6.2 g/m*3 11.5 C 0 km/h
654 25-11-2009 10:43:01 11.2 C 6.08 g/m*3 11.2 C 0 km/h
655 25-11-2009 10:55:02 11.2 C 6.18 g/m*3 11.2 C 0 km/h
656 25-11-2009 11:07:01 11.5 C 6.2 g/m*3 11.5 C 0 km/h
657 25-11-2009 11:19:01 11.8 C 6.31 g/m*3 11.8 C 0 km/h
658 25-11-2009 11:31:02 12.3 C 6.08 g/m*3 12.3 C 0 km/h
659 25-11-2009 11:43:02 12.5 C 6.05 g/m*3 12.5 C 0 km/h
660 25-11-2009 11:55:02 12.6 C 5.97 g/m*3 12.6 C 0 km/h
661 25-11-2009 12:07:02 13.1 C 5.71 g/m*3 13.1 C 0 km/h
662 25-11-2009 12:19:02 13.7 C 5.68 g/m*3 13.7 C 0 km/h
663 25-11-2009 12:31:02 13.9 C 5.51 g/m*3 13.9 C 0 km/h
664 25-11-2009 12:43:02 14.1 C 5.22 g/m*3 14.1 C 0 km/h
665 25-11-2009 12:55:02 14.1 C 5.22 g/m*3 14.1 C 0 km/h
666 25-11-2009 13:07:02 14.4 C 5.07 g/m*3 14.4 C 0 km/h
667 25-11-2009 13:19:01 15 C 5 g/m*3 15 C 0 km/h
668 25-11-2009 13:31:02 15 C 5 g/m*3 15 C 0 km/h
669 25-11-2009 13:43:02 15 C 4.74 g/m*3 15 C 0 km/h
670 25-11-2009 13:55:02 15.2 C 4.67 g/m*3 15.2 C 0 km/h
671 25-11-2009 14:07:02 15.2 C 4.67 g/m*3 15.2 C 0 km/h
672 25-11-2009 14:19:01 15.1 C 4.52 g/m*3 15.1 C 0 km/h
673 25-11-2009 14:31:02 15.2 C 4.67 g/m*3 15.2 C 0 km/h
674 25-11-2009 14:43:02 15.2 C 4.67 g/m*3 15.2 C 0 km/h
675 25-11-2009 14:55:02 15.1 C 4.77 g/m*3 15.1 C 0 km/h
Sensor: Nr:Datum:Temp:Abs-Feuchte:Windchill:Wind:
Aussen-T/F 676 25-11-2009 15:07:02 14.8 C 4.94 g/m*3 14.8 C 0 km/h
677 25-11-2009 15:19:02 14.7 C 4.78 g/m*3 14.7 C 0 km/h
678 25-11-2009 15:31:02 14.5 C 4.85 g/m*3 14.5 C 0 km/h
679 25-11-2009 15:43:02 14.4 C 4.94 g/m*3 14.4 C 0 km/h
680 25-11-2009 15:55:02 14.3 C 4.91 g/m*3 14.3 C 0 km/h
681 25-11-2009 16:07:02 14.2 C 4.88 g/m*3 14.2 C 0 km/h
682 25-11-2009 16:19:03 14.1 C 4.85 g/m*3 14.1 C 0 km/h
683 25-11-2009 16:31:02 14 C 4.95 g/m*3 14 C 0 km/h
684 25-11-2009 16:43:02 14 C 4.95 g/m*3 14 C 0 km/h
685 25-11-2009 16:55:02 13.8 C 5 g/m*3 13.8 C 0 km/h
686 25-11-2009 17:07:02 13.6 C 5.18 g/m*3 13.6 C 0 km/h
687 25-11-2009 17:19:02 13.4 C 5.23 g/m*3 13.4 C 0 km/h
688 25-11-2009 17:31:02 13.4 C 5.23 g/m*3 13.4 C 0 km/h
689 25-11-2009 17:43:02 13.4 C 5.35 g/m*3 13.4 C 0 km/h
690 25-11-2009 17:55:02 13 C 5.78 g/m*3 13 C 0 km/h
691 25-11-2009 18:07:02 12.8 C 6.05 g/m*3 12.8 C 0 km/h
692 25-11-2009 18:19:02 12.4 C 6.45 g/m*3 12.4 C 0 km/h
693 25-11-2009 18:31:02 12 C 6.61 g/m*3 12 C 0 km/h
694 25-11-2009 18:43:02 11.3 C 7.04 g/m*3 11.3 C 0 km/h
695 25-11-2009 18:55:02 10.6 C 7.42 g/m*3 10.6 C 0 km/h
696 25-11-2009 19:07:01 10.3 C 7.57 g/m*3 10.3 C 0 km/h
697 25-11-2009 19:19:02 10.2 C 7.71 g/m*3 10.2 C 0 km/h
698 25-11-2009 19:31:01 10.1 C 7.75 g/m*3 10.1 C 0 km/h
699 25-11-2009 19:43:01 10 C 7.8 g/m*3 10 C 0 km/h
700 25-11-2009 19:55:02 9.9 C 7.84 g/m*3 9.9 C 0 km/h
Sensor: Nr:Datum:Temp:Abs-Feuchte:Windchill:Wind:
Aussen-T/F 701 25-11-2009 20:07:01 9.9 C 7.84 g/m*3 9.9 C 0 km/h
702 25-11-2009 20:19:01 10 C 7.71 g/m*3 10 C 0 km/h
703 25-11-2009 20:31:02 10.4 C 7.61 g/m*3 10.4 C 0 km/h
704 25-11-2009 20:43:02 10.4 C 7.42 g/m*3 10.4 C 0 km/h
705 25-11-2009 20:55:02 10.3 C 7.37 g/m*3 10.3 C 0 km/h
706 25-11-2009 21:07:02 10.2 C 7.33 g/m*3 10.2 C 0 km/h
707 25-11-2009 21:19:02 10.1 C 7.38 g/m*3 10.1 C 0 km/h
708 25-11-2009 21:31:02 10.2 C 7.33 g/m*3 10.2 C 0 km/h
709 25-11-2009 21:43:03 10.3 C 7.09 g/m*3 10.3 C 0 km/h
710 25-11-2009 21:55:01 10.3 C 6.99 g/m*3 10.3 C 0 km/h
711 25-11-2009 22:08:02 10.2 C 6.95 g/m*3 10.2 C 0 km/h
712 25-11-2009 22:20:02 10.2 C 6.85 g/m*3 10.2 C 0 km/h
713 25-11-2009 22:32:02 10 C 6.86 g/m*3 10 C 0 km/h
714 25-11-2009 22:44:02 10 C 6.86 g/m*3 10 C 0 km/h
715 25-11-2009 22:56:02 10 C 6.77 g/m*3 10 C 0 km/h
716 25-11-2009 23:08:02 10.1 C 6.81 g/m*3 10.1 C 0 km/h
717 25-11-2009 23:20:02 10.1 C 6.71 g/m*3 10.1 C 0 km/h
718 25-11-2009 23:32:02 9.8 C 6.68 g/m*3 9.8 C 0 km/h
719 25-11-2009 23:44:02 9.8 C 6.59 g/m*3 9.8 C 0 km/h
720 25-11-2009 23:56:02 9.8 C 6.49 g/m*3 9.8 C 0 km/h
721 26-11-2009 00:08:02 9.8 C 6.59 g/m*3 9.8 C 0 km/h
722 26-11-2009 00:20:02 9.8 C 6.49 g/m*3 9.8 C 0 km/h
723 26-11-2009 00:32:02 9.9 C 6.44 g/m*3 9.9 C 0 km/h
724 26-11-2009 00:44:02 9.8 C 6.4 g/m*3 9.8 C 0 km/h
725 26-11-2009 00:56:02 9.6 C 6.41 g/m*3 9.6 C 0 km/h
Sensor: Nr:Datum:Temp:Abs-Feuchte:Windchill:Wind:
Aussen-T/F 726 26-11-2009 01:08:03 9.7 C 6.36 g/m*3 9.7 C 0 km/h
727 26-11-2009 01:20:03 9.5 C 6.28 g/m*3 9.5 C 0 km/h
728 26-11-2009 01:32:03 9.5 C 6.19 g/m*3 9.5 C 0 km/h
729 26-11-2009 01:44:03 9.4 C 6.06 g/m*3 9.4 C 0 km/h
730 26-11-2009 01:56:03 9.2 C 5.98 g/m*3 9.2 C 0 km/h
731 26-11-2009 02:08:03 9 C 5.91 g/m*3 9 C 0 km/h
732 26-11-2009 02:20:03 9.2 C 5.8 g/m*3 9.2 C 0 km/h
733 26-11-2009 02:32:03 9.1 C 5.77 g/m*3 9.1 C 0 km/h
734 26-11-2009 02:44:03 9.1 C 5.77 g/m*3 9.1 C 0 km/h
735 26-11-2009 02:56:03 9.2 C 5.8 g/m*3 9.2 C 0 km/h
736 26-11-2009 03:08:03 9.4 C 5.79 g/m*3 9.4 C 0 km/h
737 26-11-2009 03:20:03 9.5 C 5.83 g/m*3 9.5 C 0 km/h
738 26-11-2009 03:32:03 9.4 C 5.88 g/m*3 9.4 C 0 km/h
739 26-11-2009 03:44:03 9.5 C 5.83 g/m*3 9.5 C 0 km/h
740 26-11-2009 03:56:03 9.4 C 5.79 g/m*3 9.4 C 0 km/h
741 26-11-2009 04:08:03 9.5 C 5.73 g/m*3 9.5 C 0 km/h
742 26-11-2009 04:20:03 9.4 C 5.7 g/m*3 9.4 C 0 km/h
743 26-11-2009 04:32:03 9.5 C 5.73 g/m*3 9.5 C 0 km/h
744 26-11-2009 04:44:03 9.6 C 5.68 g/m*3 9.6 C 0 km/h
745 26-11-2009 04:56:03 9.6 C 5.59 g/m*3 9.6 C 0 km/h
746 26-11-2009 05:08:03 9.6 C 5.59 g/m*3 9.6 C 0 km/h
747 26-11-2009 05:20:04 9.6 C 5.59 g/m*3 9.6 C 0 km/h
748 26-11-2009 05:32:04 9.7 C 5.53 g/m*3 9.7 C 0 km/h
749 26-11-2009 05:44:04 9.7 C 5.44 g/m*3 9.7 C 0 km/h
750 26-11-2009 05:56:04 9.7 C 5.44 g/m*3 9.7 C 0 km/h
Sensor: Nr:Datum:Temp:Abs-Feuchte:Windchill:Wind:
Aussen-T/F 751 26-11-2009 06:08:04 9.6 C 5.5 g/m*3 9.6 C 0 km/h
752 26-11-2009 06:20:04 9.6 C 5.5 g/m*3 9.6 C 0 km/h
753 26-11-2009 06:32:04 9.6 C 5.5 g/m*3 9.6 C 0 km/h
754 26-11-2009 06:44:04 9.7 C 5.53 g/m*3 9.7 C 0 km/h
755 26-11-2009 06:56:04 9.6 C 5.5 g/m*3 9.6 C 0 km/h
756 26-11-2009 07:08:02 9.7 C 5.53 g/m*3 9.7 C 0 km/h
757 26-11-2009 07:20:01 9.7 C 5.44 g/m*3 9.7 C 0 km/h
758 26-11-2009 07:32:02 9.7 C 5.44 g/m*3 9.7 C 0 km/h
759 26-11-2009 07:44:02 9.8 C 5.47 g/m*3 9.8 C 0 km/h
760 26-11-2009 07:56:02 9.8 C 5.38 g/m*3 9.8 C 0 km/h
761 26-11-2009 08:08:02 9.8 C 5.47 g/m*3 9.8 C 0 km/h
762 26-11-2009 08:20:02 9.9 C 5.42 g/m*3 9.9 C 0 km/h
763 26-11-2009 08:32:02 9.8 C 5.47 g/m*3 9.8 C 0 km/h
764 26-11-2009 08:44:02 10 C 5.45 g/m*3 10 C 0 km/h
765 26-11-2009 08:56:01 10 C 5.45 g/m*3 10 C 0 km/h
766 26-11-2009 09:08:01 9.9 C 5.51 g/m*3 9.9 C 0 km/h
767 26-11-2009 09:20:01 10 C 5.36 g/m*3 10 C 0 km/h
768 26-11-2009 09:32:01 10 C 5.36 g/m*3 10 C 0 km/h
769 26-11-2009 09:44:01 10 C 5.36 g/m*3 10 C 0 km/h
770 26-11-2009 09:56:01 10 C 5.36 g/m*3 10 C 0 km/h
771 26-11-2009 10:08:01 10 C 5.26 g/m*3 10 C 0 km/h
772 26-11-2009 10:20:02 10.1 C 5.3 g/m*3 10.1 C 0 km/h
773 26-11-2009 10:32:01 10.2 C 5.23 g/m*3 10.2 C 0 km/h
774 26-11-2009 10:44:01 10.3 C 5.27 g/m*3 10.3 C 0 km/h
775 26-11-2009 10:56:02 10.4 C 5.2 g/m*3 10.4 C 0 km/h
Sensor: Nr:Datum:Temp:Abs-Feuchte:Windchill:Wind:
Aussen-T/F 776 26-11-2009 11:08:01 10.5 C 5.14 g/m*3 10.5 C 0 km/h
777 26-11-2009 11:20:02 10.9 C 5.07 g/m*3 10.9 C 0 km/h
778 26-11-2009 11:32:01 10.7 C 5.3 g/m*3 10.7 C 0 km/h
779 26-11-2009 11:44:01 10.9 C 5.27 g/m*3 10.9 C 0 km/h
780 26-11-2009 11:56:03 11.1 C 5.24 g/m*3 11.1 C 0 km/h
781 26-11-2009 12:08:02 11.3 C 5.2 g/m*3 11.3 C 0 km/h
782 26-11-2009 12:20:02 11.1 C 5.24 g/m*3 11.1 C 0 km/h
783 26-11-2009 12:32:02 11 C 5.31 g/m*3 11 C 0 km/h
784 26-11-2009 12:44:02 11 C 5.31 g/m*3 11 C 0 km/h
785 26-11-2009 12:56:02 11.3 C 5.41 g/m*3 11.3 C 0 km/h
786 26-11-2009 13:08:02 11.3 C 5.41 g/m*3 11.3 C 0 km/h
787 26-11-2009 13:20:02 11.4 C 5.44 g/m*3 11.4 C 0 km/h
788 26-11-2009 13:32:02 11.7 C 5.54 g/m*3 11.7 C 0 km/h
789 26-11-2009 13:44:02 11.2 C 5.88 g/m*3 11.2 C 0 km/h
790 26-11-2009 13:56:02 11.1 C 5.94 g/m*3 11.1 C 0 km/h
791 26-11-2009 14:08:01 10.7 C 5.8 g/m*3 10.7 C 0 km/h
792 26-11-2009 14:20:01 10.6 C 5.76 g/m*3 10.6 C 0 km/h
793 26-11-2009 14:32:02 10.7 C 5.8 g/m*3 10.7 C 0 km/h
794 26-11-2009 14:44:02 10.8 C 5.83 g/m*3 10.8 C 0 km/h
795 26-11-2009 14:56:02 10.7 C 5.8 g/m*3 10.7 C 0 km/h
796 26-11-2009 15:08:02 10.7 C 5.89 g/m*3 10.7 C 0 km/h
797 26-11-2009 15:20:02 10.8 C 5.83 g/m*3 10.8 C 0 km/h
798 26-11-2009 15:32:02 10.8 C 5.63 g/m*3 10.8 C 0 km/h
799 26-11-2009 15:44:02 10.8 C 5.73 g/m*3 10.8 C 0 km/h
800 26-11-2009 15:56:01 10.6 C 5.47 g/m*3 10.6 C 0 km/h
Sensor: Nr:Datum:Temp:Abs-Feuchte:Windchill:Wind:
Aussen-T/F 801 26-11-2009 16:08:02 10.3 C 5.46 g/m*3 10.3 C 0 km/h
802 26-11-2009 16:20:01 10.3 C 5.46 g/m*3 10.3 C 0 km/h
803 26-11-2009 16:32:02 10.2 C 5.33 g/m*3 10.2 C 0 km/h
804 26-11-2009 16:44:02 10.1 C 5.3 g/m*3 10.1 C 0 km/h
805 26-11-2009 16:56:02 9.9 C 5.42 g/m*3 9.9 C 0 km/h
806 26-11-2009 17:08:02 9.8 C 5.47 g/m*3 9.8 C 0 km/h
807 26-11-2009 17:20:01 9.7 C 5.53 g/m*3 9.7 C 0 km/h
808 26-11-2009 17:32:02 10 C 5.54 g/m*3 10 C 0 km/h
809 26-11-2009 17:44:02 9.9 C 5.7 g/m*3 9.9 C 0 km/h
810 26-11-2009 17:56:02 10 C 5.64 g/m*3 10 C 0 km/h
811 26-11-2009 18:08:02 9.8 C 5.66 g/m*3 9.8 C 0 km/h
812 26-11-2009 18:20:02 10.1 C 5.67 g/m*3 10.1 C 0 km/h
813 26-11-2009 18:32:02 10 C 5.64 g/m*3 10 C 0 km/h
814 26-11-2009 18:44:02 10 C 5.64 g/m*3 10 C 0 km/h
815 26-11-2009 18:56:02 10.2 C 5.61 g/m*3 10.2 C 0 km/h
816 26-11-2009 19:08:02 10.2 C 5.52 g/m*3 10.2 C 0 km/h
817 26-11-2009 19:20:02 10.3 C 5.55 g/m*3 10.3 C 0 km/h
818 26-11-2009 19:32:02 9.5 C 6.1 g/m*3 9.5 C 0 km/h
819 26-11-2009 19:44:02 9 C 6.44 g/m*3 9 C 0 km/h
820 26-11-2009 19:56:02 8.8 C 6.79 g/m*3 8.8 C 0 km/h
821 26-11-2009 20:08:02 8.8 C 6.7 g/m*3 8.8 C 0 km/h
822 26-11-2009 20:20:02 8.9 C 6.83 g/m*3 8.9 C 0 km/h
823 26-11-2009 20:32:02 8.4 C 6.79 g/m*3 8.4 C 0 km/h
824 26-11-2009 20:44:02 8.4 C 6.79 g/m*3 8.4 C 0 km/h
825 26-11-2009 20:56:02 8.8 C 6.35 g/m*3 8.8 C 0 km/h
Sensor: Nr:Datum:Temp:Abs-Feuchte:Windchill:Wind:
Aussen-T/F 826 26-11-2009 21:08:02 9.3 C 6.11 g/m*3 9.3 C 0 km/h
827 26-11-2009 21:20:02 9.7 C 6.08 g/m*3 9.7 C 0 km/h
828 26-11-2009 21:32:03 9.8 C 5.94 g/m*3 9.8 C 0 km/h
829 26-11-2009 21:44:03 10 C 5.83 g/m*3 10 C 0 km/h
830 26-11-2009 21:56:02 10 C 5.83 g/m*3 10 C 0 km/h
831 26-11-2009 22:08:02 10 C 5.92 g/m*3 10 C 0 km/h
832 26-11-2009 22:20:01 10 C 5.83 g/m*3 10 C 0 km/h
833 26-11-2009 22:32:02 10.1 C 5.86 g/m*3 10.1 C 0 km/h
834 26-11-2009 22:44:02 10.1 C 5.77 g/m*3 10.1 C 0 km/h
835 26-11-2009 22:56:02 10.3 C 5.75 g/m*3 10.3 C 0 km/h
836 26-11-2009 23:09:01 10.5 C 5.72 g/m*3 10.5 C 0 km/h
837 26-11-2009 23:21:01 10.4 C 5.69 g/m*3 10.4 C 0 km/h
838 26-11-2009 23:33:01 10.5 C 5.72 g/m*3 10.5 C 0 km/h
839 26-11-2009 23:45:01 10.4 C 5.78 g/m*3 10.4 C 0 km/h
840 26-11-2009 23:57:01 10.4 C 5.88 g/m*3 10.4 C 0 km/h
841 27-11-2009 00:09:01 10.4 C 5.88 g/m*3 10.4 C 0 km/h
842 27-11-2009 00:21:01 10.6 C 5.86 g/m*3 10.6 C 0 km/h
843 27-11-2009 00:33:01 10.8 C 5.73 g/m*3 10.8 C 0 km/h
844 27-11-2009 00:45:01 10.8 C 5.73 g/m*3 10.8 C 0 km/h
845 27-11-2009 00:57:02 10.7 C 5.89 g/m*3 10.7 C 0 km/h
846 27-11-2009 01:09:02 10.4 C 6.07 g/m*3 10.4 C 0 km/h
847 27-11-2009 01:21:02 10.7 C 5.99 g/m*3 10.7 C 0 km/h
848 27-11-2009 01:33:02 10.8 C 5.93 g/m*3 10.8 C 0 km/h
849 27-11-2009 01:45:02 10.9 C 5.87 g/m*3 10.9 C 0 km/h
850 27-11-2009 01:57:02 11 C 5.81 g/m*3 11 C 0 km/h
Sensor: Nr:Datum:Temp:Abs-Feuchte:Windchill:Wind:
Aussen-T/F 851 27-11-2009 02:09:02 11 C 5.71 g/m*3 11 C 0 km/h
852 27-11-2009 02:21:02 10.9 C 5.87 g/m*3 10.9 C 0 km/h
853 27-11-2009 02:33:02 11 C 5.71 g/m*3 11 C 0 km/h
854 27-11-2009 02:45:02 10.9 C 5.77 g/m*3 10.9 C 0 km/h
855 27-11-2009 02:57:02 11 C 5.51 g/m*3 11 C 0 km/h
856 27-11-2009 03:09:02 10.9 C 5.57 g/m*3 10.9 C 0 km/h
857 27-11-2009 03:21:02 10.9 C 5.57 g/m*3 10.9 C 0 km/h
858 27-11-2009 03:33:02 10.9 C 5.67 g/m*3 10.9 C 0 km/h
859 27-11-2009 03:45:02 10.8 C 5.63 g/m*3 10.8 C 0 km/h
860 27-11-2009 03:57:02 10.5 C 5.72 g/m*3 10.5 C 0 km/h
861 27-11-2009 04:09:02 10.1 C 5.86 g/m*3 10.1 C 0 km/h
862 27-11-2009 04:21:02 9.8 C 5.94 g/m*3 9.8 C 0 km/h
863 27-11-2009 04:33:02 9.3 C 5.84 g/m*3 9.3 C 0 km/h
864 27-11-2009 04:45:03 9.1 C 6.03 g/m*3 9.1 C 0 km/h
865 27-11-2009 04:57:03 8.9 C 6.22 g/m*3 8.9 C 0 km/h
866 27-11-2009 05:09:03 9 C 6.08 g/m*3 9 C 0 km/h
867 27-11-2009 05:21:03 9.1 C 6.03 g/m*3 9.1 C 0 km/h
868 27-11-2009 05:33:03 9.1 C 6.03 g/m*3 9.1 C 0 km/h
869 27-11-2009 05:45:03 9.1 C 6.12 g/m*3 9.1 C 0 km/h
870 27-11-2009 05:57:03 8.9 C 6.22 g/m*3 8.9 C 0 km/h
871 27-11-2009 06:09:03 8.5 C 6.32 g/m*3 8.5 C 0 km/h
872 27-11-2009 06:21:03 8.3 C 6.66 g/m*3 8.3 C 0 km/h
873 27-11-2009 06:33:03 8.2 C 6.78 g/m*3 8.2 C 0 km/h
874 27-11-2009 06:45:03 8.1 C 6.66 g/m*3 8.1 C 0 km/h
875 27-11-2009 06:57:03 7.9 C 6.74 g/m*3 7.9 C 0 km/h
Sensor: Nr:Datum:Temp:Abs-Feuchte:Windchill:Wind:
Aussen-T/F 876 27-11-2009 07:09:02 7.7 C 6.73 g/m*3 7.7 C 0 km/h
877 27-11-2009 07:21:01 7.5 C 6.72 g/m*3 7.5 C 0 km/h
878 27-11-2009 07:33:01 7.4 C 6.84 g/m*3 7.4 C 0 km/h
879 27-11-2009 07:45:01 7.5 C 6.96 g/m*3 7.5 C 0 km/h
880 27-11-2009 07:57:01 7.5 C 7.04 g/m*3 7.5 C 0 km/h
881 27-11-2009 08:09:02 7.6 C 6.93 g/m*3 7.6 C 0 km/h
882 27-11-2009 08:21:01 8.2 C 6.7 g/m*3 8.2 C 0 km/h
883 27-11-2009 08:33:02 8.2 C 6.36 g/m*3 8.2 C 0 km/h
884 27-11-2009 08:45:01 8.4 C 6.02 g/m*3 8.4 C 0 km/h
885 27-11-2009 08:57:01 8.4 C 5.85 g/m*3 8.4 C 0 km/h
886 27-11-2009 09:09:02 8.3 C 5.82 g/m*3 8.3 C 0 km/h
887 27-11-2009 09:21:02 8.5 C 5.72 g/m*3 8.5 C 0 km/h
888 27-11-2009 09:33:02 8.6 C 5.67 g/m*3 8.6 C 0 km/h
889 27-11-2009 09:45:02 8.8 C 5.57 g/m*3 8.8 C 0 km/h
890 27-11-2009 09:57:02 8.7 C 5.53 g/m*3 8.7 C 0 km/h
891 27-11-2009 10:09:02 8.8 C 5.57 g/m*3 8.8 C 0 km/h
892 27-11-2009 10:21:01 9 C 5.55 g/m*3 9 C 0 km/h
893 27-11-2009 10:33:01 9.1 C 5.59 g/m*3 9.1 C 0 km/h
894 27-11-2009 10:45:01 9.2 C 5.54 g/m*3 9.2 C 0 km/h
895 27-11-2009 10:57:01 9.2 C 5.54 g/m*3 9.2 C 0 km/h
896 27-11-2009 11:09:02 9.4 C 5.61 g/m*3 9.4 C 0 km/h
897 27-11-2009 11:21:02 9.3 C 5.57 g/m*3 9.3 C 0 km/h
898 27-11-2009 11:33:01 9.4 C 5.52 g/m*3 9.4 C 0 km/h
899 27-11-2009 11:45:02 9.5 C 5.46 g/m*3 9.5 C 0 km/h
900 27-11-2009 11:57:02 9.6 C 5.4 g/m*3 9.6 C 0 km/h
Sensor: Nr:Datum:Temp:Abs-Feuchte:Windchill:Wind:
Aussen-T/F 901 27-11-2009 12:09:01 9.3 C 5.3 g/m*3 9.3 C 0 km/h
902 27-11-2009 12:21:02 9.1 C 5.32 g/m*3 9.1 C 0 km/h
903 27-11-2009 12:33:01 9 C 5.47 g/m*3 9 C 0 km/h
904 27-11-2009 12:45:03 9.2 C 5.54 g/m*3 9.2 C 0 km/h
905 27-11-2009 12:57:03 9.5 C 5.55 g/m*3 9.5 C 0 km/h
906 27-11-2009 13:09:02 9.8 C 5.57 g/m*3 9.8 C 0 km/h
907 27-11-2009 13:21:02 10 C 5.26 g/m*3 10 C 0 km/h
908 27-11-2009 13:33:02 10 C 5.17 g/m*3 10 C 0 km/h
909 27-11-2009 13:45:02 9.8 C 5.2 g/m*3 9.8 C 0 km/h
910 27-11-2009 13:57:02 9.6 C 5.13 g/m*3 9.6 C 0 km/h
911 27-11-2009 14:09:02 9.7 C 5.07 g/m*3 9.7 C 0 km/h
912 27-11-2009 14:21:02 9.8 C 5.01 g/m*3 9.8 C 0 km/h
913 27-11-2009 14:33:01 9.8 C 5.01 g/m*3 9.8 C 0 km/h
914 27-11-2009 14:45:02 9.8 C 4.92 g/m*3 9.8 C 0 km/h
915 27-11-2009 14:57:02 9.7 C 4.98 g/m*3 9.7 C 0 km/h
916 27-11-2009 15:09:01 9.8 C 5.01 g/m*3 9.8 C 0 km/h
917 27-11-2009 15:21:02 9.6 C 4.95 g/m*3 9.6 C 0 km/h
918 27-11-2009 15:33:02 9.3 C 5.12 g/m*3 9.3 C 0 km/h
919 27-11-2009 15:45:02 9.1 C 5.23 g/m*3 9.1 C 0 km/h
920 27-11-2009 15:57:02 9 C 5.38 g/m*3 9 C 0 km/h
921 27-11-2009 16:09:02 8.8 C 5.48 g/m*3 8.8 C 0 km/h
922 27-11-2009 16:21:01 8.7 C 5.45 g/m*3 8.7 C 0 km/h
923 27-11-2009 16:33:02 8.5 C 5.29 g/m*3 8.5 C 0 km/h
924 27-11-2009 16:45:01 8.6 C 5.16 g/m*3 8.6 C 0 km/h
925 27-11-2009 16:57:01 8.4 C 5.09 g/m*3 8.4 C 0 km/h
Sensor: Nr:Datum:Temp:Abs-Feuchte:Windchill:Wind:
Aussen-T/F 926 27-11-2009 17:09:02 8.5 C 4.95 g/m*3 8.5 C 0 km/h
927 27-11-2009 17:21:01 8.4 C 4.92 g/m*3 8.4 C 0 km/h
928 27-11-2009 17:33:02 8.3 C 4.89 g/m*3 8.3 C 0 km/h
929 27-11-2009 17:45:01 8.4 C 4.92 g/m*3 8.4 C 0 km/h
930 27-11-2009 17:57:01 8.4 C 4.92 g/m*3 8.4 C 0 km/h
931 27-11-2009 18:09:02 8.4 C 5.01 g/m*3 8.4 C 0 km/h
932 27-11-2009 18:21:02 8.5 C 4.95 g/m*3 8.5 C 0 km/h
933 27-11-2009 18:33:02 8.5 C 4.87 g/m*3 8.5 C 0 km/h
934 27-11-2009 18:45:01 8.4 C 4.84 g/m*3 8.4 C 0 km/h
935 27-11-2009 18:57:01 8.4 C 4.92 g/m*3 8.4 C 0 km/h
936 27-11-2009 19:09:02 8.9 C 4.82 g/m*3 8.9 C 0 km/h
937 27-11-2009 19:21:02 8.7 C 5.02 g/m*3 8.7 C 0 km/h
938 27-11-2009 19:33:01 8.3 C 5.14 g/m*3 8.3 C 0 km/h
939 27-11-2009 19:45:02 8.2 C 5.11 g/m*3 8.2 C 0 km/h
940 27-11-2009 19:57:02 8.2 C 5.11 g/m*3 8.2 C 0 km/h
941 27-11-2009 20:09:01 8.3 C 5.14 g/m*3 8.3 C 0 km/h
942 27-11-2009 20:21:02 8.2 C 5.11 g/m*3 8.2 C 0 km/h
943 27-11-2009 20:33:01 8.2 C 5.11 g/m*3 8.2 C 0 km/h
944 27-11-2009 20:45:02 8.2 C 5.11 g/m*3 8.2 C 0 km/h
945 27-11-2009 20:57:02 8.1 C 5.08 g/m*3 8.1 C 0 km/h
946 27-11-2009 21:09:01 8.1 C 5.16 g/m*3 8.1 C 0 km/h
947 27-11-2009 21:21:01 8.3 C 5.23 g/m*3 8.3 C 0 km/h
948 27-11-2009 21:33:02 8.3 C 5.14 g/m*3 8.3 C 0 km/h
949 27-11-2009 21:45:02 8.1 C 5.08 g/m*3 8.1 C 0 km/h
950 27-11-2009 21:57:03 8 C 5.04 g/m*3 8 C 0 km/h
Sensor: Nr:Datum:Temp:Abs-Feuchte:Windchill:Wind:
Aussen-T/F 951 27-11-2009 22:09:02 8 C 5.04 g/m*3 8 C 0 km/h
952 27-11-2009 22:21:02 8.1 C 5.08 g/m*3 8.1 C 0 km/h
953 27-11-2009 22:34:04 8 C 5.13 g/m*3 8 C 0 km/h
954 27-11-2009 22:46:04 8.1 C 5.24 g/m*3 8.1 C 0 km/h
955 27-11-2009 22:58:04 8 C 5.29 g/m*3 8 C 0 km/h
956 27-11-2009 23:10:04 7.9 C 5.59 g/m*3 7.9 C 0 km/h
957 27-11-2009 23:22:04 7.8 C 5.55 g/m*3 7.8 C 0 km/h
958 27-11-2009 23:34:04 7.9 C 5.5 g/m*3 7.9 C 0 km/h
959 27-11-2009 23:46:04 8 C 5.37 g/m*3 8 C 0 km/h
960 27-11-2009 23:58:04 8 C 5.29 g/m*3 8 C 0 km/h
961 28-11-2009 00:10:04 7.9 C 5.26 g/m*3 7.9 C 0 km/h
962 28-11-2009 00:22:04 8 C 5.21 g/m*3 8 C 0 km/h
963 28-11-2009 00:34:04 8.1 C 5.16 g/m*3 8.1 C 0 km/h
964 28-11-2009 00:46:04 8 C 5.37 g/m*3 8 C 0 km/h
965 28-11-2009 00:58:05 7.3 C 5.69 g/m*3 7.3 C 0 km/h
966 28-11-2009 01:10:05 7 C 5.81 g/m*3 7 C 0 km/h
967 28-11-2009 01:22:05 7.4 C 5.88 g/m*3 7.4 C 0 km/h
968 28-11-2009 01:34:05 7.3 C 5.93 g/m*3 7.3 C 0 km/h
969 28-11-2009 01:46:05 7.4 C 5.88 g/m*3 7.4 C 0 km/h
970 28-11-2009 01:58:05 7.6 C 5.72 g/m*3 7.6 C 0 km/h
971 28-11-2009 02:10:05 7.6 C 5.56 g/m*3 7.6 C 0 km/h
972 28-11-2009 02:22:05 7.5 C 5.6 g/m*3 7.5 C 0 km/h
973 28-11-2009 02:34:05 7.5 C 5.6 g/m*3 7.5 C 0 km/h
974 28-11-2009 02:46:05 7.5 C 5.6 g/m*3 7.5 C 0 km/h
975 28-11-2009 02:58:05 7.8 C 5.55 g/m*3 7.8 C 0 km/h
Sensor: Nr:Datum:Temp:Abs-Feuchte:Windchill:Wind:
Aussen-T/F 976 28-11-2009 03:10:05 8 C 5.46 g/m*3 8 C 0 km/h
977 28-11-2009 03:22:05 8 C 5.37 g/m*3 8 C 0 km/h
978 28-11-2009 03:34:05 7.9 C 5.34 g/m*3 7.9 C 0 km/h
979 28-11-2009 03:46:05 7.9 C 5.42 g/m*3 7.9 C 0 km/h
980 28-11-2009 03:58:05 8 C 5.29 g/m*3 8 C 0 km/h
981 28-11-2009 04:10:05 7.6 C 5.32 g/m*3 7.6 C 0 km/h
982 28-11-2009 04:22:05 7.6 C 5.24 g/m*3 7.6 C 0 km/h
983 28-11-2009 04:34:05 7.5 C 5.28 g/m*3 7.5 C 0 km/h
984 28-11-2009 04:46:05 7.7 C 5.27 g/m*3 7.7 C 0 km/h
985 28-11-2009 04:58:06 7.9 C 5.26 g/m*3 7.9 C 0 km/h
986 28-11-2009 05:10:06 7.9 C 5.17 g/m*3 7.9 C 0 km/h
987 28-11-2009 05:22:06 7.9 C 5.34 g/m*3 7.9 C 0 km/h
988 28-11-2009 05:34:06 7.1 C 5.77 g/m*3 7.1 C 0 km/h
989 28-11-2009 05:46:06 7 C 5.89 g/m*3 7 C 0 km/h
990 28-11-2009 05:58:06 6.9 C 5.93 g/m*3 6.9 C 0 km/h
991 28-11-2009 06:10:06 7.3 C 5.77 g/m*3 7.3 C 0 km/h
992 28-11-2009 06:22:06 7.4 C 5.73 g/m*3 7.4 C 0 km/h
993 28-11-2009 06:34:06 7.6 C 5.72 g/m*3 7.6 C 0 km/h
994 28-11-2009 06:46:06 7.5 C 5.68 g/m*3 7.5 C 0 km/h
995 28-11-2009 06:58:06 7.5 C 5.68 g/m*3 7.5 C 0 km/h
996 28-11-2009 07:10:06 7.4 C 5.65 g/m*3 7.4 C 0 km/h
997 28-11-2009 07:22:06 7.5 C 5.6 g/m*3 7.5 C 0 km/h
998 28-11-2009 07:34:06 7.4 C 5.65 g/m*3 7.4 C 0 km/h
999 28-11-2009 07:46:06 7.3 C 5.61 g/m*3 7.3 C 0 km/h
1000 28-11-2009 07:58:06 7.2 C 5.65 g/m*3 7.2 C 0 km/h
Sensor: Nr:Datum:Temp:Abs-Feuchte:Windchill:Wind:
Aussen-T/F 1001 28-11-2009 08:10:03 7 C 5.58 g/m*3 7 C 0 km/h
1002 28-11-2009 08:22:03 7.2 C 5.73 g/m*3 7.2 C 0 km/h
1003 28-11-2009 08:34:03 7.3 C 5.77 g/m*3 7.3 C 0 km/h
1004 28-11-2009 08:46:01 7.7 C 5.76 g/m*3 7.7 C 0 km/h
1005 28-11-2009 08:58:01 7.7 C 5.68 g/m*3 7.7 C 0 km/h
1006 28-11-2009 09:10:02 7.6 C 5.72 g/m*3 7.6 C 0 km/h
1007 28-11-2009 09:22:01 8 C 5.7 g/m*3 8 C 0 km/h
1008 28-11-2009 09:34:02 8.2 C 5.78 g/m*3 8.2 C 0 km/h
1009 28-11-2009 09:46:02 8.4 C 5.77 g/m*3 8.4 C 0 km/h
1010 28-11-2009 09:58:02 8.5 C 5.81 g/m*3 8.5 C 0 km/h
1011 28-11-2009 10:10:02 8.5 C 5.89 g/m*3 8.5 C 0 km/h
1012 28-11-2009 10:22:02 8.6 C 5.84 g/m*3 8.6 C 0 km/h
1013 28-11-2009 10:34:02 8.7 C 5.88 g/m*3 8.7 C 0 km/h
1014 28-11-2009 10:46:01 8.7 C 5.88 g/m*3 8.7 C 0 km/h
1015 28-11-2009 10:58:01 9.2 C 5.8 g/m*3 9.2 C 0 km/h
1016 28-11-2009 11:10:02 9.5 C 5.64 g/m*3 9.5 C 0 km/h
1017 28-11-2009 11:22:02 9.7 C 5.62 g/m*3 9.7 C 0 km/h
1018 28-11-2009 11:34:01 9.7 C 5.72 g/m*3 9.7 C 0 km/h
1019 28-11-2009 11:46:02 9.5 C 5.83 g/m*3 9.5 C 0 km/h
1020 28-11-2009 11:58:02 9.2 C 5.98 g/m*3 9.2 C 0 km/h
1021 28-11-2009 12:10:01 8.8 C 6.18 g/m*3 8.8 C 0 km/h
1022 28-11-2009 12:22:02 8.4 C 6.36 g/m*3 8.4 C 0 km/h
1023 28-11-2009 12:34:01 8.3 C 6.41 g/m*3 8.3 C 0 km/h
1024 28-11-2009 12:46:02 8.3 C 6.41 g/m*3 8.3 C 0 km/h
1025 28-11-2009 12:58:02 8.4 C 6.45 g/m*3 8.4 C 0 km/h
Sensor: Nr:Datum:Temp:Abs-Feuchte:Windchill:Wind:
Aussen-T/F 1026 28-11-2009 13:10:01 8.5 C 6.49 g/m*3 8.5 C 0 km/h
1027 28-11-2009 13:22:01 8.6 C 6.44 g/m*3 8.6 C 0 km/h
1028 28-11-2009 13:34:01 8.8 C 6.44 g/m*3 8.8 C 0 km/h
1029 28-11-2009 13:46:02 9 C 6.35 g/m*3 9 C 0 km/h
1030 28-11-2009 13:58:02 9.1 C 6.12 g/m*3 9.1 C 0 km/h
1031 28-11-2009 14:10:02 9.2 C 6.16 g/m*3 9.2 C 0 km/h
1032 28-11-2009 14:22:02 9.2 C 6.16 g/m*3 9.2 C 0 km/h
1033 28-11-2009 14:34:02 9.3 C 6.2 g/m*3 9.3 C 0 km/h
1034 28-11-2009 14:46:02 9.4 C 6.24 g/m*3 9.4 C 0 km/h
1035 28-11-2009 14:58:03 9.3 C 6.2 g/m*3 9.3 C 0 km/h
1036 28-11-2009 15:10:01 9.3 C 6.29 g/m*3 9.3 C 0 km/h
1037 28-11-2009 15:22:01 9.2 C 6.34 g/m*3 9.2 C 0 km/h
1038 28-11-2009 15:34:02 9.2 C 6.43 g/m*3 9.2 C 0 km/h
1039 28-11-2009 15:46:02 9.4 C 6.33 g/m*3 9.4 C 0 km/h
1040 28-11-2009 15:58:02 9.3 C 6.38 g/m*3 9.3 C 0 km/h
1041 28-11-2009 16:10:03 9.4 C 6.51 g/m*3 9.4 C 0 km/h
1042 28-11-2009 16:22:02 9.3 C 6.56 g/m*3 9.3 C 0 km/h
1043 28-11-2009 16:34:02 9.4 C 6.6 g/m*3 9.4 C 0 km/h
1044 28-11-2009 16:46:01 9.5 C 6.55 g/m*3 9.5 C 0 km/h
1045 28-11-2009 16:58:01 9.6 C 6.5 g/m*3 9.6 C 0 km/h
1046 28-11-2009 17:10:02 9.8 C 6.49 g/m*3 9.8 C 0 km/h
1047 28-11-2009 17:22:01 9.7 C 6.45 g/m*3 9.7 C 0 km/h
1048 28-11-2009 17:34:02 9.6 C 6.5 g/m*3 9.6 C 0 km/h
1049 28-11-2009 17:46:02 9.5 C 6.55 g/m*3 9.5 C 0 km/h
1050 28-11-2009 17:58:02 9.6 C 6.6 g/m*3 9.6 C 0 km/h
Sensor: Nr:Datum:Temp:Abs-Feuchte:Windchill:Wind:
Aussen-T/F 1051 28-11-2009 18:10:02 9.7 C 6.55 g/m*3 9.7 C 0 km/h
1052 28-11-2009 18:22:01 9.7 C 6.55 g/m*3 9.7 C 0 km/h
1053 28-11-2009 18:34:02 9.9 C 6.54 g/m*3 9.9 C 0 km/h
1054 28-11-2009 18:46:02 10 C 6.48 g/m*3 10 C 0 km/h
1055 28-11-2009 18:58:02 9.9 C 6.63 g/m*3 9.9 C 0 km/h
1056 28-11-2009 19:10:02 9.5 C 6.74 g/m*3 9.5 C 0 km/h
1057 28-11-2009 19:22:01 9.6 C 6.78 g/m*3 9.6 C 0 km/h
1058 28-11-2009 19:34:02 9.9 C 6.72 g/m*3 9.9 C 0 km/h
1059 28-11-2009 19:46:02 10.2 C 6.57 g/m*3 10.2 C 0 km/h
1060 28-11-2009 19:58:02 10.3 C 6.51 g/m*3 10.3 C 0 km/h
1061 28-11-2009 20:10:02 10.4 C 6.46 g/m*3 10.4 C 0 km/h
1062 28-11-2009 20:22:01 10.4 C 6.46 g/m*3 10.4 C 0 km/h
1063 28-11-2009 20:34:02 10.1 C 6.43 g/m*3 10.1 C 0 km/h
1064 28-11-2009 20:46:01 10.2 C 6.47 g/m*3 10.2 C 0 km/h
1065 28-11-2009 20:58:01 10.4 C 6.46 g/m*3 10.4 C 0 km/h
1066 28-11-2009 21:10:02 10.5 C 6.4 g/m*3 10.5 C 0 km/h
1067 28-11-2009 21:22:02 10.6 C 6.25 g/m*3 10.6 C 0 km/h
1068 28-11-2009 21:34:02 10.8 C 6.13 g/m*3 10.8 C 0 km/h
1069 28-11-2009 21:46:02 10.9 C 6.07 g/m*3 10.9 C 0 km/h
1070 28-11-2009 21:58:02 10.9 C 5.97 g/m*3 10.9 C 0 km/h
1071 28-11-2009 22:10:03 10.9 C 5.77 g/m*3 10.9 C 0 km/h
1072 28-11-2009 22:22:02 10.9 C 5.77 g/m*3 10.9 C 0 km/h
1073 28-11-2009 22:34:02 10.5 C 5.72 g/m*3 10.5 C 0 km/h
1074 28-11-2009 22:46:01 10.3 C 5.65 g/m*3 10.3 C 0 km/h
1075 28-11-2009 22:58:01 10.4 C 5.59 g/m*3 10.4 C 0 km/h
Sensor: Nr:Datum:Temp:Abs-Feuchte:Windchill:Wind:
Aussen-T/F 1076 28-11-2009 23:11:02 10.3 C 5.65 g/m*3 10.3 C 0 km/h
1077 28-11-2009 23:23:02 10.4 C 5.59 g/m*3 10.4 C 0 km/h
1078 28-11-2009 23:35:02 10.4 C 5.59 g/m*3 10.4 C 0 km/h
1079 28-11-2009 23:47:02 10.4 C 5.49 g/m*3 10.4 C 0 km/h
1080 28-11-2009 23:59:02 10.2 C 5.42 g/m*3 10.2 C 0 km/h
1081 29-11-2009 00:11:02 9.8 C 5.47 g/m*3 9.8 C 0 km/h
1082 29-11-2009 00:23:02 9.7 C 5.35 g/m*3 9.7 C 0 km/h
1083 29-11-2009 00:35:02 9.6 C 5.4 g/m*3 9.6 C 0 km/h
1084 29-11-2009 00:47:02 9.5 C 5.37 g/m*3 9.5 C 0 km/h
1085 29-11-2009 00:59:02 9.6 C 5.31 g/m*3 9.6 C 0 km/h
1086 29-11-2009 01:11:02 10 C 5.26 g/m*3 10 C 0 km/h
1087 29-11-2009 01:23:02 10.1 C 5.11 g/m*3 10.1 C 0 km/h
1088 29-11-2009 01:35:03 10 C 5.17 g/m*3 10 C 0 km/h
1089 29-11-2009 01:47:03 10.1 C 5.01 g/m*3 10.1 C 0 km/h
1090 29-11-2009 01:59:03 10.4 C 4.92 g/m*3 10.4 C 0 km/h
1091 29-11-2009 02:11:03 10.6 C 4.88 g/m*3 10.6 C 0 km/h
1092 29-11-2009 02:23:03 10.7 C 4.81 g/m*3 10.7 C 0 km/h
1093 29-11-2009 02:35:03 10.6 C 4.88 g/m*3 10.6 C 0 km/h
1094 29-11-2009 02:47:03 10.7 C 4.71 g/m*3 10.7 C 0 km/h
1095 29-11-2009 02:59:03 10.6 C 4.78 g/m*3 10.6 C 0 km/h
1096 29-11-2009 03:11:03 10.4 C 4.82 g/m*3 10.4 C 0 km/h
1097 29-11-2009 03:23:03 10.1 C 4.82 g/m*3 10.1 C 0 km/h
1098 29-11-2009 03:35:03 10.1 C 4.73 g/m*3 10.1 C 0 km/h
1099 29-11-2009 03:47:03 9.9 C 4.86 g/m*3 9.9 C 0 km/h
1100 29-11-2009 03:59:03 9.5 C 4.82 g/m*3 9.5 C 0 km/h
Sensor: Nr:Datum:Temp:Abs-Feuchte:Windchill:Wind:
Aussen-T/F 1101 29-11-2009 04:11:03 9 C 4.94 g/m*3 9 C 0 km/h
1102 29-11-2009 04:23:03 8.8 C 5.05 g/m*3 8.8 C 0 km/h
1103 29-11-2009 04:35:03 8.7 C 5.02 g/m*3 8.7 C 0 km/h
1104 29-11-2009 04:47:03 8.4 C 5.09 g/m*3 8.4 C 0 km/h
1105 29-11-2009 04:59:03 8.1 C 5.08 g/m*3 8.1 C 0 km/h
1106 29-11-2009 05:11:03 8.2 C 5.02 g/m*3 8.2 C 0 km/h
1107 29-11-2009 05:23:04 8.5 C 5.12 g/m*3 8.5 C 0 km/h
1108 29-11-2009 05:35:04 8.6 C 4.98 g/m*3 8.6 C 0 km/h
1109 29-11-2009 05:47:04 8.3 C 4.89 g/m*3 8.3 C 0 km/h
1110 29-11-2009 05:59:04 8.1 C 4.99 g/m*3 8.1 C 0 km/h
1111 29-11-2009 06:11:04 8 C 4.96 g/m*3 8 C 0 km/h
1112 29-11-2009 06:23:04 8.1 C 4.91 g/m*3 8.1 C 0 km/h
1113 29-11-2009 06:35:04 8.2 C 4.86 g/m*3 8.2 C 0 km/h
1114 29-11-2009 06:47:04 8.3 C 4.89 g/m*3 8.3 C 0 km/h
1115 29-11-2009 06:59:04 8.1 C 4.91 g/m*3 8.1 C 0 km/h
1116 29-11-2009 07:11:04 8.3 C 4.8 g/m*3 8.3 C 0 km/h
1117 29-11-2009 07:23:04 8.2 C 4.77 g/m*3 8.2 C 0 km/h
1118 29-11-2009 07:35:03 7.9 C 4.93 g/m*3 7.9 C 0 km/h
1119 29-11-2009 07:47:02 8.1 C 4.99 g/m*3 8.1 C 0 km/h
1120 29-11-2009 07:59:02 8.1 C 4.99 g/m*3 8.1 C 0 km/h
1121 29-11-2009 08:11:03 8.3 C 5.06 g/m*3 8.3 C 0 km/h
1122 29-11-2009 08:23:02 8.6 C 5.16 g/m*3 8.6 C 0 km/h
1123 29-11-2009 08:35:02 8.6 C 5.24 g/m*3 8.6 C 0 km/h
1124 29-11-2009 08:47:01 8.7 C 5.28 g/m*3 8.7 C 0 km/h
1125 29-11-2009 08:59:01 8.9 C 5.34 g/m*3 8.9 C 0 km/h
Sensor: Nr:Datum:Temp:Abs-Feuchte:Windchill:Wind:
Aussen-T/F 1126 29-11-2009 09:11:02 9.1 C 5.32 g/m*3 9.1 C 0 km/h
1127 29-11-2009 09:23:01 9.4 C 5.25 g/m*3 9.4 C 0 km/h
1128 29-11-2009 09:35:02 9.4 C 5.25 g/m*3 9.4 C 0 km/h
1129 29-11-2009 09:47:02 9.5 C 5.37 g/m*3 9.5 C 0 km/h
1130 29-11-2009 09:59:02 9.8 C 5.38 g/m*3 9.8 C 0 km/h
1131 29-11-2009 10:11:02 10 C 5.45 g/m*3 10 C 0 km/h
1132 29-11-2009 10:23:02 10.2 C 5.33 g/m*3 10.2 C 0 km/h
1133 29-11-2009 10:35:01 10.5 C 5.33 g/m*3 10.5 C 0 km/h
1134 29-11-2009 10:47:02 10.5 C 5.33 g/m*3 10.5 C 0 km/h
1135 29-11-2009 10:59:02 11 C 5.41 g/m*3 11 C 0 km/h
1136 29-11-2009 11:11:01 11.2 C 5.27 g/m*3 11.2 C 0 km/h
1137 29-11-2009 11:23:02 11.3 C 5.2 g/m*3 11.3 C 0 km/h
1138 29-11-2009 11:35:02 11.3 C 5.1 g/m*3 11.3 C 0 km/h
1139 29-11-2009 11:47:02 11.5 C 5.16 g/m*3 11.5 C 0 km/h
1140 29-11-2009 11:59:03 11.7 C 5.33 g/m*3 11.7 C 0 km/h
1141 29-11-2009 12:11:02 11.9 C 5.3 g/m*3 11.9 C 0 km/h
1142 29-11-2009 12:23:02 12.1 C 5.15 g/m*3 12.1 C 0 km/h
1143 29-11-2009 12:35:02 12.5 C 5.17 g/m*3 12.5 C 0 km/h
1144 29-11-2009 12:47:02 12.8 C 5.26 g/m*3 12.8 C 0 km/h
1145 29-11-2009 12:59:02 13.2 C 5.28 g/m*3 13.2 C 0 km/h
1146 29-11-2009 13:11:01 13.4 C 5.23 g/m*3 13.4 C 0 km/h
1147 29-11-2009 13:23:01 13.7 C 5.33 g/m*3 13.7 C 0 km/h
1148 29-11-2009 13:35:02 13.8 C 5.24 g/m*3 13.8 C 0 km/h
1149 29-11-2009 13:47:02 13 C 5.67 g/m*3 13 C 0 km/h
1150 29-11-2009 13:59:02 12.7 C 6.12 g/m*3 12.7 C 0 km/h
Sensor: Nr:Datum:Temp:Abs-Feuchte:Windchill:Wind:
Aussen-T/F 1151 29-11-2009 14:11:02 11.7 C 6.48 g/m*3 11.7 C 0 km/h
1152 29-11-2009 14:23:02 11 C 6.91 g/m*3 11 C 0 km/h
1153 29-11-2009 14:35:02 10.8 C 7.12 g/m*3 10.8 C 0 km/h
1154 29-11-2009 14:47:02 10.7 C 7.17 g/m*3 10.7 C 0 km/h
1155 29-11-2009 14:59:02 10.5 C 7.18 g/m*3 10.5 C 0 km/h
1156 29-11-2009 15:11:03 10.4 C 7.13 g/m*3 10.4 C 0 km/h
1157 29-11-2009 15:23:02 10.3 C 7.28 g/m*3 10.3 C 0 km/h
1158 29-11-2009 15:35:02 10.2 C 7.23 g/m*3 10.2 C 0 km/h
1159 29-11-2009 15:47:01 9.9 C 7.28 g/m*3 9.9 C 0 km/h
1160 29-11-2009 15:59:01 9.9 C 7.28 g/m*3 9.9 C 0 km/h
1161 29-11-2009 16:11:02 9.9 C 7.19 g/m*3 9.9 C 0 km/h
1162 29-11-2009 16:23:01 9.8 C 7.14 g/m*3 9.8 C 0 km/h
1163 29-11-2009 16:35:02 9.7 C 7.19 g/m*3 9.7 C 0 km/h
1164 29-11-2009 16:47:01 9.5 C 7.19 g/m*3 9.5 C 0 km/h
1165 29-11-2009 16:59:01 9.5 C 7.28 g/m*3 9.5 C 0 km/h
1166 29-11-2009 17:11:02 9.4 C 7.33 g/m*3 9.4 C 0 km/h
1167 29-11-2009 17:23:01 9.3 C 7.37 g/m*3 9.3 C 0 km/h
1168 29-11-2009 17:35:02 9.2 C 7.32 g/m*3 9.2 C 0 km/h
1169 29-11-2009 17:47:01 9 C 7.23 g/m*3 9 C 0 km/h
1170 29-11-2009 17:59:01 8.9 C 7.36 g/m*3 8.9 C 0 km/h
1171 29-11-2009 18:11:02 8.7 C 7.26 g/m*3 8.7 C 0 km/h
1172 29-11-2009 18:23:01 8.5 C 7.26 g/m*3 8.5 C 0 km/h
1173 29-11-2009 18:35:02 8.4 C 7.3 g/m*3 8.4 C 0 km/h
1174 29-11-2009 18:47:01 8.3 C 7.25 g/m*3 8.3 C 0 km/h
1175 29-11-2009 18:59:01 8.2 C 7.29 g/m*3 8.2 C 0 km/h
Sensor: Nr:Datum:Temp:Abs-Feuchte:Windchill:Wind:
Aussen-T/F 1176 29-11-2009 19:11:02 8.2 C 7.37 g/m*3 8.2 C 0 km/h
1177 29-11-2009 19:23:02 8.2 C 7.37 g/m*3 8.2 C 0 km/h
1178 29-11-2009 19:35:01 8.2 C 7.45 g/m*3 8.2 C 0 km/h
1179 29-11-2009 19:47:02 8.1 C 7.41 g/m*3 8.1 C 0 km/h
1180 29-11-2009 19:59:02 8.1 C 7.49 g/m*3 8.1 C 0 km/h
1181 29-11-2009 20:11:01 8.1 C 7.49 g/m*3 8.1 C 0 km/h
1182 29-11-2009 20:23:02 8.1 C 7.57 g/m*3 8.1 C 0 km/h
1183 29-11-2009 20:35:01 8.1 C 7.57 g/m*3 8.1 C 0 km/h
1184 29-11-2009 20:47:02 7.9 C 7.56 g/m*3 7.9 C 0 km/h
1185 29-11-2009 20:59:02 7.8 C 7.51 g/m*3 7.8 C 0 km/h
1186 29-11-2009 21:11:02 7.6 C 7.41 g/m*3 7.6 C 0 km/h
1187 29-11-2009 21:23:01 7.6 C 7.41 g/m*3 7.6 C 0 km/h
1188 29-11-2009 21:35:02 7.5 C 7.36 g/m*3 7.5 C 0 km/h
1189 29-11-2009 21:47:01 7.4 C 7.4 g/m*3 7.4 C 0 km/h
1190 29-11-2009 21:59:01 7.4 C 7.4 g/m*3 7.4 C 0 km/h
1191 29-11-2009 22:11:02 7.3 C 7.35 g/m*3 7.3 C 0 km/h
1192 29-11-2009 22:23:01 7.2 C 7.3 g/m*3 7.2 C 0 km/h
1193 29-11-2009 22:36:02 7.1 C 7.25 g/m*3 7.1 C 0 km/h
1194 29-11-2009 22:48:02 7.1 C 7.33 g/m*3 7.1 C 0 km/h
1195 29-11-2009 23:00:02 7.1 C 7.33 g/m*3 7.1 C 0 km/h
1196 29-11-2009 23:12:02 7.1 C 7.33 g/m*3 7.1 C 0 km/h
1197 29-11-2009 23:24:02 7 C 7.28 g/m*3 7 C 0 km/h
1198 29-11-2009 23:36:03 7 C 7.28 g/m*3 7 C 0 km/h
1199 29-11-2009 23:48:03 7 C 7.28 g/m*3 7 C 0 km/h
1200 30-11-2009 00:00:03 6.9 C 7.31 g/m*3 6.9 C 0 km/h
Sensor: Nr:Datum:Temp:Abs-Feuchte:Windchill:Wind:
Aussen-T/F 1201 30-11-2009 00:12:03 6.9 C 7.31 g/m*3 6.9 C 0 km/h
1202 30-11-2009 00:24:03 6.7 C 7.22 g/m*3 6.7 C 0 km/h
1203 30-11-2009 00:36:03 6.5 C 7.12 g/m*3 6.5 C 0 km/h
1204 30-11-2009 00:48:03 6.4 C 7.08 g/m*3 6.4 C 0 km/h
1205 30-11-2009 01:00:03 6.4 C 7.08 g/m*3 6.4 C 0 km/h
1206 30-11-2009 01:12:03 6.4 C 7.08 g/m*3 6.4 C 0 km/h
1207 30-11-2009 01:24:03 6.4 C 7.08 g/m*3 6.4 C 0 km/h
1208 30-11-2009 01:36:03 6.4 C 7.08 g/m*3 6.4 C 0 km/h
1209 30-11-2009 01:48:03 6.3 C 7.03 g/m*3 6.3 C 0 km/h
1210 30-11-2009 02:00:03 6.2 C 6.99 g/m*3 6.2 C 0 km/h
1211 30-11-2009 02:12:03 6.2 C 6.99 g/m*3 6.2 C 0 km/h
1212 30-11-2009 02:24:03 6.3 C 7.03 g/m*3 6.3 C 0 km/h
1213 30-11-2009 02:36:03 6.3 C 7.03 g/m*3 6.3 C 0 km/h
1214 30-11-2009 02:48:03 6.2 C 6.99 g/m*3 6.2 C 0 km/h
1215 30-11-2009 03:00:03 6.2 C 6.91 g/m*3 6.2 C 0 km/h
1216 30-11-2009 03:12:03 6.1 C 6.87 g/m*3 6.1 C 0 km/h
1217 30-11-2009 03:24:04 6.2 C 6.84 g/m*3 6.2 C 0 km/h
1218 30-11-2009 03:36:04 6.2 C 6.77 g/m*3 6.2 C 0 km/h
1219 30-11-2009 03:48:04 6.2 C 6.69 g/m*3 6.2 C 0 km/h
1220 30-11-2009 04:00:04 6.2 C 6.69 g/m*3 6.2 C 0 km/h
1221 30-11-2009 04:12:04 6.2 C 6.62 g/m*3 6.2 C 0 km/h
1222 30-11-2009 04:24:04 6.2 C 6.62 g/m*3 6.2 C 0 km/h
1223 30-11-2009 04:36:04 6.2 C 6.62 g/m*3 6.2 C 0 km/h
1224 30-11-2009 04:48:04 6.3 C 6.66 g/m*3 6.3 C 0 km/h
1225 30-11-2009 05:00:04 6.3 C 6.66 g/m*3 6.3 C 0 km/h
Sensor: Nr:Datum:Temp:Abs-Feuchte:Windchill:Wind:
Aussen-T/F 1226 30-11-2009 05:12:04 6.4 C 6.71 g/m*3 6.4 C 0 km/h
1227 30-11-2009 05:24:04 6.3 C 6.59 g/m*3 6.3 C 0 km/h
1228 30-11-2009 05:36:04 6.3 C 6.66 g/m*3 6.3 C 0 km/h
1229 30-11-2009 05:48:04 6.4 C 6.71 g/m*3 6.4 C 0 km/h
1230 30-11-2009 06:00:04 6.4 C 6.71 g/m*3 6.4 C 0 km/h
1231 30-11-2009 06:12:04 6.4 C 6.71 g/m*3 6.4 C 0 km/h
1232 30-11-2009 06:24:04 6.2 C 6.55 g/m*3 6.2 C 0 km/h
1233 30-11-2009 06:36:04 6.2 C 6.55 g/m*3 6.2 C 0 km/h
1234 30-11-2009 06:48:04 6.1 C 6.5 g/m*3 6.1 C 0 km/h
1235 30-11-2009 07:00:04 6 C 6.39 g/m*3 6 C 0 km/h
1236 30-11-2009 07:12:02 6 C 6.39 g/m*3 6 C 0 km/h
1237 30-11-2009 07:24:02 6 C 6.31 g/m*3 6 C 0 km/h
1238 30-11-2009 07:36:02 5.9 C 6.42 g/m*3 5.9 C 0 km/h
1239 30-11-2009 07:48:02 5.9 C 6.42 g/m*3 5.9 C 0 km/h
1240 30-11-2009 08:00:02 5.8 C 6.45 g/m*3 5.8 C 0 km/h
1241 30-11-2009 08:12:01 5.8 C 6.45 g/m*3 5.8 C 0 km/h
1242 30-11-2009 08:24:01 5.6 C 6.29 g/m*3 5.6 C 0 km/h
1243 30-11-2009 08:36:02 5.5 C 6.32 g/m*3 5.5 C 0 km/h
1244 30-11-2009 08:48:02 5.6 C 6.36 g/m*3 5.6 C 0 km/h
1245 30-11-2009 09:00:02 5.9 C 6.56 g/m*3 5.9 C 0 km/h
1246 30-11-2009 09:12:02 6 C 6.53 g/m*3 6 C 0 km/h
1247 30-11-2009 09:24:02 6.2 C 6.55 g/m*3 6.2 C 0 km/h
1248 30-11-2009 09:36:02 6.3 C 6.59 g/m*3 6.3 C 0 km/h
1249 30-11-2009 09:48:03 6.4 C 6.63 g/m*3 6.4 C 0 km/h
1250 30-11-2009 10:00:03 6.4 C 6.56 g/m*3 6.4 C 0 km/h
Sensor: Nr:Datum:Temp:Abs-Feuchte:Windchill:Wind:
Aussen-T/F 1251 30-11-2009 10:12:02 6.5 C 6.37 g/m*3 6.5 C 0 km/h
1252 30-11-2009 10:24:02 6.7 C 6.38 g/m*3 6.7 C 0 km/h
1253 30-11-2009 10:36:02 7 C 6.43 g/m*3 7 C 0 km/h
1254 30-11-2009 10:48:02 7.1 C 6.47 g/m*3 7.1 C 0 km/h
1255 30-11-2009 11:00:02 7.3 C 6.4 g/m*3 7.3 C 0 km/h
1256 30-11-2009 11:12:02 7.4 C 6.28 g/m*3 7.4 C 0 km/h
1257 30-11-2009 11:24:02 7.3 C 6.08 g/m*3 7.3 C 0 km/h
1258 30-11-2009 11:36:01 7.4 C 6.12 g/m*3 7.4 C 0 km/h
1259 30-11-2009 11:48:02 7.5 C 6.16 g/m*3 7.5 C 0 km/h
1260 30-11-2009 12:00:02 7.6 C 6.12 g/m*3 7.6 C 0 km/h
1261 30-11-2009 12:12:01 7.6 C 6.04 g/m*3 7.6 C 0 km/h
1262 30-11-2009 12:24:02 7.8 C 6.04 g/m*3 7.8 C 0 km/h
1263 30-11-2009 12:36:01 8 C 6.04 g/m*3 8 C 0 km/h
1264 30-11-2009 12:48:02 8 C 5.87 g/m*3 8 C 0 km/h
1265 30-11-2009 13:00:02 7.9 C 5.91 g/m*3 7.9 C 0 km/h
1266 30-11-2009 13:12:02 8.2 C 5.95 g/m*3 8.2 C 0 km/h
1267 30-11-2009 13:24:02 8.1 C 5.82 g/m*3 8.1 C 0 km/h
1268 30-11-2009 13:36:03 8.1 C 5.74 g/m*3 8.1 C 0 km/h
1269 30-11-2009 13:48:02 8.2 C 5.69 g/m*3 8.2 C 0 km/h
1270 30-11-2009 14:00:02 8.3 C 5.65 g/m*3 8.3 C 0 km/h
1271 30-11-2009 14:12:01 8.4 C 5.68 g/m*3 8.4 C 0 km/h
1272 30-11-2009 14:24:02 8.3 C 5.65 g/m*3 8.3 C 0 km/h
1273 30-11-2009 14:36:02 8.3 C 5.73 g/m*3 8.3 C 0 km/h
1274 30-11-2009 14:48:02 8.3 C 5.65 g/m*3 8.3 C 0 km/h
1275 30-11-2009 15:00:02 8.1 C 5.66 g/m*3 8.1 C 0 km/h
Sensor: Nr:Datum:Temp:Abs-Feuchte:Windchill:Wind:
Aussen-T/F 1276 30-11-2009 15:12:03 8 C 5.7 g/m*3 8 C 0 km/h
1277 30-11-2009 15:24:02 7.9 C 5.75 g/m*3 7.9 C 0 km/h
1278 30-11-2009 15:36:02 7.8 C 5.88 g/m*3 7.8 C 0 km/h
1279 30-11-2009 15:48:01 7.6 C 5.8 g/m*3 7.6 C 0 km/h
1280 30-11-2009 16:00:01 7.3 C 5.77 g/m*3 7.3 C 0 km/h
1281 30-11-2009 16:12:02 7 C 5.81 g/m*3 7 C 0 km/h
1282 30-11-2009 16:24:01 6.6 C 5.89 g/m*3 6.6 C 0 km/h
1283 30-11-2009 16:36:02 6.3 C 5.85 g/m*3 6.3 C 0 km/h
1284 30-11-2009 16:48:02 6.1 C 5.84 g/m*3 6.1 C 0 km/h
1285 30-11-2009 17:00:02 6 C 5.88 g/m*3 6 C 0 km/h
1286 30-11-2009 17:12:02 5.9 C 5.91 g/m*3 5.9 C 0 km/h
1287 30-11-2009 17:24:01 6 C 5.95 g/m*3 6 C 0 km/h
1288 30-11-2009 17:36:02 6 C 5.95 g/m*3 6 C 0 km/h
1289 30-11-2009 17:48:02 6 C 5.95 g/m*3 6 C 0 km/h
1290 30-11-2009 18:00:02 6 C 6.02 g/m*3 6 C 0 km/h
1291 30-11-2009 18:12:02 6 C 6.02 g/m*3 6 C 0 km/h
1292 30-11-2009 18:24:01 5.9 C 6.06 g/m*3 5.9 C 0 km/h
1293 30-11-2009 18:36:02 6 C 6.02 g/m*3 6 C 0 km/h
1294 30-11-2009 18:48:02 6.1 C 6.06 g/m*3 6.1 C 0 km/h
1295 30-11-2009 19:00:02 6 C 6.02 g/m*3 6 C 0 km/h
1296 30-11-2009 19:12:02 6 C 6.02 g/m*3 6 C 0 km/h
1297 30-11-2009 19:24:01 5.9 C 6.06 g/m*3 5.9 C 0 km/h
1298 30-11-2009 19:36:02 5.9 C 6.13 g/m*3 5.9 C 0 km/h
1299 30-11-2009 19:48:01 5.9 C 6.13 g/m*3 5.9 C 0 km/h
1300 30-11-2009 20:00:01 5.9 C 6.13 g/m*3 5.9 C 0 km/h
Sensor: Nr:Datum:Temp:Abs-Feuchte:Windchill:Wind:
Aussen-T/F 1301 30-11-2009 20:12:02 5.9 C 6.13 g/m*3 5.9 C 0 km/h
1302 30-11-2009 20:24:02 5.9 C 6.13 g/m*3 5.9 C 0 km/h
1303 30-11-2009 20:36:02 5.9 C 6.13 g/m*3 5.9 C 0 km/h
1304 30-11-2009 20:48:02 5.7 C 6.05 g/m*3 5.7 C 0 km/h
1305 30-11-2009 21:00:02 5.7 C 6.05 g/m*3 5.7 C 0 km/h
1306 30-11-2009 21:12:02 5.6 C 6.01 g/m*3 5.6 C 0 km/h
1307 30-11-2009 21:24:02 5.6 C 6.08 g/m*3 5.6 C 0 km/h
1308 30-11-2009 21:36:01 5.5 C 6.04 g/m*3 5.5 C 0 km/h
1309 30-11-2009 21:48:02 5.5 C 6.04 g/m*3 5.5 C 0 km/h
1310 30-11-2009 22:00:02 5.4 C 6 g/m*3 5.4 C 0 km/h
1311 30-11-2009 22:12:02 5.4 C 6 g/m*3 5.4 C 0 km/h
1312 30-11-2009 22:24:02 5.3 C 6.03 g/m*3 5.3 C 0 km/h
1313 30-11-2009 22:36:01 5.3 C 6.03 g/m*3 5.3 C 0 km/h
1314 30-11-2009 22:48:01 5.2 C 5.99 g/m*3 5.2 C 0 km/h
1315 30-11-2009 23:00:01 5.2 C 5.99 g/m*3 5.2 C 0 km/h
1316 30-11-2009 23:12:01 5.4 C 6.07 g/m*3 5.4 C 0 km/h
1317 30-11-2009 23:24:02 5.5 C 6.11 g/m*3 5.5 C 0 km/h
1318 30-11-2009 23:36:01 5.4 C 6.07 g/m*3 5.4 C 0 km/h
1319 30-11-2009 23:48:02 5.5 C 6.18 g/m*3 5.5 C 0 km/h
1320 01-12-2009 00:00:02 5.5 C 6.18 g/m*3 5.5 C 0 km/h
1321 01-12-2009 00:12:01 5.6 C 6.15 g/m*3 5.6 C 0 km/h
1322 01-12-2009 00:24:01 5.6 C 6.15 g/m*3 5.6 C 0 km/h
1323 01-12-2009 00:36:02 5.6 C 6.15 g/m*3 5.6 C 0 km/h
1324 01-12-2009 00:48:02 5.6 C 6.15 g/m*3 5.6 C 0 km/h
1325 01-12-2009 01:00:02 5.5 C 6.11 g/m*3 5.5 C 0 km/h
Sensor: Nr:Datum:Temp:Abs-Feuchte:Windchill:Wind:
Aussen-T/F 1326 01-12-2009 01:12:02 5.5 C 6.11 g/m*3 5.5 C 0 km/h
1327 01-12-2009 01:24:02 5.5 C 6.11 g/m*3 5.5 C 0 km/h
1328 01-12-2009 01:36:02 5.5 C 6.11 g/m*3 5.5 C 0 km/h
1329 01-12-2009 01:48:02 5.4 C 6.07 g/m*3 5.4 C 0 km/h
1330 01-12-2009 02:00:02 5.4 C 6.14 g/m*3 5.4 C 0 km/h
1331 01-12-2009 02:12:02 5.4 C 6.14 g/m*3 5.4 C 0 km/h
1332 01-12-2009 02:24:02 5.4 C 6.14 g/m*3 5.4 C 0 km/h
1333 01-12-2009 02:36:02 5.4 C 6.07 g/m*3 5.4 C 0 km/h
1334 01-12-2009 02:48:01 5.4 C 6.07 g/m*3 5.4 C 0 km/h
1335 01-12-2009 03:00:01 5.3 C 6.03 g/m*3 5.3 C 0 km/h
1336 01-12-2009 03:12:01 5.3 C 5.96 g/m*3 5.3 C 0 km/h
1337 01-12-2009 03:24:02 5.3 C 5.89 g/m*3 5.3 C 0 km/h
1338 01-12-2009 03:36:01 5.3 C 5.89 g/m*3 5.3 C 0 km/h
1339 01-12-2009 03:48:01 5.2 C 5.78 g/m*3 5.2 C 0 km/h
1340 01-12-2009 04:00:01 5 C 5.71 g/m*3 5 C 0 km/h
1341 01-12-2009 04:12:02 4.9 C 5.81 g/m*3 4.9 C 0 km/h
1342 01-12-2009 04:24:01 4.8 C 5.77 g/m*3 4.8 C 0 km/h
1343 01-12-2009 04:36:01 4.7 C 5.73 g/m*3 4.7 C 0 km/h
1344 01-12-2009 04:48:01 4.7 C 5.73 g/m*3 4.7 C 0 km/h
1345 01-12-2009 05:00:01 4.9 C 5.87 g/m*3 4.9 C 0 km/h
1346 01-12-2009 05:12:02 4.9 C 5.94 g/m*3 4.9 C 0 km/h
1347 01-12-2009 05:24:01 5 C 5.91 g/m*3 5 C 0 km/h
1348 01-12-2009 05:36:01 5 C 5.91 g/m*3 5 C 0 km/h
1349 01-12-2009 05:48:01 5 C 5.91 g/m*3 5 C 0 km/h
1350 01-12-2009 06:00:01 5.1 C 5.95 g/m*3 5.1 C 0 km/h
Sensor: Nr:Datum:Temp:Abs-Feuchte:Windchill:Wind:
Aussen-T/F 1351 01-12-2009 06:12:01 5.1 C 5.95 g/m*3 5.1 C 0 km/h
1352 01-12-2009 06:24:02 5.1 C 5.95 g/m*3 5.1 C 0 km/h
1353 01-12-2009 06:36:01 5 C 5.91 g/m*3 5 C 0 km/h
1354 01-12-2009 06:48:02 5 C 5.91 g/m*3 5 C 0 km/h
1355 01-12-2009 07:00:02 5 C 5.91 g/m*3 5 C 0 km/h
1356 01-12-2009 07:12:01 5 C 5.98 g/m*3 5 C 0 km/h
1357 01-12-2009 07:24:02 5 C 5.98 g/m*3 5 C 0 km/h
1358 01-12-2009 07:36:01 5 C 5.98 g/m*3 5 C 0 km/h
1359 01-12-2009 07:48:02 4.9 C 5.94 g/m*3 4.9 C 0 km/h
1360 01-12-2009 08:00:02 4.8 C 5.9 g/m*3 4.8 C 0 km/h
1361 01-12-2009 08:12:01 4.8 C 5.9 g/m*3 4.8 C 0 km/h
1362 01-12-2009 08:24:01 4.8 C 5.97 g/m*3 4.8 C 0 km/h
1363 01-12-2009 08:36:01 4.9 C 6.01 g/m*3 4.9 C 0 km/h
1364 01-12-2009 08:48:02 4.9 C 6.01 g/m*3 4.9 C 0 km/h
1365 01-12-2009 09:00:02 5 C 5.98 g/m*3 5 C 0 km/h
1366 01-12-2009 09:12:01 5.1 C 6.02 g/m*3 5.1 C 0 km/h
1367 01-12-2009 09:24:01 5.2 C 6.06 g/m*3 5.2 C 0 km/h
1368 01-12-2009 09:36:02 5.3 C 6.1 g/m*3 5.3 C 0 km/h
1369 01-12-2009 09:48:01 5.4 C 6.14 g/m*3 5.4 C 0 km/h
1370 01-12-2009 10:00:01 5.5 C 6.11 g/m*3 5.5 C 0 km/h
1371 01-12-2009 10:12:02 5.6 C 6.15 g/m*3 5.6 C 0 km/h
1372 01-12-2009 10:24:01 5.7 C 6.12 g/m*3 5.7 C 0 km/h
1373 01-12-2009 10:36:02 5.7 C 6.12 g/m*3 5.7 C 0 km/h
1374 01-12-2009 10:48:01 5.8 C 6.09 g/m*3 5.8 C 0 km/h
1375 01-12-2009 11:00:01 6.1 C 6.06 g/m*3 6.1 C 0 km/h
Sensor: Nr:Datum:Temp:Abs-Feuchte:Windchill:Wind:
Aussen-T/F 1376 01-12-2009 11:12:02 6.3 C 6.07 g/m*3 6.3 C 0 km/h
1377 01-12-2009 11:24:01 6.3 C 6 g/m*3 6.3 C 0 km/h
1378 01-12-2009 11:36:01 6.4 C 6.04 g/m*3 6.4 C 0 km/h
1379 01-12-2009 11:48:01 6.6 C 5.96 g/m*3 6.6 C 0 km/h
1380 01-12-2009 12:00:01 6.7 C 5.85 g/m*3 6.7 C 0 km/h
1381 01-12-2009 12:12:01 6.8 C 5.89 g/m*3 6.8 C 0 km/h
1382 01-12-2009 12:24:01 6.8 C 5.81 g/m*3 6.8 C 0 km/h
1383 01-12-2009 12:36:01 6.9 C 5.85 g/m*3 6.9 C 0 km/h
1384 01-12-2009 12:48:01 6.9 C 5.77 g/m*3 6.9 C 0 km/h
1385 01-12-2009 13:00:01 6.9 C 5.77 g/m*3 6.9 C 0 km/h
1386 01-12-2009 13:12:01 6.9 C 5.77 g/m*3 6.9 C 0 km/h
1387 01-12-2009 13:24:02 6.9 C 5.77 g/m*3 6.9 C 0 km/h
1388 01-12-2009 13:36:01 6.9 C 5.7 g/m*3 6.9 C 0 km/h
1389 01-12-2009 13:48:02 6.9 C 5.77 g/m*3 6.9 C 0 km/h
1390 01-12-2009 14:00:02 6.8 C 5.74 g/m*3 6.8 C 0 km/h
1391 01-12-2009 14:12:01 6.8 C 5.81 g/m*3 6.8 C 0 km/h
1392 01-12-2009 14:24:02 6.8 C 5.74 g/m*3 6.8 C 0 km/h
1393 01-12-2009 14:36:01 6.8 C 5.81 g/m*3 6.8 C 0 km/h
1394 01-12-2009 14:48:02 6.8 C 5.81 g/m*3 6.8 C 0 km/h
1395 01-12-2009 15:00:02 6.7 C 5.85 g/m*3 6.7 C 0 km/h
1396 01-12-2009 15:12:01 6.6 C 5.89 g/m*3 6.6 C 0 km/h
1397 01-12-2009 15:24:01 6.6 C 5.89 g/m*3 6.6 C 0 km/h
1398 01-12-2009 15:36:01 6.5 C 5.85 g/m*3 6.5 C 0 km/h
1399 01-12-2009 15:48:02 6.5 C 5.85 g/m*3 6.5 C 0 km/h
1400 01-12-2009 16:00:02 6.4 C 5.81 g/m*3 6.4 C 0 km/h
Sensor: Nr:Datum:Temp:Abs-Feuchte:Windchill:Wind:
Aussen-T/F 1401 01-12-2009 16:12:01 6.3 C 5.85 g/m*3 6.3 C 0 km/h
1402 01-12-2009 16:24:01 6.2 C 5.81 g/m*3 6.2 C 0 km/h
1403 01-12-2009 16:36:02 6.1 C 5.77 g/m*3 6.1 C 0 km/h
1404 01-12-2009 16:48:01 6 C 5.81 g/m*3 6 C 0 km/h
1405 01-12-2009 17:00:01 5.9 C 5.84 g/m*3 5.9 C 0 km/h
1406 01-12-2009 17:12:02 5.9 C 5.84 g/m*3 5.9 C 0 km/h
1407 01-12-2009 17:24:01 5.9 C 5.84 g/m*3 5.9 C 0 km/h
1408 01-12-2009 17:36:02 5.8 C 5.87 g/m*3 5.8 C 0 km/h
1409 01-12-2009 17:48:01 5.8 C 5.87 g/m*3 5.8 C 0 km/h
1410 01-12-2009 18:00:01 5.8 C 5.87 g/m*3 5.8 C 0 km/h
1411 01-12-2009 18:12:02 5.7 C 5.91 g/m*3 5.7 C 0 km/h
1412 01-12-2009 18:24:01 5.8 C 5.95 g/m*3 5.8 C 0 km/h
1413 01-12-2009 18:36:02 5.7 C 5.91 g/m*3 5.7 C 0 km/h
1414 01-12-2009 18:48:02 5.7 C 5.91 g/m*3 5.7 C 0 km/h
1415 01-12-2009 19:00:02 5.7 C 5.91 g/m*3 5.7 C 0 km/h
1416 01-12-2009 19:12:01 5.6 C 5.87 g/m*3 5.6 C 0 km/h
1417 01-12-2009 19:24:02 5.6 C 5.87 g/m*3 5.6 C 0 km/h
1418 01-12-2009 19:36:01 5.6 C 5.87 g/m*3 5.6 C 0 km/h
1419 01-12-2009 19:48:02 5.7 C 5.91 g/m*3 5.7 C 0 km/h
1420 01-12-2009 20:00:02 5.6 C 5.87 g/m*3 5.6 C 0 km/h
1421 01-12-2009 20:12:01 5.6 C 5.87 g/m*3 5.6 C 0 km/h
1422 01-12-2009 20:24:02 5.5 C 5.83 g/m*3 5.5 C 0 km/h
1423 01-12-2009 20:36:01 5.5 C 5.83 g/m*3 5.5 C 0 km/h
1424 01-12-2009 20:48:02 5.5 C 5.83 g/m*3 5.5 C 0 km/h
1425 01-12-2009 21:00:02 5.5 C 5.9 g/m*3 5.5 C 0 km/h
Sensor: Nr:Datum:Temp:Abs-Feuchte:Windchill:Wind:
Aussen-T/F 1426 01-12-2009 21:12:01 5.5 C 5.9 g/m*3 5.5 C 0 km/h
1427 01-12-2009 21:24:01 5.4 C 5.86 g/m*3 5.4 C 0 km/h
1428 01-12-2009 21:36:02 5.4 C 5.86 g/m*3 5.4 C 0 km/h
1429 01-12-2009 21:48:01 5.4 C 5.93 g/m*3 5.4 C 0 km/h
1430 01-12-2009 22:00:01 5.6 C 6.01 g/m*3 5.6 C 0 km/h
1431 01-12-2009 22:12:02 5.5 C 5.97 g/m*3 5.5 C 0 km/h
1432 01-12-2009 22:25:05 5.4 C 5.93 g/m*3 5.4 C 0 km/h
1433 01-12-2009 22:37:05 5.3 C 5.89 g/m*3 5.3 C 0 km/h
1434 01-12-2009 22:49:05 5.3 C 5.89 g/m*3 5.3 C 0 km/h
1435 01-12-2009 23:01:05 5.2 C 5.78 g/m*3 5.2 C 0 km/h
1436 01-12-2009 23:13:05 5.2 C 5.78 g/m*3 5.2 C 0 km/h
1437 01-12-2009 23:25:05 5.2 C 5.78 g/m*3 5.2 C 0 km/h
1438 01-12-2009 23:37:05 5.2 C 5.78 g/m*3 5.2 C 0 km/h
1439 01-12-2009 23:49:05 5.2 C 5.71 g/m*3 5.2 C 0 km/h
1440 02-12-2009 00:01:06 5.2 C 5.65 g/m*3 5.2 C 0 km/h
1441 02-12-2009 00:13:06 5.2 C 5.65 g/m*3 5.2 C 0 km/h
1442 02-12-2009 00:25:06 5.2 C 5.58 g/m*3 5.2 C 0 km/h
1443 02-12-2009 00:37:06 5.2 C 5.58 g/m*3 5.2 C 0 km/h
1444 02-12-2009 00:49:06 5 C 5.44 g/m*3 5 C 0 km/h
1445 02-12-2009 01:01:06 4.8 C 5.43 g/m*3 4.8 C 0 km/h
1446 02-12-2009 01:13:06 4.7 C 5.46 g/m*3 4.7 C 0 km/h
1447 02-12-2009 01:25:06 4.6 C 5.49 g/m*3 4.6 C 0 km/h
1448 02-12-2009 01:37:06 4.5 C 5.52 g/m*3 4.5 C 0 km/h
1449 02-12-2009 01:49:06 4.3 C 5.45 g/m*3 4.3 C 0 km/h
1450 02-12-2009 02:01:06 4.4 C 5.55 g/m*3 4.4 C 0 km/h
Sensor: Nr:Datum:Temp:Abs-Feuchte:Windchill:Wind:
Aussen-T/F 1451 02-12-2009 02:13:06 4.6 C 5.62 g/m*3 4.6 C 0 km/h
1452 02-12-2009 02:25:06 4.7 C 5.66 g/m*3 4.7 C 0 km/h
1453 02-12-2009 02:37:06 4.7 C 5.66 g/m*3 4.7 C 0 km/h
1454 02-12-2009 02:49:06 4.8 C 5.77 g/m*3 4.8 C 0 km/h
1455 02-12-2009 03:01:06 4.9 C 5.81 g/m*3 4.9 C 0 km/h
1456 02-12-2009 03:13:06 4.7 C 5.73 g/m*3 4.7 C 0 km/h
1457 02-12-2009 03:25:06 4.7 C 5.8 g/m*3 4.7 C 0 km/h
1458 02-12-2009 03:37:06 4.8 C 5.83 g/m*3 4.8 C 0 km/h
1459 02-12-2009 03:49:06 5 C 5.84 g/m*3 5 C 0 km/h
1460 02-12-2009 04:01:07 4.9 C 5.87 g/m*3 4.9 C 0 km/h
1461 02-12-2009 04:13:07 4.9 C 5.87 g/m*3 4.9 C 0 km/h
1462 02-12-2009 04:25:07 4.9 C 5.87 g/m*3 4.9 C 0 km/h
1463 02-12-2009 04:37:07 4.9 C 5.94 g/m*3 4.9 C 0 km/h
1464 02-12-2009 04:49:07 5 C 5.91 g/m*3 5 C 0 km/h
1465 02-12-2009 05:01:07 5 C 5.91 g/m*3 5 C 0 km/h
1466 02-12-2009 05:13:07 5 C 5.91 g/m*3 5 C 0 km/h
1467 02-12-2009 05:25:07 4.8 C 5.83 g/m*3 4.8 C 0 km/h
1468 02-12-2009 05:37:07 4.8 C 5.83 g/m*3 4.8 C 0 km/h
1469 02-12-2009 05:49:07 4.8 C 5.83 g/m*3 4.8 C 0 km/h
1470 02-12-2009 06:01:05 4.8 C 5.83 g/m*3 4.8 C 0 km/h
1471 02-12-2009 06:13:05 5 C 5.91 g/m*3 5 C 0 km/h
1472 02-12-2009 06:25:05 4.9 C 5.87 g/m*3 4.9 C 0 km/h
1473 02-12-2009 06:37:05 5 C 5.91 g/m*3 5 C 0 km/h
1474 02-12-2009 06:49:01 5 C 5.91 g/m*3 5 C 0 km/h
1475 02-12-2009 07:01:02 4.9 C 5.94 g/m*3 4.9 C 0 km/h
Sensor: Nr:Datum:Temp:Abs-Feuchte:Windchill:Wind:
Aussen-T/F 1476 02-12-2009 07:13:02 5 C 5.91 g/m*3 5 C 0 km/h
1477 02-12-2009 07:25:01 5.1 C 5.95 g/m*3 5.1 C 0 km/h
1478 02-12-2009 07:37:01 5.2 C 5.99 g/m*3 5.2 C 0 km/h
1479 02-12-2009 07:49:01 5.2 C 5.99 g/m*3 5.2 C 0 km/h
1480 02-12-2009 08:01:01 4.8 C 5.83 g/m*3 4.8 C 0 km/h
1481 02-12-2009 08:13:01 4.8 C 5.83 g/m*3 4.8 C 0 km/h
1482 02-12-2009 08:25:02 4.6 C 5.82 g/m*3 4.6 C 0 km/h
1483 02-12-2009 08:37:01 4.7 C 5.86 g/m*3 4.7 C 0 km/h
1484 02-12-2009 08:49:02 4.7 C 5.8 g/m*3 4.7 C 0 km/h
1485 02-12-2009 09:01:01 4.6 C 5.76 g/m*3 4.6 C 0 km/h
1486 02-12-2009 09:13:01 4.6 C 5.76 g/m*3 4.6 C 0 km/h
1487 02-12-2009 09:25:02 4.5 C 5.65 g/m*3 4.5 C 0 km/h
1488 02-12-2009 09:37:01 4.5 C 5.65 g/m*3 4.5 C 0 km/h
1489 02-12-2009 09:49:02 4.5 C 5.65 g/m*3 4.5 C 0 km/h
1490 02-12-2009 10:01:02 4.7 C 5.66 g/m*3 4.7 C 0 km/h
1491 02-12-2009 10:13:02 4.9 C 5.54 g/m*3 4.9 C 0 km/h
1492 02-12-2009 10:25:02 5.2 C 5.23 g/m*3 5.2 C 0 km/h
1493 02-12-2009 10:37:02 5.2 C 5.1 g/m*3 5.2 C 0 km/h
1494 02-12-2009 10:49:02 5.2 C 5.03 g/m*3 5.2 C 0 km/h
1495 02-12-2009 11:01:01 5.3 C 4.99 g/m*3 5.3 C 0 km/h
1496 02-12-2009 11:13:01 5.5 C 5.06 g/m*3 5.5 C 0 km/h
1497 02-12-2009 11:25:02 5.8 C 4.8 g/m*3 5.8 C 0 km/h
1498 02-12-2009 11:37:02 5.7 C 4.84 g/m*3 5.7 C 0 km/h
1499 02-12-2009 11:49:02 5.9 C 4.61 g/m*3 5.9 C 0 km/h
1500 02-12-2009 12:01:02 6.2 C 4.41 g/m*3 6.2 C 0 km/h
Sensor: Nr:Datum:Temp:Abs-Feuchte:Windchill:Wind:
Aussen-T/F 1501 02-12-2009 12:13:02 6.8 C 4.44 g/m*3 6.8 C 0 km/h
1502 02-12-2009 12:25:02 7.2 C 4.32 g/m*3 7.2 C 0 km/h
1503 02-12-2009 12:37:03 7.5 C 4.4 g/m*3 7.5 C 0 km/h
1504 02-12-2009 12:49:02 7.6 C 4.27 g/m*3 7.6 C 0 km/h
1505 02-12-2009 13:01:02 7.6 C 4.27 g/m*3 7.6 C 0 km/h
1506 02-12-2009 13:13:02 7.7 C 4.3 g/m*3 7.7 C 0 km/h
1507 02-12-2009 13:25:02 7.7 C 4.22 g/m*3 7.7 C 0 km/h
1508 02-12-2009 13:37:02 7.9 C 4.35 g/m*3 7.9 C 0 km/h
1509 02-12-2009 13:49:02 7.8 C 4.24 g/m*3 7.8 C 0 km/h
1510 02-12-2009 14:01:02 8 C 4.38 g/m*3 8 C 0 km/h
1511 02-12-2009 14:13:02 8 C 4.3 g/m*3 8 C 0 km/h
1512 02-12-2009 14:25:02 7.8 C 4.24 g/m*3 7.8 C 0 km/h
1513 02-12-2009 14:37:02 7.8 C 4.33 g/m*3 7.8 C 0 km/h
1514 02-12-2009 14:49:02 7.8 C 4.33 g/m*3 7.8 C 0 km/h
1515 02-12-2009 15:01:02 7.7 C 4.3 g/m*3 7.7 C 0 km/h
1516 02-12-2009 15:13:02 7.7 C 4.38 g/m*3 7.7 C 0 km/h
1517 02-12-2009 15:25:02 7.6 C 4.27 g/m*3 7.6 C 0 km/h
1518 02-12-2009 15:37:02 7.6 C 4.19 g/m*3 7.6 C 0 km/h
1519 02-12-2009 15:49:02 7.5 C 4.24 g/m*3 7.5 C 0 km/h
1520 02-12-2009 16:01:02 7.4 C 4.21 g/m*3 7.4 C 0 km/h
1521 02-12-2009 16:13:02 7.3 C 4.19 g/m*3 7.3 C 0 km/h
1522 02-12-2009 16:25:02 7 C 4.26 g/m*3 7 C 0 km/h
1523 02-12-2009 16:37:02 6.9 C 4.39 g/m*3 6.9 C 0 km/h
1524 02-12-2009 16:49:02 6.8 C 4.44 g/m*3 6.8 C 0 km/h
1525 02-12-2009 17:01:02 6.9 C 4.46 g/m*3 6.9 C 0 km/h
Sensor: Nr:Datum:Temp:Abs-Feuchte:Windchill:Wind:
Aussen-T/F 1526 02-12-2009 17:13:02 6.8 C 4.51 g/m*3 6.8 C 0 km/h
1527 02-12-2009 17:25:03 6.6 C 4.53 g/m*3 6.6 C 0 km/h
1528 02-12-2009 17:37:02 6.5 C 4.5 g/m*3 6.5 C 0 km/h
1529 02-12-2009 17:49:02 6.5 C 4.57 g/m*3 6.5 C 0 km/h
1530 02-12-2009 18:01:02 6.5 C 4.65 g/m*3 6.5 C 0 km/h
1531 02-12-2009 18:13:02 6.5 C 4.65 g/m*3 6.5 C 0 km/h
1532 02-12-2009 18:25:02 6.4 C 4.62 g/m*3 6.4 C 0 km/h
1533 02-12-2009 18:37:02 6.5 C 4.65 g/m*3 6.5 C 0 km/h
1534 02-12-2009 18:49:02 6.4 C 4.69 g/m*3 6.4 C 0 km/h
1535 02-12-2009 19:01:01 6.4 C 4.77 g/m*3 6.4 C 0 km/h
1536 02-12-2009 19:13:01 6.5 C 4.8 g/m*3 6.5 C 0 km/h
1537 02-12-2009 19:25:02 6.7 C 4.79 g/m*3 6.7 C 0 km/h
1538 02-12-2009 19:37:01 6.6 C 4.83 g/m*3 6.6 C 0 km/h
1539 02-12-2009 19:49:02 6.6 C 4.98 g/m*3 6.6 C 0 km/h
1540 02-12-2009 20:01:01 6.4 C 4.99 g/m*3 6.4 C 0 km/h
1541 02-12-2009 20:13:01 6.5 C 5.02 g/m*3 6.5 C 0 km/h
1542 02-12-2009 20:25:01 6.6 C 5.06 g/m*3 6.6 C 0 km/h
1543 02-12-2009 20:37:02 6.6 C 5.06 g/m*3 6.6 C 0 km/h
1544 02-12-2009 20:49:02 6.7 C 5.09 g/m*3 6.7 C 0 km/h
1545 02-12-2009 21:01:02 6.8 C 5.12 g/m*3 6.8 C 0 km/h
1546 02-12-2009 21:13:02 6.9 C 5.16 g/m*3 6.9 C 0 km/h
1547 02-12-2009 21:25:02 7 C 5.04 g/m*3 7 C 0 km/h
1548 02-12-2009 21:37:02 6.9 C 5.08 g/m*3 6.9 C 0 km/h
1549 02-12-2009 21:49:02 7 C 5.04 g/m*3 7 C 0 km/h
1550 02-12-2009 22:01:02 7 C 5.11 g/m*3 7 C 0 km/h
Sensor: Nr:Datum:Temp:Abs-Feuchte:Windchill:Wind:
Aussen-T/F 1551 02-12-2009 22:13:02 6.9 C 5.23 g/m*3 6.9 C 0 km/h
1552 02-12-2009 22:26:02 7 C 5.19 g/m*3 7 C 0 km/h
1553 02-12-2009 22:38:02 7 C 5.19 g/m*3 7 C 0 km/h
1554 02-12-2009 22:50:02 6.9 C 5.31 g/m*3 6.9 C 0 km/h
1555 02-12-2009 23:02:02 6.8 C 5.28 g/m*3 6.8 C 0 km/h
1556 02-12-2009 23:14:02 6.7 C 5.32 g/m*3 6.7 C 0 km/h
1557 02-12-2009 23:26:02 6.6 C 5.36 g/m*3 6.6 C 0 km/h
1558 02-12-2009 23:38:02 6.4 C 5.36 g/m*3 6.4 C 0 km/h
1559 02-12-2009 23:50:02 6.4 C 5.36 g/m*3 6.4 C 0 km/h
1560 03-12-2009 00:02:03 6.6 C 5.44 g/m*3 6.6 C 0 km/h
1561 03-12-2009 00:14:03 6.7 C 5.47 g/m*3 6.7 C 0 km/h
1562 03-12-2009 00:26:03 6.8 C 5.51 g/m*3 6.8 C 0 km/h
1563 03-12-2009 00:38:03 7 C 5.35 g/m*3 7 C 0 km/h
1564 03-12-2009 00:50:03 7.1 C 5.3 g/m*3 7.1 C 0 km/h
1565 03-12-2009 01:02:03 7.1 C 5.3 g/m*3 7.1 C 0 km/h
1566 03-12-2009 01:14:03 7.2 C 5.34 g/m*3 7.2 C 0 km/h
1567 03-12-2009 01:26:03 7.2 C 5.34 g/m*3 7.2 C 0 km/h
1568 03-12-2009 01:38:03 7.1 C 5.3 g/m*3 7.1 C 0 km/h
1569 03-12-2009 01:50:03 7 C 5.19 g/m*3 7 C 0 km/h
1570 03-12-2009 02:02:03 7.1 C 5.23 g/m*3 7.1 C 0 km/h
1571 03-12-2009 02:14:03 7.1 C 5.3 g/m*3 7.1 C 0 km/h
1572 03-12-2009 02:26:03 7.2 C 5.26 g/m*3 7.2 C 0 km/h
1573 03-12-2009 02:38:03 7.3 C 5.29 g/m*3 7.3 C 0 km/h
1574 03-12-2009 02:50:03 7.5 C 5.28 g/m*3 7.5 C 0 km/h
1575 03-12-2009 03:02:03 7.4 C 5.25 g/m*3 7.4 C 0 km/h
Sensor: Nr:Datum:Temp:Abs-Feuchte:Windchill:Wind:
Aussen-T/F 1576 03-12-2009 03:14:03 7.4 C 5.41 g/m*3 7.4 C 0 km/h
1577 03-12-2009 03:26:03 7.3 C 5.45 g/m*3 7.3 C 0 km/h
1578 03-12-2009 03:38:03 7.5 C 5.68 g/m*3 7.5 C 0 km/h
1579 03-12-2009 03:50:03 7.7 C 5.68 g/m*3 7.7 C 0 km/h
1580 03-12-2009 04:02:03 7.8 C 5.79 g/m*3 7.8 C 0 km/h
1581 03-12-2009 04:14:04 7.9 C 5.83 g/m*3 7.9 C 0 km/h
1582 03-12-2009 04:26:04 8.1 C 5.82 g/m*3 8.1 C 0 km/h
1583 03-12-2009 04:38:04 8.1 C 5.82 g/m*3 8.1 C 0 km/h
1584 03-12-2009 04:50:04 7.8 C 5.96 g/m*3 7.8 C 0 km/h
1585 03-12-2009 05:02:04 7.5 C 6.08 g/m*3 7.5 C 0 km/h
1586 03-12-2009 05:14:04 7.3 C 6.24 g/m*3 7.3 C 0 km/h
1587 03-12-2009 05:26:04 7.4 C 6.28 g/m*3 7.4 C 0 km/h
1588 03-12-2009 05:38:04 7.6 C 6.36 g/m*3 7.6 C 0 km/h
1589 03-12-2009 05:50:04 7.6 C 6.36 g/m*3 7.6 C 0 km/h
1590 03-12-2009 06:02:04 7.8 C 6.45 g/m*3 7.8 C 0 km/h
1591 03-12-2009 06:14:04 8 C 6.37 g/m*3 8 C 0 km/h
1592 03-12-2009 06:26:04 7.9 C 6.32 g/m*3 7.9 C 0 km/h
1593 03-12-2009 06:38:04 7.9 C 6.32 g/m*3 7.9 C 0 km/h
1594 03-12-2009 06:50:04 7.7 C 6.24 g/m*3 7.7 C 0 km/h
1595 03-12-2009 07:02:02 7.6 C 6.28 g/m*3 7.6 C 0 km/h
1596 03-12-2009 07:14:02 7.5 C 6.24 g/m*3 7.5 C 0 km/h
1597 03-12-2009 07:26:01 7.4 C 6.28 g/m*3 7.4 C 0 km/h
1598 03-12-2009 07:38:02 7.5 C 6.32 g/m*3 7.5 C 0 km/h
1599 03-12-2009 07:50:02 7.5 C 6.32 g/m*3 7.5 C 0 km/h
1600 03-12-2009 08:02:02 7.6 C 6.2 g/m*3 7.6 C 0 km/h
Sensor: Nr:Datum:Temp:Abs-Feuchte:Windchill:Wind:
Aussen-T/F 1601 03-12-2009 08:14:02 7.7 C 6.32 g/m*3 7.7 C 0 km/h
1602 03-12-2009 08:26:02 7.7 C 6.32 g/m*3 7.7 C 0 km/h
1603 03-12-2009 08:38:02 8 C 6.28 g/m*3 8 C 0 km/h
1604 03-12-2009 08:50:02 8.2 C 6.2 g/m*3 8.2 C 0 km/h
1605 03-12-2009 09:02:02 8.2 C 6.36 g/m*3 8.2 C 0 km/h
1606 03-12-2009 09:14:02 7.9 C 6.41 g/m*3 7.9 C 0 km/h
1607 03-12-2009 09:26:02 7.9 C 6.49 g/m*3 7.9 C 0 km/h
1608 03-12-2009 09:38:02 8.1 C 6.49 g/m*3 8.1 C 0 km/h
1609 03-12-2009 09:50:02 8.4 C 6.53 g/m*3 8.4 C 0 km/h
1610 03-12-2009 10:02:02 8.5 C 6.49 g/m*3 8.5 C 0 km/h
1611 03-12-2009 10:14:02 8.9 C 6.39 g/m*3 8.9 C 0 km/h
1612 03-12-2009 10:26:02 9.2 C 6.43 g/m*3 9.2 C 0 km/h
1613 03-12-2009 10:38:02 9.5 C 6.46 g/m*3 9.5 C 0 km/h
1614 03-12-2009 10:50:02 9.6 C 6.41 g/m*3 9.6 C 0 km/h
1615 03-12-2009 11:02:02 9.8 C 6.4 g/m*3 9.8 C 0 km/h
1616 03-12-2009 11:14:02 10.1 C 6.34 g/m*3 10.1 C 0 km/h
1617 03-12-2009 11:26:02 10.3 C 6.42 g/m*3 10.3 C 0 km/h
1618 03-12-2009 11:38:02 10.3 C 6.32 g/m*3 10.3 C 0 km/h
1619 03-12-2009 11:50:02 10 C 6.2 g/m*3 10 C 0 km/h
1620 03-12-2009 12:02:01 10 C 6.2 g/m*3 10 C 0 km/h
1621 03-12-2009 12:14:01 10.3 C 6.22 g/m*3 10.3 C 0 km/h
1622 03-12-2009 12:26:02 10.5 C 6.21 g/m*3 10.5 C 0 km/h
1623 03-12-2009 12:38:01 10.6 C 6.25 g/m*3 10.6 C 0 km/h
1624 03-12-2009 12:50:02 10.5 C 6.21 g/m*3 10.5 C 0 km/h
1625 03-12-2009 13:02:01 10.4 C 6.17 g/m*3 10.4 C 0 km/h
Sensor: Nr:Datum:Temp:Abs-Feuchte:Windchill:Wind:
Aussen-T/F 1626 03-12-2009 13:14:01 10.6 C 6.25 g/m*3 10.6 C 0 km/h
1627 03-12-2009 13:26:01 10.6 C 6.15 g/m*3 10.6 C 0 km/h
1628 03-12-2009 13:38:02 10.5 C 6.21 g/m*3 10.5 C 0 km/h
1629 03-12-2009 13:50:02 10.6 C 6.15 g/m*3 10.6 C 0 km/h
1630 03-12-2009 14:02:02 10.4 C 6.17 g/m*3 10.4 C 0 km/h
1631 03-12-2009 14:14:02 10.6 C 6.15 g/m*3 10.6 C 0 km/h
1632 03-12-2009 14:26:02 10.6 C 6.15 g/m*3 10.6 C 0 km/h
1633 03-12-2009 14:38:02 10.4 C 6.07 g/m*3 10.4 C 0 km/h
1634 03-12-2009 14:50:01 10.3 C 6.13 g/m*3 10.3 C 0 km/h
1635 03-12-2009 15:02:02 9.9 C 6.35 g/m*3 9.9 C 0 km/h
1636 03-12-2009 15:14:02 9.9 C 6.35 g/m*3 9.9 C 0 km/h
1637 03-12-2009 15:26:01 9.8 C 6.31 g/m*3 9.8 C 0 km/h
1638 03-12-2009 15:38:02 9.6 C 6.23 g/m*3 9.6 C 0 km/h
1639 03-12-2009 15:50:02 9.4 C 6.24 g/m*3 9.4 C 0 km/h
1640 03-12-2009 16:02:02 9.3 C 6.2 g/m*3 9.3 C 0 km/h
1641 03-12-2009 16:14:02 9.3 C 6.2 g/m*3 9.3 C 0 km/h
1642 03-12-2009 16:26:01 9.4 C 6.15 g/m*3 9.4 C 0 km/h
1643 03-12-2009 16:38:02 9.4 C 6.15 g/m*3 9.4 C 0 km/h
1644 03-12-2009 16:50:02 9.5 C 6.19 g/m*3 9.5 C 0 km/h
1645 03-12-2009 17:02:02 9.2 C 6.16 g/m*3 9.2 C 0 km/h
1646 03-12-2009 17:14:02 9.4 C 6.15 g/m*3 9.4 C 0 km/h
1647 03-12-2009 17:26:01 9.5 C 6.19 g/m*3 9.5 C 0 km/h
1648 03-12-2009 17:38:02 9.5 C 6.19 g/m*3 9.5 C 0 km/h
1649 03-12-2009 17:50:02 8.9 C 6.31 g/m*3 8.9 C 0 km/h
1650 03-12-2009 18:02:02 8.5 C 6.4 g/m*3 8.5 C 0 km/h
Sensor: Nr:Datum:Temp:Abs-Feuchte:Windchill:Wind:
Aussen-T/F 1651 03-12-2009 18:14:02 8.7 C 6.49 g/m*3 8.7 C 0 km/h
1652 03-12-2009 18:26:02 8.7 C 6.49 g/m*3 8.7 C 0 km/h
1653 03-12-2009 18:38:02 8.8 C 6.53 g/m*3 8.8 C 0 km/h
1654 03-12-2009 18:50:02 8.9 C 6.48 g/m*3 8.9 C 0 km/h
1655 03-12-2009 19:02:02 8.9 C 6.48 g/m*3 8.9 C 0 km/h
1656 03-12-2009 19:14:02 8.7 C 6.31 g/m*3 8.7 C 0 km/h
1657 03-12-2009 19:26:02 9.1 C 6.21 g/m*3 9.1 C 0 km/h
1658 03-12-2009 19:38:02 9.4 C 6.15 g/m*3 9.4 C 0 km/h
1659 03-12-2009 19:50:02 9.3 C 6.02 g/m*3 9.3 C 0 km/h
1660 03-12-2009 20:02:01 9.2 C 5.98 g/m*3 9.2 C 0 km/h
1661 03-12-2009 20:14:01 9.2 C 5.98 g/m*3 9.2 C 0 km/h
1662 03-12-2009 20:26:02 9.1 C 5.94 g/m*3 9.1 C 0 km/h
1663 03-12-2009 20:38:01 9.2 C 5.98 g/m*3 9.2 C 0 km/h
1664 03-12-2009 20:50:02 9 C 5.91 g/m*3 9 C 0 km/h
1665 03-12-2009 21:02:01 8.8 C 5.92 g/m*3 8.8 C 0 km/h
1666 03-12-2009 21:14:01 8.9 C 5.96 g/m*3 8.9 C 0 km/h
1667 03-12-2009 21:26:02 8.6 C 5.93 g/m*3 8.6 C 0 km/h
1668 03-12-2009 21:38:01 8.3 C 5.9 g/m*3 8.3 C 0 km/h
1669 03-12-2009 21:51:03 8.3 C 5.98 g/m*3 8.3 C 0 km/h
1670 03-12-2009 22:03:03 8.5 C 6.06 g/m*3 8.5 C 0 km/h
1671 03-12-2009 22:15:03 8.2 C 5.95 g/m*3 8.2 C 0 km/h
1672 03-12-2009 22:27:03 8.2 C 6.03 g/m*3 8.2 C 0 km/h
1673 03-12-2009 22:39:03 8.5 C 6.06 g/m*3 8.5 C 0 km/h
1674 03-12-2009 22:51:03 8 C 6.04 g/m*3 8 C 0 km/h
1675 03-12-2009 23:03:03 7 C 6.04 g/m*3 7 C 0 km/h
Sensor: Nr:Datum:Temp:Abs-Feuchte:Windchill:Wind:
Aussen-T/F 1676 03-12-2009 23:15:03 6.8 C 6.12 g/m*3 6.8 C 0 km/h
1677 03-12-2009 23:27:03 6.6 C 6.11 g/m*3 6.6 C 0 km/h
1678 03-12-2009 23:39:03 6.5 C 5.92 g/m*3 6.5 C 0 km/h
1679 03-12-2009 23:51:03 6.5 C 5.77 g/m*3 6.5 C 0 km/h
1680 04-12-2009 00:03:03 6.6 C 5.51 g/m*3 6.6 C 0 km/h
1681 04-12-2009 00:15:03 6.7 C 5.47 g/m*3 6.7 C 0 km/h
1682 04-12-2009 00:27:03 6.8 C 5.43 g/m*3 6.8 C 0 km/h
1683 04-12-2009 00:39:03 6.7 C 5.32 g/m*3 6.7 C 0 km/h
1684 04-12-2009 00:51:03 6.6 C 5.28 g/m*3 6.6 C 0 km/h
1685 04-12-2009 01:03:03 6.4 C 5.22 g/m*3 6.4 C 0 km/h
1686 04-12-2009 01:15:03 6.2 C 5.22 g/m*3 6.2 C 0 km/h
1687 04-12-2009 01:27:03 6.3 C 5.26 g/m*3 6.3 C 0 km/h
1688 04-12-2009 01:39:03 6.2 C 5.07 g/m*3 6.2 C 0 km/h
1689 04-12-2009 01:51:03 6.2 C 4.71 g/m*3 6.2 C 0 km/h
1690 04-12-2009 02:03:04 6.2 C 4.78 g/m*3 6.2 C 0 km/h
1691 04-12-2009 02:15:04 6.2 C 5 g/m*3 6.2 C 0 km/h
1692 04-12-2009 02:27:04 5.6 C 5.16 g/m*3 5.6 C 0 km/h
1693 04-12-2009 02:39:04 5.6 C 5.23 g/m*3 5.6 C 0 km/h
1694 04-12-2009 02:51:04 5.6 C 5.16 g/m*3 5.6 C 0 km/h
1695 04-12-2009 03:03:04 5.6 C 5.16 g/m*3 5.6 C 0 km/h
1696 04-12-2009 03:15:04 5.5 C 5.2 g/m*3 5.5 C 0 km/h
1697 04-12-2009 03:27:04 5.4 C 5.16 g/m*3 5.4 C 0 km/h
1698 04-12-2009 03:39:04 5.4 C 5.16 g/m*3 5.4 C 0 km/h
1699 04-12-2009 03:51:04 5.4 C 5.16 g/m*3 5.4 C 0 km/h
1700 04-12-2009 04:03:04 5.5 C 5.2 g/m*3 5.5 C 0 km/h
Sensor: Nr:Datum:Temp:Abs-Feuchte:Windchill:Wind:
Aussen-T/F 1701 04-12-2009 04:15:04 5.4 C 4.81 g/m*3 5.4 C 0 km/h
1702 04-12-2009 04:27:04 5 C 4.62 g/m*3 5 C 0 km/h
1703 04-12-2009 04:39:04 4.8 C 4.63 g/m*3 4.8 C 0 km/h
1704 04-12-2009 04:51:04 4.6 C 4.5 g/m*3 4.6 C 0 km/h
1705 04-12-2009 05:03:04 4.3 C 4.48 g/m*3 4.3 C 0 km/h
1706 04-12-2009 05:15:04 4 C 4.51 g/m*3 4 C 0 km/h
1707 04-12-2009 05:27:04 3.7 C 4.49 g/m*3 3.7 C 0 km/h
1708 04-12-2009 05:39:04 3.4 C 4.52 g/m*3 3.4 C 0 km/h
1709 04-12-2009 05:51:04 3.1 C 4.49 g/m*3 3.1 C 0 km/h
1710 04-12-2009 06:03:04 3.2 C 4.64 g/m*3 3.2 C 0 km/h
1711 04-12-2009 06:15:02 3.3 C 4.67 g/m*3 3.3 C 0 km/h
1712 04-12-2009 06:27:02 3.1 C 4.61 g/m*3 3.1 C 0 km/h
1713 04-12-2009 06:39:02 3.1 C 4.67 g/m*3 3.1 C 0 km/h
1714 04-12-2009 06:51:02 3.4 C 4.76 g/m*3 3.4 C 0 km/h
1715 04-12-2009 07:03:02 3.9 C 4.74 g/m*3 3.9 C 0 km/h
1716 04-12-2009 07:15:03 4.1 C 4.61 g/m*3 4.1 C 0 km/h
1717 04-12-2009 07:27:03 4.1 C 4.54 g/m*3 4.1 C 0 km/h
1718 04-12-2009 07:39:02 3.4 C 4.46 g/m*3 3.4 C 0 km/h
1719 04-12-2009 07:51:01 3.1 C 4.43 g/m*3 3.1 C 0 km/h
1720 04-12-2009 08:03:01 2.8 C 4.46 g/m*3 2.8 C 0 km/h
1721 04-12-2009 08:15:01 2.7 C 4.49 g/m*3 2.7 C 0 km/h
1722 04-12-2009 08:27:01 3 C 4.58 g/m*3 3 C 0 km/h
1723 04-12-2009 08:39:00 3.3 C 4.67 g/m*3 3.3 C 0 km/h
1724 04-12-2009 08:51:03 3.6 C 4.7 g/m*3 3.6 C 0 km/h
1725 04-12-2009 09:03:02 3.8 C 4.64 g/m*3 3.8 C 0 km/h
Sensor: Nr:Datum:Temp:Abs-Feuchte:Windchill:Wind:
Aussen-T/F 1726 04-12-2009 09:15:02 3.9 C 4.61 g/m*3 3.9 C 0 km/h
1727 04-12-2009 09:27:03 4.1 C 4.54 g/m*3 4.1 C 0 km/h
1728 04-12-2009 09:39:02 4.2 C 4.45 g/m*3 4.2 C 0 km/h
1729 04-12-2009 09:51:02 4.3 C 4.28 g/m*3 4.3 C 0 km/h
1730 04-12-2009 10:03:01 4 C 4.13 g/m*3 4 C 0 km/h
1731 04-12-2009 10:15:02 4 C 4.13 g/m*3 4 C 0 km/h
1732 04-12-2009 10:27:02 4.1 C 4.16 g/m*3 4.1 C 0 km/h
1733 04-12-2009 10:39:02 4.2 C 4.12 g/m*3 4.2 C 0 km/h
1734 04-12-2009 10:51:02 4.2 C 4.12 g/m*3 4.2 C 0 km/h
1735 04-12-2009 11:03:03 4.1 C 4.1 g/m*3 4.1 C 0 km/h
1736 04-12-2009 11:15:02 4.1 C 4.1 g/m*3 4.1 C 0 km/h
1737 04-12-2009 11:27:02 4.2 C 4.06 g/m*3 4.2 C 0 km/h
1738 04-12-2009 11:39:02 4.1 C 4.1 g/m*3 4.1 C 0 km/h
1739 04-12-2009 11:51:01 4.3 C 4.09 g/m*3 4.3 C 0 km/h
1740 04-12-2009 12:03:02 4.6 C 4.17 g/m*3 4.6 C 0 km/h
1741 04-12-2009 12:15:01 5.1 C 4.1 g/m*3 5.1 C 0 km/h
1742 04-12-2009 12:27:01 5.4 C 4.12 g/m*3 5.4 C 0 km/h
1743 04-12-2009 12:39:01 5.5 C 4.07 g/m*3 5.5 C 0 km/h
1744 04-12-2009 12:51:01 5.7 C 4.2 g/m*3 5.7 C 0 km/h
1745 04-12-2009 13:03:02 5.5 C 4 g/m*3 5.5 C 0 km/h
1746 04-12-2009 13:15:01 5 C 3.87 g/m*3 5 C 0 km/h
1747 04-12-2009 13:27:01 4.9 C 3.92 g/m*3 4.9 C 0 km/h
1748 04-12-2009 13:39:02 4.9 C 3.85 g/m*3 4.9 C 0 km/h
1749 04-12-2009 13:51:02 4.9 C 3.85 g/m*3 4.9 C 0 km/h
1750 04-12-2009 14:03:02 4.8 C 3.82 g/m*3 4.8 C 0 km/h
Sensor: Nr:Datum:Temp:Abs-Feuchte:Windchill:Wind:
Aussen-T/F 1751 04-12-2009 14:15:02 4.8 C 3.82 g/m*3 4.8 C 0 km/h
1752 04-12-2009 14:27:02 4.9 C 3.78 g/m*3 4.9 C 0 km/h
1753 04-12-2009 14:39:02 5.1 C 3.69 g/m*3 5.1 C 0 km/h
1754 04-12-2009 14:51:02 4.9 C 3.71 g/m*3 4.9 C 0 km/h
1755 04-12-2009 15:03:03 4.8 C 3.62 g/m*3 4.8 C 0 km/h
1756 04-12-2009 15:15:02 4.7 C 3.6 g/m*3 4.7 C 0 km/h
1757 04-12-2009 15:27:02 4.5 C 3.68 g/m*3 4.5 C 0 km/h
1758 04-12-2009 15:39:03 4.7 C 3.66 g/m*3 4.7 C 0 km/h
1759 04-12-2009 15:51:02 4.9 C 3.65 g/m*3 4.9 C 0 km/h
1760 04-12-2009 16:03:02 4.9 C 3.78 g/m*3 4.9 C 0 km/h
1761 04-12-2009 16:15:03 4.9 C 3.71 g/m*3 4.9 C 0 km/h
1762 04-12-2009 16:27:03 4.9 C 3.78 g/m*3 4.9 C 0 km/h
1763 04-12-2009 16:39:02 4.9 C 3.78 g/m*3 4.9 C 0 km/h
1764 04-12-2009 16:51:03 4.8 C 3.82 g/m*3 4.8 C 0 km/h
1765 04-12-2009 17:03:02 4.8 C 3.89 g/m*3 4.8 C 0 km/h
1766 04-12-2009 17:15:03 4.7 C 3.93 g/m*3 4.7 C 0 km/h
1767 04-12-2009 17:27:03 4.7 C 4 g/m*3 4.7 C 0 km/h
1768 04-12-2009 17:39:02 4.7 C 4.06 g/m*3 4.7 C 0 km/h
1769 04-12-2009 17:51:02 4.8 C 4.09 g/m*3 4.8 C 0 km/h
1770 04-12-2009 18:03:02 4.8 C 4.09 g/m*3 4.8 C 0 km/h
1771 04-12-2009 18:15:02 4.8 C 4.16 g/m*3 4.8 C 0 km/h
1772 04-12-2009 18:27:02 4.7 C 4.2 g/m*3 4.7 C 0 km/h
1773 04-12-2009 18:39:02 4.9 C 4.19 g/m*3 4.9 C 0 km/h
1774 04-12-2009 18:51:02 5 C 4.08 g/m*3 5 C 0 km/h
1775 04-12-2009 19:03:01 5 C 4.08 g/m*3 5 C 0 km/h
Sensor: Nr:Datum:Temp:Abs-Feuchte:Windchill:Wind:
Aussen-T/F 1776 04-12-2009 19:15:02 5 C 4.08 g/m*3 5 C 0 km/h
1777 04-12-2009 19:27:02 5 C 4.14 g/m*3 5 C 0 km/h
1778 04-12-2009 19:39:02 5 C 4.14 g/m*3 5 C 0 km/h
1779 04-12-2009 19:51:01 5.1 C 4.17 g/m*3 5.1 C 0 km/h
1780 04-12-2009 20:03:02 5.1 C 4.17 g/m*3 5.1 C 0 km/h
1781 04-12-2009 20:15:01 5 C 4.21 g/m*3 5 C 0 km/h
1782 04-12-2009 20:27:01 5 C 4.21 g/m*3 5 C 0 km/h
1783 04-12-2009 20:39:02 5 C 4.21 g/m*3 5 C 0 km/h
1784 04-12-2009 20:51:02 5 C 4.28 g/m*3 5 C 0 km/h
1785 04-12-2009 21:03:02 5 C 4.28 g/m*3 5 C 0 km/h
1786 04-12-2009 21:15:01 5.1 C 4.31 g/m*3 5.1 C 0 km/h
1787 04-12-2009 21:27:01 5.1 C 4.31 g/m*3 5.1 C 0 km/h
1788 04-12-2009 21:39:02 5.2 C 4.34 g/m*3 5.2 C 0 km/h
1789 04-12-2009 21:51:02 5.2 C 4.34 g/m*3 5.2 C 0 km/h
1790 04-12-2009 22:04:03 5.2 C 4.34 g/m*3 5.2 C 0 km/h
1791 04-12-2009 22:16:03 5.2 C 4.34 g/m*3 5.2 C 0 km/h
1792 04-12-2009 22:28:03 5.1 C 4.31 g/m*3 5.1 C 0 km/h
1793 04-12-2009 22:40:03 5.1 C 4.17 g/m*3 5.1 C 0 km/h
1794 04-12-2009 22:52:03 5.1 C 4.17 g/m*3 5.1 C 0 km/h
1795 04-12-2009 23:04:03 4.7 C 4.06 g/m*3 4.7 C 0 km/h
1796 04-12-2009 23:16:03 4.1 C 4.03 g/m*3 4.1 C 0 km/h
1797 04-12-2009 23:28:03 3.6 C 4.15 g/m*3 3.6 C 0 km/h
1798 04-12-2009 23:40:03 3.2 C 4.16 g/m*3 3.2 C 0 km/h
1799 04-12-2009 23:52:03 3 C 4.16 g/m*3 3 C 0 km/h
1800 05-12-2009 00:04:03 2.7 C 4.2 g/m*3 2.7 C 0 km/h
Sensor: Nr:Datum:Temp:Abs-Feuchte:Windchill:Wind:
Aussen-T/F 1801 05-12-2009 00:16:03 2.5 C 4.25 g/m*3 2.5 C 0 km/h
1802 05-12-2009 00:28:03 2.3 C 4.2 g/m*3 2.3 C 0 km/h
1803 05-12-2009 00:40:03 2.7 C 4.37 g/m*3 2.7 C 0 km/h
1804 05-12-2009 00:52:03 3.2 C 4.4 g/m*3 3.2 C 0 km/h
1805 05-12-2009 01:04:03 3.3 C 4.43 g/m*3 3.3 C 0 km/h
1806 05-12-2009 01:16:03 2.9 C 4.25 g/m*3 2.9 C 0 km/h
1807 05-12-2009 01:28:04 2.7 C 4.31 g/m*3 2.7 C 0 km/h
1808 05-12-2009 01:40:04 2.8 C 4.4 g/m*3 2.8 C 0 km/h
1809 05-12-2009 01:52:04 3.1 C 4.37 g/m*3 3.1 C 0 km/h
1810 05-12-2009 02:04:04 2.9 C 4.31 g/m*3 2.9 C 0 km/h
1811 05-12-2009 02:16:04 2.8 C 4.28 g/m*3 2.8 C 0 km/h
1812 05-12-2009 02:28:04 2.8 C 4.28 g/m*3 2.8 C 0 km/h
1813 05-12-2009 02:40:04 2.7 C 4.31 g/m*3 2.7 C 0 km/h
1814 05-12-2009 02:52:04 2.7 C 4.31 g/m*3 2.7 C 0 km/h
1815 05-12-2009 03:04:04 2.7 C 4.37 g/m*3 2.7 C 0 km/h
1816 05-12-2009 03:16:04 3 C 4.34 g/m*3 3 C 0 km/h
1817 05-12-2009 03:28:04 2.9 C 4.37 g/m*3 2.9 C 0 km/h
1818 05-12-2009 03:40:04 3.2 C 4.4 g/m*3 3.2 C 0 km/h
1819 05-12-2009 03:52:04 3.3 C 4.37 g/m*3 3.3 C 0 km/h
1820 05-12-2009 04:04:04 3.3 C 4.37 g/m*3 3.3 C 0 km/h
1821 05-12-2009 04:16:04 3.4 C 4.4 g/m*3 3.4 C 0 km/h
1822 05-12-2009 04:28:04 3.4 C 4.34 g/m*3 3.4 C 0 km/h
1823 05-12-2009 04:40:04 3.2 C 4.28 g/m*3 3.2 C 0 km/h
1824 05-12-2009 04:52:04 3.2 C 4.34 g/m*3 3.2 C 0 km/h
1825 05-12-2009 05:04:04 3.3 C 4.37 g/m*3 3.3 C 0 km/h
Sensor: Nr:Datum:Temp:Abs-Feuchte:Windchill:Wind:
Aussen-T/F 1826 05-12-2009 05:16:05 3.3 C 4.31 g/m*3 3.3 C 0 km/h
1827 05-12-2009 05:28:05 3.4 C 4.34 g/m*3 3.4 C 0 km/h
1828 05-12-2009 05:40:05 3.4 C 4.34 g/m*3 3.4 C 0 km/h
1829 05-12-2009 05:52:05 3.4 C 4.28 g/m*3 3.4 C 0 km/h
1830 05-12-2009 06:04:05 3.4 C 4.28 g/m*3 3.4 C 0 km/h
1831 05-12-2009 06:16:05 3.4 C 4.28 g/m*3 3.4 C 0 km/h
1832 05-12-2009 06:28:05 3.5 C 4.24 g/m*3 3.5 C 0 km/h
1833 05-12-2009 06:40:05 3.5 C 4.24 g/m*3 3.5 C 0 km/h
1834 05-12-2009 06:52:05 3.5 C 4.24 g/m*3 3.5 C 0 km/h
1835 05-12-2009 07:04:05 3.5 C 4.18 g/m*3 3.5 C 0 km/h
1836 05-12-2009 07:16:05 3.7 C 4.18 g/m*3 3.7 C 0 km/h
1837 05-12-2009 07:28:05 3.7 C 4.11 g/m*3 3.7 C 0 km/h
1838 05-12-2009 07:40:02 3.8 C 4.08 g/m*3 3.8 C 0 km/h
1839 05-12-2009 07:52:01 3.8 C 4.08 g/m*3 3.8 C 0 km/h
1840 05-12-2009 08:04:01 3.9 C 4.11 g/m*3 3.9 C 0 km/h
1841 05-12-2009 08:16:02 4 C 4.07 g/m*3 4 C 0 km/h
1842 05-12-2009 08:28:02 4 C 4.01 g/m*3 4 C 0 km/h
1843 05-12-2009 08:40:01 4.1 C 4.03 g/m*3 4.1 C 0 km/h
1844 05-12-2009 08:52:03 4.1 C 4.03 g/m*3 4.1 C 0 km/h
1845 05-12-2009 09:04:02 4.2 C 4.06 g/m*3 4.2 C 0 km/h
1846 05-12-2009 09:16:02 4.2 C 4.12 g/m*3 4.2 C 0 km/h
1847 05-12-2009 09:28:02 4.3 C 4.15 g/m*3 4.3 C 0 km/h
1848 05-12-2009 09:40:02 4.4 C 4.11 g/m*3 4.4 C 0 km/h
1849 05-12-2009 09:52:02 4.6 C 4.17 g/m*3 4.6 C 0 km/h
1850 05-12-2009 10:04:02 4.7 C 4.13 g/m*3 4.7 C 0 km/h
Sensor: Nr:Datum:Temp:Abs-Feuchte:Windchill:Wind:
Aussen-T/F 1851 05-12-2009 10:16:02 4.8 C 4.16 g/m*3 4.8 C 0 km/h
1852 05-12-2009 10:28:03 5.1 C 4.17 g/m*3 5.1 C 0 km/h
1853 05-12-2009 10:40:02 5.2 C 4.13 g/m*3 5.2 C 0 km/h
1854 05-12-2009 10:52:02 5.3 C 4.23 g/m*3 5.3 C 0 km/h
1855 05-12-2009 11:04:01 5.3 C 4.3 g/m*3 5.3 C 0 km/h
1856 05-12-2009 11:16:02 5.2 C 4.54 g/m*3 5.2 C 0 km/h
1857 05-12-2009 11:28:02 5.2 C 4.68 g/m*3 5.2 C 0 km/h
1858 05-12-2009 11:40:02 5.6 C 4.81 g/m*3 5.6 C 0 km/h
1859 05-12-2009 11:52:02 5.7 C 4.77 g/m*3 5.7 C 0 km/h
1860 05-12-2009 12:04:02 6 C 4.79 g/m*3 6 C 0 km/h
1861 05-12-2009 12:16:02 6.3 C 4.89 g/m*3 6.3 C 0 km/h
1862 05-12-2009 12:28:02 6.2 C 4.93 g/m*3 6.2 C 0 km/h
1863 05-12-2009 12:40:03 6.4 C 4.99 g/m*3 6.4 C 0 km/h
1864 05-12-2009 12:52:02 6.4 C 5.07 g/m*3 6.4 C 0 km/h
1865 05-12-2009 13:04:02 6.6 C 5.13 g/m*3 6.6 C 0 km/h
1866 05-12-2009 13:16:01 6.8 C 5.2 g/m*3 6.8 C 0 km/h
1867 05-12-2009 13:28:01 6.8 C 5.28 g/m*3 6.8 C 0 km/h
1868 05-12-2009 13:40:02 6.9 C 5.31 g/m*3 6.9 C 0 km/h
1869 05-12-2009 13:52:02 7 C 5.27 g/m*3 7 C 0 km/h
1870 05-12-2009 14:04:02 7.4 C 5.33 g/m*3 7.4 C 0 km/h
1871 05-12-2009 14:16:02 7.2 C 5.34 g/m*3 7.2 C 0 km/h
1872 05-12-2009 14:28:02 7.1 C 5.46 g/m*3 7.1 C 0 km/h
1873 05-12-2009 14:40:02 6.9 C 5.54 g/m*3 6.9 C 0 km/h
1874 05-12-2009 14:52:02 6.9 C 5.62 g/m*3 6.9 C 0 km/h
1875 05-12-2009 15:04:02 6.8 C 5.66 g/m*3 6.8 C 0 km/h
Sensor: Nr:Datum:Temp:Abs-Feuchte:Windchill:Wind:
Aussen-T/F 1876 05-12-2009 15:16:02 6.6 C 5.66 g/m*3 6.6 C 0 km/h
1877 05-12-2009 15:28:02 6.3 C 5.77 g/m*3 6.3 C 0 km/h
1878 05-12-2009 15:40:02 6.3 C 5.85 g/m*3 6.3 C 0 km/h
1879 05-12-2009 15:52:02 6.2 C 5.88 g/m*3 6.2 C 0 km/h
1880 05-12-2009 16:04:02 6.2 C 5.96 g/m*3 6.2 C 0 km/h
1881 05-12-2009 16:16:03 6.1 C 5.99 g/m*3 6.1 C 0 km/h
1882 05-12-2009 16:28:03 6.1 C 6.06 g/m*3 6.1 C 0 km/h
1883 05-12-2009 16:40:02 6.1 C 6.14 g/m*3 6.1 C 0 km/h
1884 05-12-2009 16:52:02 6.2 C 6.18 g/m*3 6.2 C 0 km/h
1885 05-12-2009 17:04:02 6.2 C 6.25 g/m*3 6.2 C 0 km/h
1886 05-12-2009 17:16:03 6.4 C 6.33 g/m*3 6.4 C 0 km/h
1887 05-12-2009 17:28:03 6.5 C 6.37 g/m*3 6.5 C 0 km/h
1888 05-12-2009 17:40:02 6.7 C 6.38 g/m*3 6.7 C 0 km/h
1889 05-12-2009 17:52:03 6.9 C 6.39 g/m*3 6.9 C 0 km/h
1890 05-12-2009 18:04:02 7.1 C 6.24 g/m*3 7.1 C 0 km/h
1891 05-12-2009 18:16:02 7.3 C 6.24 g/m*3 7.3 C 0 km/h
1892 05-12-2009 18:28:02 7.3 C 6.24 g/m*3 7.3 C 0 km/h
1893 05-12-2009 18:40:02 7.3 C 6.24 g/m*3 7.3 C 0 km/h
1894 05-12-2009 18:52:02 7.3 C 6.32 g/m*3 7.3 C 0 km/h
1895 05-12-2009 19:04:02 7.4 C 6.36 g/m*3 7.4 C 0 km/h
1896 05-12-2009 19:16:02 7.3 C 6.32 g/m*3 7.3 C 0 km/h
1897 05-12-2009 19:28:02 7.4 C 6.36 g/m*3 7.4 C 0 km/h
1898 05-12-2009 19:40:02 7.4 C 6.36 g/m*3 7.4 C 0 km/h
1899 05-12-2009 19:52:02 7.5 C 6.48 g/m*3 7.5 C 0 km/h
1900 05-12-2009 20:04:01 7.6 C 6.61 g/m*3 7.6 C 0 km/h
Sensor: Nr:Datum:Temp:Abs-Feuchte:Windchill:Wind:
Aussen-T/F 1901 05-12-2009 20:16:02 7.6 C 6.53 g/m*3 7.6 C 0 km/h
1902 05-12-2009 20:28:02 7.6 C 6.61 g/m*3 7.6 C 0 km/h
1903 05-12-2009 20:40:02 7.8 C 6.69 g/m*3 7.8 C 0 km/h
1904 05-12-2009 20:52:02 7.8 C 6.69 g/m*3 7.8 C 0 km/h
1905 05-12-2009 21:04:02 7.9 C 6.74 g/m*3 7.9 C 0 km/h
1906 05-12-2009 21:16:02 7.9 C 6.74 g/m*3 7.9 C 0 km/h
1907 05-12-2009 21:28:02 7.8 C 6.69 g/m*3 7.8 C 0 km/h
1908 05-12-2009 21:40:03 7.9 C 6.82 g/m*3 7.9 C 0 km/h
1909 05-12-2009 21:53:02 7.8 C 6.77 g/m*3 7.8 C 0 km/h
1910 05-12-2009 22:05:02 7.8 C 6.77 g/m*3 7.8 C 0 km/h
1911 05-12-2009 22:17:02 7.9 C 6.82 g/m*3 7.9 C 0 km/h
1912 05-12-2009 22:29:02 7.9 C 6.82 g/m*3 7.9 C 0 km/h
1913 05-12-2009 22:41:02 7.8 C 6.77 g/m*3 7.8 C 0 km/h
1914 05-12-2009 22:53:02 7.9 C 6.82 g/m*3 7.9 C 0 km/h
1915 05-12-2009 23:05:02 8 C 6.86 g/m*3 8 C 0 km/h
1916 05-12-2009 23:17:03 8 C 6.86 g/m*3 8 C 0 km/h
1917 05-12-2009 23:29:03 8.1 C 6.82 g/m*3 8.1 C 0 km/h
1918 05-12-2009 23:41:03 8.2 C 6.95 g/m*3 8.2 C 0 km/h
1919 05-12-2009 23:53:03 8.4 C 6.96 g/m*3 8.4 C 0 km/h
1920 06-12-2009 00:05:03 8.6 C 7.05 g/m*3 8.6 C 0 km/h
1921 06-12-2009 00:17:03 8.9 C 7.1 g/m*3 8.9 C 0 km/h
1922 06-12-2009 00:29:03 9 C 6.96 g/m*3 9 C 0 km/h
1923 06-12-2009 00:41:03 9.1 C 7.01 g/m*3 9.1 C 0 km/h
1924 06-12-2009 00:53:03 9.2 C 7.05 g/m*3 9.2 C 0 km/h
1925 06-12-2009 01:05:03 9.3 C 7.1 g/m*3 9.3 C 0 km/h
Sensor: Nr:Datum:Temp:Abs-Feuchte:Windchill:Wind:
Aussen-T/F 1926 06-12-2009 01:17:03 9.4 C 7.15 g/m*3 9.4 C 0 km/h
1927 06-12-2009 01:29:03 9.3 C 7.1 g/m*3 9.3 C 0 km/h
1928 06-12-2009 01:41:03 9.5 C 7.19 g/m*3 9.5 C 0 km/h
1929 06-12-2009 01:53:03 9.4 C 7.15 g/m*3 9.4 C 0 km/h
1930 06-12-2009 02:05:03 9.5 C 7.19 g/m*3 9.5 C 0 km/h
1931 06-12-2009 02:17:03 9.6 C 7.15 g/m*3 9.6 C 0 km/h
1932 06-12-2009 02:29:03 9.6 C 7.15 g/m*3 9.6 C 0 km/h
1933 06-12-2009 02:41:03 9.7 C 7.19 g/m*3 9.7 C 0 km/h
1934 06-12-2009 02:53:03 9.8 C 7.14 g/m*3 9.8 C 0 km/h
1935 06-12-2009 03:05:04 9.7 C 7.1 g/m*3 9.7 C 0 km/h
1936 06-12-2009 03:17:04 10 C 7.05 g/m*3 10 C 0 km/h
1937 06-12-2009 03:29:04 10 C 7.05 g/m*3 10 C 0 km/h
1938 06-12-2009 03:41:04 9.9 C 7.19 g/m*3 9.9 C 0 km/h
1939 06-12-2009 03:53:04 9.9 C 7.19 g/m*3 9.9 C 0 km/h
1940 06-12-2009 04:05:04 10 C 7.14 g/m*3 10 C 0 km/h
1941 06-12-2009 04:17:04 10 C 7.05 g/m*3 10 C 0 km/h
1942 06-12-2009 04:29:04 10 C 7.14 g/m*3 10 C 0 km/h
1943 06-12-2009 04:41:04 9.9 C 7.19 g/m*3 9.9 C 0 km/h
1944 06-12-2009 04:53:04 9.7 C 7.19 g/m*3 9.7 C 0 km/h
1945 06-12-2009 05:05:04 9.9 C 7.28 g/m*3 9.9 C 0 km/h
1946 06-12-2009 05:17:04 10.2 C 7.23 g/m*3 10.2 C 0 km/h
1947 06-12-2009 05:29:04 9.8 C 7.33 g/m*3 9.8 C 0 km/h
1948 06-12-2009 05:41:04 9.4 C 7.33 g/m*3 9.4 C 0 km/h
1949 06-12-2009 05:53:04 9.3 C 7.37 g/m*3 9.3 C 0 km/h
1950 06-12-2009 06:05:04 9.4 C 7.42 g/m*3 9.4 C 0 km/h
Sensor: Nr:Datum:Temp:Abs-Feuchte:Windchill:Wind:
Aussen-T/F 1951 06-12-2009 06:17:04 9.6 C 7.42 g/m*3 9.6 C 0 km/h
1952 06-12-2009 06:29:04 9.2 C 7.41 g/m*3 9.2 C 0 km/h
1953 06-12-2009 06:41:04 8.8 C 7.49 g/m*3 8.8 C 0 km/h
1954 06-12-2009 06:53:05 8.9 C 7.71 g/m*3 8.9 C 0 km/h
1955 06-12-2009 07:05:05 8.8 C 7.66 g/m*3 8.8 C 0 km/h
1956 06-12-2009 07:17:05 8.6 C 7.56 g/m*3 8.6 C 0 km/h
1957 06-12-2009 07:29:05 8.4 C 7.55 g/m*3 8.4 C 0 km/h
1958 06-12-2009 07:41:02 8.4 C 7.55 g/m*3 8.4 C 0 km/h
1959 06-12-2009 07:53:02 8.3 C 7.5 g/m*3 8.3 C 0 km/h
1960 06-12-2009 08:05:03 8.2 C 7.54 g/m*3 8.2 C 0 km/h
1961 06-12-2009 08:17:02 8.2 C 7.54 g/m*3 8.2 C 0 km/h
1962 06-12-2009 08:29:02 8.2 C 7.62 g/m*3 8.2 C 0 km/h
1963 06-12-2009 08:41:03 8.2 C 7.62 g/m*3 8.2 C 0 km/h
1964 06-12-2009 08:53:02 8.2 C 7.62 g/m*3 8.2 C 0 km/h
1965 06-12-2009 09:05:01 8.2 C 7.62 g/m*3 8.2 C 0 km/h
1966 06-12-2009 09:17:02 8.4 C 7.72 g/m*3 8.4 C 0 km/h
1967 06-12-2009 09:29:02 8.4 C 7.8 g/m*3 8.4 C 0 km/h
1968 06-12-2009 09:41:02 8.6 C 7.91 g/m*3 8.6 C 0 km/h
1969 06-12-2009 09:53:02 8.7 C 7.87 g/m*3 8.7 C 0 km/h
1970 06-12-2009 10:05:02 8.8 C 7.83 g/m*3 8.8 C 0 km/h
1971 06-12-2009 10:17:02 8.9 C 7.8 g/m*3 8.9 C 0 km/h
1972 06-12-2009 10:29:02 9.2 C 7.86 g/m*3 9.2 C 0 km/h
1973 06-12-2009 10:41:02 9.3 C 7.91 g/m*3 9.3 C 0 km/h
1974 06-12-2009 10:53:02 9.6 C 8.06 g/m*3 9.6 C 0 km/h
1975 06-12-2009 11:05:02 9.7 C 8.11 g/m*3 9.7 C 0 km/h
Sensor: Nr:Datum:Temp:Abs-Feuchte:Windchill:Wind:
Aussen-T/F 1976 06-12-2009 11:17:02 9.8 C 8.07 g/m*3 9.8 C 0 km/h
1977 06-12-2009 11:29:03 9.7 C 7.93 g/m*3 9.7 C 0 km/h
1978 06-12-2009 11:41:02 9.8 C 7.89 g/m*3 9.8 C 0 km/h
1979 06-12-2009 11:53:02 9.8 C 7.61 g/m*3 9.8 C 0 km/h
1980 06-12-2009 12:05:02 10 C 7.52 g/m*3 10 C 0 km/h
1981 06-12-2009 12:17:02 10.2 C 7.61 g/m*3 10.2 C 0 km/h
1982 06-12-2009 12:29:03 10.2 C 7.71 g/m*3 10.2 C 0 km/h
1983 06-12-2009 12:41:02 10.2 C 7.71 g/m*3 10.2 C 0 km/h
1984 06-12-2009 12:53:02 10.2 C 7.8 g/m*3 10.2 C 0 km/h
1985 06-12-2009 13:05:02 10.1 C 7.75 g/m*3 10.1 C 0 km/h
1986 06-12-2009 13:17:01 10.3 C 7.57 g/m*3 10.3 C 0 km/h
1987 06-12-2009 13:29:01 10.7 C 7.27 g/m*3 10.7 C 0 km/h
1988 06-12-2009 13:41:02 10.9 C 6.96 g/m*3 10.9 C 0 km/h
1989 06-12-2009 13:53:02 11.1 C 7.05 g/m*3 11.1 C 0 km/h
1990 06-12-2009 14:05:02 11.6 C 7.17 g/m*3 11.6 C 0 km/h
1991 06-12-2009 14:17:02 11.9 C 7.1 g/m*3 11.9 C 0 km/h
1992 06-12-2009 14:29:02 12 C 6.93 g/m*3 12 C 0 km/h
1993 06-12-2009 14:41:02 11.8 C 7.05 g/m*3 11.8 C 0 km/h
1994 06-12-2009 14:53:01 11.6 C 7.17 g/m*3 11.6 C 0 km/h
1995 06-12-2009 15:05:01 11.6 C 7.28 g/m*3 11.6 C 0 km/h
1996 06-12-2009 15:17:02 11.4 C 7.29 g/m*3 11.4 C 0 km/h
1997 06-12-2009 15:29:02 11.2 C 7.5 g/m*3 11.2 C 0 km/h
1998 06-12-2009 15:41:01 11.1 C 7.45 g/m*3 11.1 C 0 km/h
1999 06-12-2009 15:53:02 11.1 C 7.45 g/m*3 11.1 C 0 km/h
2000 06-12-2009 16:05:02 11.2 C 7.4 g/m*3 11.2 C 0 km/h
Sensor: Nr:Datum:Temp:Abs-Feuchte:Windchill:Wind:
Aussen-T/F 2001 06-12-2009 16:17:02 11.1 C 7.35 g/m*3 11.1 C 0 km/h
2002 06-12-2009 16:29:02 11.1 C 7.35 g/m*3 11.1 C 0 km/h
2003 06-12-2009 16:41:02 11.1 C 7.35 g/m*3 11.1 C 0 km/h
2004 06-12-2009 16:53:01 11 C 7.41 g/m*3 11 C 0 km/h
2005 06-12-2009 17:05:02 11 C 7.41 g/m*3 11 C 0 km/h
2006 06-12-2009 17:17:02 10.9 C 7.46 g/m*3 10.9 C 0 km/h
2007 06-12-2009 17:29:02 10.9 C 7.66 g/m*3 10.9 C 0 km/h
2008 06-12-2009 17:41:01 11 C 7.71 g/m*3 11 C 0 km/h
2009 06-12-2009 17:53:02 10.8 C 7.71 g/m*3 10.8 C 0 km/h
2010 06-12-2009 18:05:07 11 C 7.71 g/m*3 11 C 0 km/h
2011 06-12-2009 18:17:05 11 C 7.71 g/m*3 11 C 0 km/h
2012 06-12-2009 18:29:05 11 C 7.71 g/m*3 11 C 0 km/h
2013 06-12-2009 18:41:05 11 C 7.71 g/m*3 11 C 0 km/h
2014 06-12-2009 18:53:05 11 C 7.71 g/m*3 11 C 0 km/h
2015 06-12-2009 19:05:05 11.2 C 7.7 g/m*3 11.2 C 0 km/h
2016 06-12-2009 19:17:06 11.4 C 7.8 g/m*3 11.4 C 0 km/h
2017 06-12-2009 19:29:06 11.4 C 7.8 g/m*3 11.4 C 0 km/h
2018 06-12-2009 19:41:06 11.4 C 7.9 g/m*3 11.4 C 0 km/h
2019 06-12-2009 19:53:02 11 C 8.01 g/m*3 11 C 0 km/h
2020 06-12-2009 20:05:02 11 C 8.31 g/m*3 11 C 0 km/h
2021 06-12-2009 20:17:02 10.7 C 8.25 g/m*3 10.7 C 0 km/h
2022 06-12-2009 20:29:02 10.6 C 8.2 g/m*3 10.6 C 0 km/h
2023 06-12-2009 20:41:02 10.5 C 8.24 g/m*3 10.5 C 0 km/h
2024 06-12-2009 20:53:02 10.4 C 8.19 g/m*3 10.4 C 0 km/h
2025 06-12-2009 21:05:02 10.4 C 8.19 g/m*3 10.4 C 0 km/h
Sensor: Nr:Datum:Temp:Abs-Feuchte:Windchill:Wind:
Aussen-T/F 2026 06-12-2009 21:17:02 10 C 7.99 g/m*3 10 C 0 km/h
2027 06-12-2009 21:29:02 9.6 C 7.88 g/m*3 9.6 C 0 km/h
2028 06-12-2009 21:41:02 9.3 C 7.82 g/m*3 9.3 C 0 km/h
2029 06-12-2009 21:54:02 9.2 C 7.77 g/m*3 9.2 C 0 km/h
2030 06-12-2009 22:06:02 9 C 7.76 g/m*3 9 C 0 km/h
2031 06-12-2009 22:18:02 8.9 C 7.8 g/m*3 8.9 C 0 km/h
2032 06-12-2009 22:30:03 8.9 C 7.88 g/m*3 8.9 C 0 km/h
2033 06-12-2009 22:42:03 8.9 C 7.88 g/m*3 8.9 C 0 km/h
2034 06-12-2009 22:54:03 8.6 C 7.65 g/m*3 8.6 C 0 km/h
2035 06-12-2009 23:06:03 8.4 C 7.47 g/m*3 8.4 C 0 km/h
2036 06-12-2009 23:18:03 8 C 7.19 g/m*3 8 C 0 km/h
2037 06-12-2009 23:30:03 7.7 C 7.14 g/m*3 7.7 C 0 km/h
2038 06-12-2009 23:42:03 7.6 C 6.93 g/m*3 7.6 C 0 km/h
2039 06-12-2009 23:54:03 7.3 C 6.72 g/m*3 7.3 C 0 km/h
2040 07-12-2009 00:06:03 6.9 C 6.62 g/m*3 6.9 C 0 km/h
2041 07-12-2009 00:18:03 6.7 C 6.46 g/m*3 6.7 C 0 km/h
2042 07-12-2009 00:30:03 7 C 6.43 g/m*3 7 C 0 km/h
2043 07-12-2009 00:42:03 6.7 C 6.31 g/m*3 6.7 C 0 km/h
2044 07-12-2009 00:54:03 6.6 C 6.34 g/m*3 6.6 C 0 km/h
2045 07-12-2009 01:06:03 6.6 C 6.42 g/m*3 6.6 C 0 km/h
2046 07-12-2009 01:18:03 6.8 C 6.5 g/m*3 6.8 C 0 km/h
2047 07-12-2009 01:30:03 6.6 C 6.42 g/m*3 6.6 C 0 km/h
2048 07-12-2009 01:42:03 6.5 C 6.45 g/m*3 6.5 C 0 km/h
2049 07-12-2009 01:54:03 5.9 C 6.27 g/m*3 5.9 C 0 km/h
2050 07-12-2009 02:06:03 5.4 C 6.07 g/m*3 5.4 C 0 km/h
Sensor: Nr:Datum:Temp:Abs-Feuchte:Windchill:Wind:
Aussen-T/F 2051 07-12-2009 02:18:03 4.9 C 5.94 g/m*3 4.9 C 0 km/h
2052 07-12-2009 02:30:04 4.7 C 5.93 g/m*3 4.7 C 0 km/h
2053 07-12-2009 02:42:04 4.7 C 5.93 g/m*3 4.7 C 0 km/h
2054 07-12-2009 02:54:04 4.5 C 5.85 g/m*3 4.5 C 0 km/h
2055 07-12-2009 03:06:04 4.3 C 5.84 g/m*3 4.3 C 0 km/h
2056 07-12-2009 03:18:04 4.3 C 5.84 g/m*3 4.3 C 0 km/h
2057 07-12-2009 03:30:04 4.4 C 5.94 g/m*3 4.4 C 0 km/h
2058 07-12-2009 03:42:04 4 C 5.79 g/m*3 4 C 0 km/h
2059 07-12-2009 03:54:04 3.9 C 5.81 g/m*3 3.9 C 0 km/h
2060 07-12-2009 04:06:04 3.7 C 5.73 g/m*3 3.7 C 0 km/h
2061 07-12-2009 04:18:04 3.6 C 5.69 g/m*3 3.6 C 0 km/h
2062 07-12-2009 04:30:04 3.5 C 5.66 g/m*3 3.5 C 0 km/h
2063 07-12-2009 04:42:04 3.3 C 5.58 g/m*3 3.3 C 0 km/h
2064 07-12-2009 04:54:04 3 C 5.47 g/m*3 3 C 0 km/h
2065 07-12-2009 05:06:04 3 C 5.53 g/m*3 3 C 0 km/h
2066 07-12-2009 05:18:04 2.9 C 5.55 g/m*3 2.9 C 0 km/h
2067 07-12-2009 05:30:04 2.6 C 5.44 g/m*3 2.6 C 0 km/h
2068 07-12-2009 05:42:04 2.3 C 5.33 g/m*3 2.3 C 0 km/h
2069 07-12-2009 05:54:04 2.2 C 5.29 g/m*3 2.2 C 0 km/h
2070 07-12-2009 06:06:04 2.3 C 5.33 g/m*3 2.3 C 0 km/h
2071 07-12-2009 06:18:04 2.4 C 5.37 g/m*3 2.4 C 0 km/h
2072 07-12-2009 06:30:04 2.3 C 5.33 g/m*3 2.3 C 0 km/h
2073 07-12-2009 06:42:05 2.5 C 5.46 g/m*3 2.5 C 0 km/h
2074 07-12-2009 06:54:05 3 C 5.65 g/m*3 3 C 0 km/h
2075 07-12-2009 07:06:02 3 C 5.65 g/m*3 3 C 0 km/h
Sensor: Nr:Datum:Temp:Abs-Feuchte:Windchill:Wind:
Aussen-T/F 2076 07-12-2009 07:18:02 3 C 5.65 g/m*3 3 C 0 km/h
2077 07-12-2009 07:30:02 2.8 C 5.57 g/m*3 2.8 C 0 km/h
2078 07-12-2009 07:42:02 2.9 C 5.61 g/m*3 2.9 C 0 km/h
2079 07-12-2009 07:54:02 2.7 C 5.54 g/m*3 2.7 C 0 km/h
2080 07-12-2009 08:06:02 2.8 C 5.57 g/m*3 2.8 C 0 km/h
2081 07-12-2009 08:18:02 3.3 C 5.76 g/m*3 3.3 C 0 km/h
2082 07-12-2009 08:30:02 3.3 C 5.76 g/m*3 3.3 C 0 km/h
2083 07-12-2009 08:42:02 3.3 C 5.76 g/m*3 3.3 C 0 km/h
2084 07-12-2009 08:54:01 2.9 C 5.61 g/m*3 2.9 C 0 km/h
2085 07-12-2009 09:06:02 2.9 C 5.61 g/m*3 2.9 C 0 km/h
2086 07-12-2009 09:18:02 3 C 5.65 g/m*3 3 C 0 km/h
2087 07-12-2009 09:30:02 3.4 C 5.8 g/m*3 3.4 C 0 km/h
2088 07-12-2009 09:42:01 4.5 C 6.24 g/m*3 4.5 C 0 km/h
2089 07-12-2009 09:54:01 5.2 C 6.54 g/m*3 5.2 C 0 km/h
2090 07-12-2009 10:06:02 5.4 C 6.63 g/m*3 5.4 C 0 km/h
2091 07-12-2009 10:18:01 5.5 C 6.6 g/m*3 5.5 C 0 km/h
2092 07-12-2009 10:30:01 5.8 C 6.52 g/m*3 5.8 C 0 km/h
2093 07-12-2009 10:42:01 5.9 C 6.42 g/m*3 5.9 C 0 km/h
2094 07-12-2009 10:54:02 6.3 C 6.29 g/m*3 6.3 C 0 km/h
2095 07-12-2009 11:06:02 6.5 C 6.3 g/m*3 6.5 C 0 km/h
2096 07-12-2009 11:18:03 6.7 C 6.23 g/m*3 6.7 C 0 km/h
2097 07-12-2009 11:30:03 6.8 C 6.27 g/m*3 6.8 C 0 km/h
2098 07-12-2009 11:42:02 7 C 6.28 g/m*3 7 C 0 km/h
2099 07-12-2009 11:54:02 7.1 C 6.01 g/m*3 7.1 C 0 km/h
2100 07-12-2009 12:06:01 7.1 C 6.01 g/m*3 7.1 C 0 km/h
Sensor: Nr:Datum:Temp:Abs-Feuchte:Windchill:Wind:
Aussen-T/F 2101 07-12-2009 12:18:02 7.4 C 5.88 g/m*3 7.4 C 0 km/h
2102 07-12-2009 12:30:03 7.5 C 5.84 g/m*3 7.5 C 0 km/h
2103 07-12-2009 12:42:01 7.7 C 6.16 g/m*3 7.7 C 0 km/h
2104 07-12-2009 12:54:02 7.9 C 6.16 g/m*3 7.9 C 0 km/h
2105 07-12-2009 13:06:02 7.7 C 6 g/m*3 7.7 C 0 km/h
2106 07-12-2009 13:18:02 7.8 C 5.96 g/m*3 7.8 C 0 km/h
2107 07-12-2009 13:30:02 7.9 C 5.67 g/m*3 7.9 C 0 km/h
2108 07-12-2009 13:42:03 7.7 C 5.59 g/m*3 7.7 C 0 km/h
2109 07-12-2009 13:54:02 7.5 C 5.68 g/m*3 7.5 C 0 km/h
2110 07-12-2009 14:06:02 7.8 C 5.71 g/m*3 7.8 C 0 km/h
2111 07-12-2009 14:18:02 8 C 5.62 g/m*3 8 C 0 km/h
2112 07-12-2009 14:30:02 8 C 5.21 g/m*3 8 C 0 km/h
2113 07-12-2009 14:42:02 8 C 5.13 g/m*3 8 C 0 km/h
2114 07-12-2009 14:54:01 7.6 C 5.24 g/m*3 7.6 C 0 km/h
2115 07-12-2009 15:06:02 7.4 C 5.25 g/m*3 7.4 C 0 km/h
2116 07-12-2009 15:18:01 7.2 C 5.26 g/m*3 7.2 C 0 km/h
2117 07-12-2009 15:30:01 7.1 C 5.23 g/m*3 7.1 C 0 km/h
2118 07-12-2009 15:42:02 7.1 C 5.3 g/m*3 7.1 C 0 km/h
2119 07-12-2009 15:54:02 7.2 C 5.26 g/m*3 7.2 C 0 km/h
2120 07-12-2009 16:06:02 6.9 C 5.31 g/m*3 6.9 C 0 km/h
2121 07-12-2009 16:18:01 6.7 C 5.32 g/m*3 6.7 C 0 km/h
2122 07-12-2009 16:30:01 6.6 C 5.36 g/m*3 6.6 C 0 km/h
2123 07-12-2009 16:42:02 6.4 C 5.36 g/m*3 6.4 C 0 km/h
2124 07-12-2009 16:54:02 6.3 C 5.55 g/m*3 6.3 C 0 km/h
2125 07-12-2009 17:06:02 6.2 C 5.66 g/m*3 6.2 C 0 km/h
Sensor: Nr:Datum:Temp:Abs-Feuchte:Windchill:Wind:
Aussen-T/F 2126 07-12-2009 17:18:02 6.3 C 5.77 g/m*3 6.3 C 0 km/h
2127 07-12-2009 17:30:02 6.3 C 5.85 g/m*3 6.3 C 0 km/h
2128 07-12-2009 17:42:02 6.4 C 5.96 g/m*3 6.4 C 0 km/h
2129 07-12-2009 17:54:01 6.5 C 6 g/m*3 6.5 C 0 km/h
2130 07-12-2009 18:06:02 6.5 C 6 g/m*3 6.5 C 0 km/h
2131 07-12-2009 18:18:02 6.6 C 6.04 g/m*3 6.6 C 0 km/h
2132 07-12-2009 18:30:02 6.7 C 6.15 g/m*3 6.7 C 0 km/h
2133 07-12-2009 18:42:02 6.6 C 6.11 g/m*3 6.6 C 0 km/h
2134 07-12-2009 18:54:02 6.3 C 6 g/m*3 6.3 C 0 km/h
2135 07-12-2009 19:06:02 6.3 C 6.07 g/m*3 6.3 C 0 km/h
2136 07-12-2009 19:18:02 6.4 C 6.18 g/m*3 6.4 C 0 km/h
2137 07-12-2009 19:30:03 6.4 C 6.18 g/m*3 6.4 C 0 km/h
2138 07-12-2009 19:42:02 6.4 C 6.18 g/m*3 6.4 C 0 km/h
2139 07-12-2009 19:54:02 6.2 C 6.1 g/m*3 6.2 C 0 km/h
2140 07-12-2009 20:06:02 6.2 C 6.18 g/m*3 6.2 C 0 km/h
2141 07-12-2009 20:18:02 6.3 C 6.29 g/m*3 6.3 C 0 km/h
2142 07-12-2009 20:30:02 6.4 C 6.41 g/m*3 6.4 C 0 km/h
2143 07-12-2009 20:42:03 6.3 C 6.44 g/m*3 6.3 C 0 km/h
2144 07-12-2009 20:54:01 6.3 C 6.51 g/m*3 6.3 C 0 km/h
2145 07-12-2009 21:06:02 6.3 C 6.59 g/m*3 6.3 C 0 km/h
2146 07-12-2009 21:18:01 6.4 C 6.71 g/m*3 6.4 C 0 km/h
2147 07-12-2009 21:30:01 6.4 C 6.71 g/m*3 6.4 C 0 km/h
2148 07-12-2009 21:42:02 6.3 C 6.74 g/m*3 6.3 C 0 km/h
2149 07-12-2009 21:55:03 6.4 C 6.85 g/m*3 6.4 C 0 km/h
2150 07-12-2009 22:07:03 6.4 C 6.85 g/m*3 6.4 C 0 km/h
Sensor: Nr:Datum:Temp:Abs-Feuchte:Windchill:Wind:
Aussen-T/F 2151 07-12-2009 22:19:03 6.2 C 6.77 g/m*3 6.2 C 0 km/h
2152 07-12-2009 22:31:03 5.9 C 6.71 g/m*3 5.9 C 0 km/h
2153 07-12-2009 22:43:03 5.8 C 6.66 g/m*3 5.8 C 0 km/h
2154 07-12-2009 22:55:03 6 C 6.75 g/m*3 6 C 0 km/h
2155 07-12-2009 23:07:03 6.1 C 6.87 g/m*3 6.1 C 0 km/h
2156 07-12-2009 23:19:03 6.2 C 6.91 g/m*3 6.2 C 0 km/h
2157 07-12-2009 23:31:03 6.5 C 7.05 g/m*3 6.5 C 0 km/h
2158 07-12-2009 23:43:03 6.4 C 7.08 g/m*3 6.4 C 0 km/h
2159 07-12-2009 23:55:03 6.5 C 7.12 g/m*3 6.5 C 0 km/h
2160 08-12-2009 00:07:03 6.5 C 7.12 g/m*3 6.5 C 0 km/h
2161 08-12-2009 00:19:04 6.4 C 7.08 g/m*3 6.4 C 0 km/h
2162 08-12-2009 00:31:04 6.5 C 7.12 g/m*3 6.5 C 0 km/h
2163 08-12-2009 00:43:04 6.4 C 7.08 g/m*3 6.4 C 0 km/h
2164 08-12-2009 00:55:04 6.4 C 7.08 g/m*3 6.4 C 0 km/h
2165 08-12-2009 01:07:04 6.5 C 7.12 g/m*3 6.5 C 0 km/h
2166 08-12-2009 01:19:04 6.9 C 7.31 g/m*3 6.9 C 0 km/h
2167 08-12-2009 01:31:04 7 C 7.36 g/m*3 7 C 0 km/h
2168 08-12-2009 01:43:04 7.2 C 7.46 g/m*3 7.2 C 0 km/h
2169 08-12-2009 01:55:04 7.3 C 7.51 g/m*3 7.3 C 0 km/h
2170 08-12-2009 02:07:04 7.3 C 7.51 g/m*3 7.3 C 0 km/h
2171 08-12-2009 02:19:04 7.1 C 7.41 g/m*3 7.1 C 0 km/h
2172 08-12-2009 02:31:04 7.2 C 7.46 g/m*3 7.2 C 0 km/h
2173 08-12-2009 02:43:04 7.1 C 7.41 g/m*3 7.1 C 0 km/h
2174 08-12-2009 02:55:04 7.3 C 7.51 g/m*3 7.3 C 0 km/h
2175 08-12-2009 03:07:04 7.5 C 7.6 g/m*3 7.5 C 0 km/h
Sensor: Nr:Datum:Temp:Abs-Feuchte:Windchill:Wind:
Aussen-T/F 2176 08-12-2009 03:19:04 7.7 C 7.7 g/m*3 7.7 C 0 km/h
2177 08-12-2009 03:31:04 7.6 C 7.65 g/m*3 7.6 C 0 km/h
2178 08-12-2009 03:43:04 7.7 C 7.7 g/m*3 7.7 C 0 km/h
2179 08-12-2009 03:55:04 8 C 7.85 g/m*3 8 C 0 km/h
2180 08-12-2009 04:07:04 8.1 C 7.9 g/m*3 8.1 C 0 km/h
2181 08-12-2009 04:19:04 7.9 C 7.8 g/m*3 7.9 C 0 km/h
2182 08-12-2009 04:31:05 7.9 C 7.8 g/m*3 7.9 C 0 km/h
2183 08-12-2009 04:43:05 7.9 C 7.8 g/m*3 7.9 C 0 km/h
2184 08-12-2009 04:55:05 7.8 C 7.75 g/m*3 7.8 C 0 km/h
2185 08-12-2009 05:07:05 7.9 C 7.8 g/m*3 7.9 C 0 km/h
2186 08-12-2009 05:19:05 8.2 C 7.87 g/m*3 8.2 C 0 km/h
2187 08-12-2009 05:31:05 8.5 C 7.85 g/m*3 8.5 C 0 km/h
2188 08-12-2009 05:43:05 8.5 C 7.51 g/m*3 8.5 C 0 km/h
2189 08-12-2009 05:55:05 8.3 C 7 g/m*3 8.3 C 0 km/h
2190 08-12-2009 06:07:05 8 C 6.28 g/m*3 8 C 0 km/h
2191 08-12-2009 06:19:05 7.8 C 6.12 g/m*3 7.8 C 0 km/h
2192 08-12-2009 06:31:05 7.6 C 6.04 g/m*3 7.6 C 0 km/h
2193 08-12-2009 06:43:05 7.4 C 5.88 g/m*3 7.4 C 0 km/h
2194 08-12-2009 06:55:02 7.3 C 6 g/m*3 7.3 C 0 km/h
2195 08-12-2009 07:07:02 7.2 C 5.97 g/m*3 7.2 C 0 km/h
2196 08-12-2009 07:19:03 7.1 C 5.85 g/m*3 7.1 C 0 km/h
2197 08-12-2009 07:31:02 6.8 C 5.97 g/m*3 6.8 C 0 km/h
2198 08-12-2009 07:43:02 6.4 C 5.96 g/m*3 6.4 C 0 km/h
2199 08-12-2009 07:55:03 6.2 C 6.03 g/m*3 6.2 C 0 km/h
2200 08-12-2009 08:07:02 6 C 5.88 g/m*3 6 C 0 km/h
Sensor: Nr:Datum:Temp:Abs-Feuchte:Windchill:Wind:
Aussen-T/F 2201 08-12-2009 08:19:02 5.9 C 6.06 g/m*3 5.9 C 0 km/h
2202 08-12-2009 08:31:02 6 C 6.02 g/m*3 6 C 0 km/h
2203 08-12-2009 08:43:02 6 C 6.1 g/m*3 6 C 0 km/h
2204 08-12-2009 08:55:02 6.2 C 6.18 g/m*3 6.2 C 0 km/h
2205 08-12-2009 09:07:02 6.3 C 6.14 g/m*3 6.3 C 0 km/h
2206 08-12-2009 09:19:02 6.2 C 6.1 g/m*3 6.2 C 0 km/h
2207 08-12-2009 09:31:02 6.2 C 5.96 g/m*3 6.2 C 0 km/h
2208 08-12-2009 09:43:02 6.4 C 5.81 g/m*3 6.4 C 0 km/h
2209 08-12-2009 09:55:02 6.6 C 5.89 g/m*3 6.6 C 0 km/h
2210 08-12-2009 10:07:02 6.8 C 5.89 g/m*3 6.8 C 0 km/h
2211 08-12-2009 10:19:01 6.8 C 5.74 g/m*3 6.8 C 0 km/h
2212 08-12-2009 10:31:02 6.9 C 5.77 g/m*3 6.9 C 0 km/h
2213 08-12-2009 10:43:02 7.1 C 5.85 g/m*3 7.1 C 0 km/h
2214 08-12-2009 10:55:02 7.3 C 5.85 g/m*3 7.3 C 0 km/h
2215 08-12-2009 11:07:02 7.4 C 5.88 g/m*3 7.4 C 0 km/h
2216 08-12-2009 11:19:02 7.4 C 5.81 g/m*3 7.4 C 0 km/h
2217 08-12-2009 11:31:02 7.4 C 5.81 g/m*3 7.4 C 0 km/h
2218 08-12-2009 11:43:02 7.5 C 5.92 g/m*3 7.5 C 0 km/h
2219 08-12-2009 11:55:02 7.4 C 5.73 g/m*3 7.4 C 0 km/h
2220 08-12-2009 12:07:02 7.4 C 5.73 g/m*3 7.4 C 0 km/h
2221 08-12-2009 12:19:02 7.4 C 5.81 g/m*3 7.4 C 0 km/h
2222 08-12-2009 12:31:02 7.6 C 5.72 g/m*3 7.6 C 0 km/h
2223 08-12-2009 12:43:02 7.9 C 5.67 g/m*3 7.9 C 0 km/h
2224 08-12-2009 12:55:02 8 C 5.46 g/m*3 8 C 0 km/h
2225 08-12-2009 13:07:02 8 C 5.37 g/m*3 8 C 0 km/h
Sensor: Nr:Datum:Temp:Abs-Feuchte:Windchill:Wind:
Aussen-T/F 2226 08-12-2009 13:19:03 7.9 C 5.5 g/m*3 7.9 C 0 km/h
2227 08-12-2009 13:31:02 7.8 C 5.55 g/m*3 7.8 C 0 km/h
2228 08-12-2009 13:43:02 7.6 C 5.48 g/m*3 7.6 C 0 km/h
2229 08-12-2009 13:55:03 7.5 C 5.52 g/m*3 7.5 C 0 km/h
2230 08-12-2009 14:07:02 7.5 C 5.6 g/m*3 7.5 C 0 km/h
2231 08-12-2009 14:19:02 7.5 C 5.52 g/m*3 7.5 C 0 km/h
2232 08-12-2009 14:31:02 7.8 C 5.63 g/m*3 7.8 C 0 km/h
2233 08-12-2009 14:43:02 7.8 C 5.55 g/m*3 7.8 C 0 km/h
2234 08-12-2009 14:55:02 7.8 C 5.55 g/m*3 7.8 C 0 km/h
2235 08-12-2009 15:07:02 7.8 C 5.63 g/m*3 7.8 C 0 km/h
2236 08-12-2009 15:19:02 7.7 C 5.59 g/m*3 7.7 C 0 km/h
2237 08-12-2009 15:31:02 7.5 C 5.68 g/m*3 7.5 C 0 km/h
2238 08-12-2009 15:43:02 7.3 C 5.61 g/m*3 7.3 C 0 km/h
2239 08-12-2009 15:55:02 7.4 C 5.57 g/m*3 7.4 C 0 km/h
2240 08-12-2009 16:07:01 7.3 C 5.61 g/m*3 7.3 C 0 km/h
2241 08-12-2009 16:19:01 6.9 C 5.7 g/m*3 6.9 C 0 km/h
2242 08-12-2009 16:31:02 6.9 C 5.62 g/m*3 6.9 C 0 km/h
2243 08-12-2009 16:43:02 6.9 C 5.62 g/m*3 6.9 C 0 km/h
2244 08-12-2009 16:55:02 6.8 C 5.66 g/m*3 6.8 C 0 km/h
2245 08-12-2009 17:07:02 6.5 C 5.7 g/m*3 6.5 C 0 km/h
2246 08-12-2009 17:19:02 6.5 C 5.7 g/m*3 6.5 C 0 km/h
2247 08-12-2009 17:31:02 6.5 C 5.7 g/m*3 6.5 C 0 km/h
2248 08-12-2009 17:43:02 6.4 C 5.66 g/m*3 6.4 C 0 km/h
2249 08-12-2009 17:55:01 6.3 C 5.7 g/m*3 6.3 C 0 km/h
2250 08-12-2009 18:07:02 6 C 5.66 g/m*3 6 C 0 km/h
Sensor: Nr:Datum:Temp:Abs-Feuchte:Windchill:Wind:
Aussen-T/F 2251 08-12-2009 18:19:01 5.9 C 5.77 g/m*3 5.9 C 0 km/h
2252 08-12-2009 18:31:02 5.8 C 5.8 g/m*3 5.8 C 0 km/h
2253 08-12-2009 18:43:03 5.7 C 5.76 g/m*3 5.7 C 0 km/h
2254 08-12-2009 18:55:02 5.8 C 5.87 g/m*3 5.8 C 0 km/h
2255 08-12-2009 19:07:02 5.7 C 5.84 g/m*3 5.7 C 0 km/h
2256 08-12-2009 19:19:01 6 C 5.88 g/m*3 6 C 0 km/h
2257 08-12-2009 19:31:02 6 C 5.81 g/m*3 6 C 0 km/h
2258 08-12-2009 19:43:02 6.1 C 5.84 g/m*3 6.1 C 0 km/h
2259 08-12-2009 19:55:02 6.2 C 5.88 g/m*3 6.2 C 0 km/h
2260 08-12-2009 20:07:02 6.2 C 5.88 g/m*3 6.2 C 0 km/h
2261 08-12-2009 20:19:02 6.3 C 5.92 g/m*3 6.3 C 0 km/h
2262 08-12-2009 20:31:02 6.3 C 6 g/m*3 6.3 C 0 km/h
2263 08-12-2009 20:43:02 6.3 C 6 g/m*3 6.3 C 0 km/h
2264 08-12-2009 20:55:02 6.3 C 6.07 g/m*3 6.3 C 0 km/h
2265 08-12-2009 21:07:01 6.3 C 6.07 g/m*3 6.3 C 0 km/h
2266 08-12-2009 21:19:02 6.4 C 6.11 g/m*3 6.4 C 0 km/h
2267 08-12-2009 21:31:01 6.4 C 6.11 g/m*3 6.4 C 0 km/h
2268 08-12-2009 21:43:01 6.5 C 6.15 g/m*3 6.5 C 0 km/h
2269 08-12-2009 21:55:02 6.5 C 6.15 g/m*3 6.5 C 0 km/h
2270 08-12-2009 22:07:02 6.4 C 6.11 g/m*3 6.4 C 0 km/h
2271 08-12-2009 22:19:02 6.4 C 6.11 g/m*3 6.4 C 0 km/h
2272 08-12-2009 22:31:02 6.4 C 6.11 g/m*3 6.4 C 0 km/h
2273 08-12-2009 22:43:02 6.3 C 6.14 g/m*3 6.3 C 0 km/h
2274 08-12-2009 22:55:02 6.3 C 6.22 g/m*3 6.3 C 0 km/h
2275 08-12-2009 23:07:02 6.4 C 6.26 g/m*3 6.4 C 0 km/h
Sensor: Nr:Datum:Temp:Abs-Feuchte:Windchill:Wind:
Aussen-T/F 2276 08-12-2009 23:19:02 6.5 C 6.22 g/m*3 6.5 C 0 km/h
2277 08-12-2009 23:31:02 6.5 C 6.22 g/m*3 6.5 C 0 km/h
2278 08-12-2009 23:43:02 6.4 C 6.26 g/m*3 6.4 C 0 km/h
2279 08-12-2009 23:55:02 6.3 C 6.37 g/m*3 6.3 C 0 km/h
2280 09-12-2009 00:07:01 6.2 C 6.4 g/m*3 6.2 C 0 km/h
2281 09-12-2009 00:19:02 6.2 C 6.47 g/m*3 6.2 C 0 km/h
2282 09-12-2009 00:31:01 6 C 6.39 g/m*3 6 C 0 km/h
2283 09-12-2009 00:43:01 6 C 6.46 g/m*3 6 C 0 km/h
2284 09-12-2009 00:55:02 6 C 6.46 g/m*3 6 C 0 km/h
2285 09-12-2009 01:07:01 5.9 C 6.49 g/m*3 5.9 C 0 km/h
2286 09-12-2009 01:19:01 6 C 6.46 g/m*3 6 C 0 km/h
2287 09-12-2009 01:31:02 6 C 6.46 g/m*3 6 C 0 km/h
2288 09-12-2009 01:43:02 6.1 C 6.5 g/m*3 6.1 C 0 km/h
2289 09-12-2009 01:55:02 6.1 C 6.5 g/m*3 6.1 C 0 km/h
2290 09-12-2009 02:07:02 6.1 C 6.43 g/m*3 6.1 C 0 km/h
2291 09-12-2009 02:19:02 5.9 C 6.42 g/m*3 5.9 C 0 km/h
2292 09-12-2009 02:31:02 5.9 C 6.35 g/m*3 5.9 C 0 km/h
2293 09-12-2009 02:43:02 5.7 C 6.26 g/m*3 5.7 C 0 km/h
2294 09-12-2009 02:55:01 5.5 C 6.18 g/m*3 5.5 C 0 km/h
2295 09-12-2009 03:07:01 5.5 C 6.18 g/m*3 5.5 C 0 km/h
2296 09-12-2009 03:19:02 5.6 C 6.29 g/m*3 5.6 C 0 km/h
2297 09-12-2009 03:31:01 5.8 C 6.3 g/m*3 5.8 C 0 km/h
2298 09-12-2009 03:43:01 5.9 C 6.2 g/m*3 5.9 C 0 km/h
2299 09-12-2009 03:55:01 5.9 C 6.13 g/m*3 5.9 C 0 km/h
2300 09-12-2009 04:07:01 5.9 C 6.06 g/m*3 5.9 C 0 km/h
Sensor: Nr:Datum:Temp:Abs-Feuchte:Windchill:Wind:
Aussen-T/F 2301 09-12-2009 04:19:01 5.9 C 5.98 g/m*3 5.9 C 0 km/h
2302 09-12-2009 04:31:02 5.9 C 5.91 g/m*3 5.9 C 0 km/h
2303 09-12-2009 04:43:02 5.9 C 5.91 g/m*3 5.9 C 0 km/h
2304 09-12-2009 04:55:01 5.9 C 5.84 g/m*3 5.9 C 0 km/h
2305 09-12-2009 05:07:02 5.9 C 5.84 g/m*3 5.9 C 0 km/h
2306 09-12-2009 05:19:01 6 C 5.81 g/m*3 6 C 0 km/h
2307 09-12-2009 05:31:01 6 C 5.73 g/m*3 6 C 0 km/h
2308 09-12-2009 05:43:01 6 C 5.73 g/m*3 6 C 0 km/h
2309 09-12-2009 05:55:01 5.9 C 5.77 g/m*3 5.9 C 0 km/h
2310 09-12-2009 06:07:01 6 C 5.66 g/m*3 6 C 0 km/h
2311 09-12-2009 06:19:01 6 C 5.59 g/m*3 6 C 0 km/h
2312 09-12-2009 06:31:01 6 C 5.59 g/m*3 6 C 0 km/h
2313 09-12-2009 06:43:01 6 C 5.66 g/m*3 6 C 0 km/h
2314 09-12-2009 06:55:01 6.2 C 5.59 g/m*3 6.2 C 0 km/h
2315 09-12-2009 07:07:01 6.2 C 5.52 g/m*3 6.2 C 0 km/h
2316 09-12-2009 07:19:02 6.3 C 5.55 g/m*3 6.3 C 0 km/h
2317 09-12-2009 07:31:01 6.4 C 5.59 g/m*3 6.4 C 0 km/h
2318 09-12-2009 07:43:01 6.4 C 5.59 g/m*3 6.4 C 0 km/h
2319 09-12-2009 07:55:02 6.4 C 5.59 g/m*3 6.4 C 0 km/h
2320 09-12-2009 08:07:01 6.4 C 5.66 g/m*3 6.4 C 0 km/h
2321 09-12-2009 08:19:01 6.3 C 5.63 g/m*3 6.3 C 0 km/h
2322 09-12-2009 08:31:01 5.8 C 5.52 g/m*3 5.8 C 0 km/h
2323 09-12-2009 08:43:01 5.7 C 5.55 g/m*3 5.7 C 0 km/h
2324 09-12-2009 08:55:02 5.3 C 5.48 g/m*3 5.3 C 0 km/h
2325 09-12-2009 09:07:01 5.2 C 5.58 g/m*3 5.2 C 0 km/h
Sensor: Nr:Datum:Temp:Abs-Feuchte:Windchill:Wind:
Aussen-T/F 2326 09-12-2009 09:19:01 5.5 C 5.69 g/m*3 5.5 C 0 km/h
2327 09-12-2009 09:31:02 5.7 C 5.76 g/m*3 5.7 C 0 km/h
2328 09-12-2009 09:43:02 5.9 C 5.84 g/m*3 5.9 C 0 km/h
2329 09-12-2009 09:55:01 6 C 5.73 g/m*3 6 C 0 km/h
2330 09-12-2009 10:07:02 6.5 C 5.85 g/m*3 6.5 C 0 km/h
2331 09-12-2009 10:19:01 7.1 C 5.77 g/m*3 7.1 C 0 km/h
2332 09-12-2009 10:31:01 7.5 C 5.6 g/m*3 7.5 C 0 km/h
2333 09-12-2009 10:43:02 7.6 C 5.64 g/m*3 7.6 C 0 km/h
2334 09-12-2009 10:55:01 7.6 C 5.56 g/m*3 7.6 C 0 km/h
2335 09-12-2009 11:07:02 7.8 C 5.63 g/m*3 7.8 C 0 km/h
2336 09-12-2009 11:19:01 7.9 C 5.59 g/m*3 7.9 C 0 km/h
2337 09-12-2009 11:31:01 8 C 5.62 g/m*3 8 C 0 km/h
2338 09-12-2009 11:43:01 8 C 5.54 g/m*3 8 C 0 km/h
2339 09-12-2009 11:55:01 8.1 C 5.57 g/m*3 8.1 C 0 km/h
2340 09-12-2009 12:07:01 8.2 C 5.61 g/m*3 8.2 C 0 km/h
2341 09-12-2009 12:19:02 8.4 C 5.6 g/m*3 8.4 C 0 km/h
2342 09-12-2009 12:31:01 8.5 C 5.64 g/m*3 8.5 C 0 km/h
2343 09-12-2009 12:43:01 8.4 C 5.6 g/m*3 8.4 C 0 km/h
2344 09-12-2009 12:55:02 8.7 C 5.71 g/m*3 8.7 C 0 km/h
2345 09-12-2009 13:07:01 9 C 5.64 g/m*3 9 C 0 km/h
2346 09-12-2009 13:19:02 9.1 C 5.68 g/m*3 9.1 C 0 km/h
2347 09-12-2009 13:31:01 8.7 C 5.71 g/m*3 8.7 C 0 km/h
2348 09-12-2009 13:43:01 8.8 C 5.83 g/m*3 8.8 C 0 km/h
2349 09-12-2009 13:55:02 9.1 C 5.86 g/m*3 9.1 C 0 km/h
2350 09-12-2009 14:07:01 8.9 C 5.87 g/m*3 8.9 C 0 km/h
Sensor: Nr:Datum:Temp:Abs-Feuchte:Windchill:Wind:
Aussen-T/F 2351 09-12-2009 14:19:01 8.8 C 5.92 g/m*3 8.8 C 0 km/h
2352 09-12-2009 14:31:02 9 C 5.91 g/m*3 9 C 0 km/h
2353 09-12-2009 14:43:02 9.3 C 6.02 g/m*3 9.3 C 0 km/h
2354 09-12-2009 14:55:01 9.3 C 6.02 g/m*3 9.3 C 0 km/h
2355 09-12-2009 15:07:02 9.4 C 5.97 g/m*3 9.4 C 0 km/h
2356 09-12-2009 15:19:01 9.2 C 5.89 g/m*3 9.2 C 0 km/h
2357 09-12-2009 15:31:02 9.1 C 5.86 g/m*3 9.1 C 0 km/h
2358 09-12-2009 15:43:02 9.1 C 5.94 g/m*3 9.1 C 0 km/h
2359 09-12-2009 15:55:01 9 C 5.91 g/m*3 9 C 0 km/h
2360 09-12-2009 16:07:02 9 C 5.99 g/m*3 9 C 0 km/h
2361 09-12-2009 16:19:01 8.9 C 6.13 g/m*3 8.9 C 0 km/h
2362 09-12-2009 16:31:01 8.7 C 6.14 g/m*3 8.7 C 0 km/h
2363 09-12-2009 16:43:01 8.6 C 6.19 g/m*3 8.6 C 0 km/h
2364 09-12-2009 16:55:01 8.6 C 6.27 g/m*3 8.6 C 0 km/h
2365 09-12-2009 17:07:01 8.5 C 6.32 g/m*3 8.5 C 0 km/h
2366 09-12-2009 17:19:02 8.4 C 6.28 g/m*3 8.4 C 0 km/h
2367 09-12-2009 17:31:01 8.4 C 6.36 g/m*3 8.4 C 0 km/h
2368 09-12-2009 17:43:01 8.4 C 6.36 g/m*3 8.4 C 0 km/h
2369 09-12-2009 17:55:01 8.2 C 6.36 g/m*3 8.2 C 0 km/h
2370 09-12-2009 18:07:02 8.1 C 6.41 g/m*3 8.1 C 0 km/h
2371 09-12-2009 18:19:01 8.2 C 6.53 g/m*3 8.2 C 0 km/h
2372 09-12-2009 18:31:01 8.2 C 6.53 g/m*3 8.2 C 0 km/h
2373 09-12-2009 18:43:01 8.2 C 6.53 g/m*3 8.2 C 0 km/h
2374 09-12-2009 18:55:01 8.4 C 6.62 g/m*3 8.4 C 0 km/h
2375 09-12-2009 19:07:01 8.1 C 6.41 g/m*3 8.1 C 0 km/h
Sensor: Nr:Datum:Temp:Abs-Feuchte:Windchill:Wind:
Aussen-T/F 2376 09-12-2009 19:19:02 7.8 C 6.53 g/m*3 7.8 C 0 km/h
2377 09-12-2009 19:31:01 7.8 C 6.69 g/m*3 7.8 C 0 km/h
2378 09-12-2009 19:43:01 7.7 C 6.73 g/m*3 7.7 C 0 km/h
2379 09-12-2009 19:55:01 7.7 C 6.81 g/m*3 7.7 C 0 km/h
2380 09-12-2009 20:07:01 7.7 C 6.89 g/m*3 7.7 C 0 km/h
2381 09-12-2009 20:19:02 7.8 C 6.94 g/m*3 7.8 C 0 km/h
2382 09-12-2009 20:31:01 7.8 C 7.02 g/m*3 7.8 C 0 km/h
2383 09-12-2009 20:43:01 7.8 C 7.02 g/m*3 7.8 C 0 km/h
2384 09-12-2009 20:55:02 7.7 C 7.05 g/m*3 7.7 C 0 km/h
2385 09-12-2009 21:07:02 7.7 C 7.05 g/m*3 7.7 C 0 km/h
2386 09-12-2009 21:19:01 7.8 C 7.1 g/m*3 7.8 C 0 km/h
2387 09-12-2009 21:31:01 7.8 C 7.1 g/m*3 7.8 C 0 km/h
2388 09-12-2009 21:43:01 7.6 C 7.01 g/m*3 7.6 C 0 km/h
2389 09-12-2009 21:55:01 7.6 C 7.09 g/m*3 7.6 C 0 km/h
2390 09-12-2009 22:08:02 7.6 C 7.09 g/m*3 7.6 C 0 km/h
2391 09-12-2009 22:20:02 7.6 C 7.09 g/m*3 7.6 C 0 km/h
2392 09-12-2009 22:32:02 7.7 C 7.14 g/m*3 7.7 C 0 km/h
2393 09-12-2009 22:44:03 7.6 C 7.17 g/m*3 7.6 C 0 km/h
2394 09-12-2009 22:56:03 7.6 C 7.17 g/m*3 7.6 C 0 km/h
2395 09-12-2009 23:08:03 7.6 C 7.17 g/m*3 7.6 C 0 km/h
2396 09-12-2009 23:20:03 7.5 C 7.12 g/m*3 7.5 C 0 km/h
2397 09-12-2009 23:32:03 7.5 C 7.2 g/m*3 7.5 C 0 km/h
2398 09-12-2009 23:44:03 7.5 C 7.28 g/m*3 7.5 C 0 km/h
2399 09-12-2009 23:56:03 7.5 C 7.28 g/m*3 7.5 C 0 km/h
2400 10-12-2009 00:08:03 7.5 C 7.36 g/m*3 7.5 C 0 km/h
Sensor: Nr:Datum:Temp:Abs-Feuchte:Windchill:Wind:
Aussen-T/F 2401 10-12-2009 00:20:03 7.4 C 7.32 g/m*3 7.4 C 0 km/h
2402 10-12-2009 00:32:03 7.4 C 7.32 g/m*3 7.4 C 0 km/h
2403 10-12-2009 00:44:03 7.4 C 7.32 g/m*3 7.4 C 0 km/h
2404 10-12-2009 00:56:03 7.5 C 7.44 g/m*3 7.5 C 0 km/h
2405 10-12-2009 01:08:03 7.5 C 7.44 g/m*3 7.5 C 0 km/h
2406 10-12-2009 01:20:03 7.5 C 7.44 g/m*3 7.5 C 0 km/h
2407 10-12-2009 01:32:03 7.6 C 7.49 g/m*3 7.6 C 0 km/h
2408 10-12-2009 01:44:04 7.6 C 7.49 g/m*3 7.6 C 0 km/h
2409 10-12-2009 01:56:04 7.7 C 7.54 g/m*3 7.7 C 0 km/h
2410 10-12-2009 02:08:04 7.7 C 7.54 g/m*3 7.7 C 0 km/h
2411 10-12-2009 02:20:04 7.6 C 7.49 g/m*3 7.6 C 0 km/h
2412 10-12-2009 02:32:04 7.6 C 7.49 g/m*3 7.6 C 0 km/h
2413 10-12-2009 02:44:04 7.6 C 7.49 g/m*3 7.6 C 0 km/h
2414 10-12-2009 02:56:04 7.7 C 7.54 g/m*3 7.7 C 0 km/h
2415 10-12-2009 03:08:04 7.7 C 7.54 g/m*3 7.7 C 0 km/h
2416 10-12-2009 03:20:04 7.7 C 7.54 g/m*3 7.7 C 0 km/h
2417 10-12-2009 03:32:04 7.7 C 7.62 g/m*3 7.7 C 0 km/h
2418 10-12-2009 03:44:04 7.8 C 7.67 g/m*3 7.8 C 0 km/h
2419 10-12-2009 03:56:04 7.8 C 7.67 g/m*3 7.8 C 0 km/h
2420 10-12-2009 04:08:04 7.8 C 7.67 g/m*3 7.8 C 0 km/h
2421 10-12-2009 04:20:04 7.8 C 7.67 g/m*3 7.8 C 0 km/h
2422 10-12-2009 04:32:04 7.8 C 7.67 g/m*3 7.8 C 0 km/h
2423 10-12-2009 04:44:04 7.8 C 7.67 g/m*3 7.8 C 0 km/h
2424 10-12-2009 04:56:04 7.8 C 7.67 g/m*3 7.8 C 0 km/h
2425 10-12-2009 05:08:04 7.8 C 7.67 g/m*3 7.8 C 0 km/h
Sensor: Nr:Datum:Temp:Abs-Feuchte:Windchill:Wind:
Aussen-T/F 2426 10-12-2009 05:20:04 7.9 C 7.72 g/m*3 7.9 C 0 km/h
2427 10-12-2009 05:32:04 7.9 C 7.72 g/m*3 7.9 C 0 km/h
2428 10-12-2009 05:44:04 7.8 C 7.67 g/m*3 7.8 C 0 km/h
2429 10-12-2009 05:56:04 7.9 C 7.8 g/m*3 7.9 C 0 km/h
2430 10-12-2009 06:08:05 8 C 7.77 g/m*3 8 C 0 km/h
2431 10-12-2009 06:20:05 8.4 C 7.97 g/m*3 8.4 C 0 km/h
2432 10-12-2009 06:32:05 8.5 C 8.11 g/m*3 8.5 C 0 km/h
2433 10-12-2009 06:44:05 8.7 C 8.22 g/m*3 8.7 C 0 km/h
2434 10-12-2009 06:56:05 8.9 C 8.32 g/m*3 8.9 C 0 km/h
2435 10-12-2009 07:08:02 9 C 8.38 g/m*3 9 C 0 km/h
2436 10-12-2009 07:20:02 8.9 C 8.32 g/m*3 8.9 C 0 km/h
2437 10-12-2009 07:32:02 8.9 C 8.32 g/m*3 8.9 C 0 km/h
2438 10-12-2009 07:44:02 8.8 C 8.27 g/m*3 8.8 C 0 km/h
2439 10-12-2009 07:56:02 8.9 C 8.32 g/m*3 8.9 C 0 km/h
2440 10-12-2009 08:08:01 8.9 C 8.32 g/m*3 8.9 C 0 km/h
2441 10-12-2009 08:20:02 8.8 C 8.27 g/m*3 8.8 C 0 km/h
2442 10-12-2009 08:32:02 8.5 C 8.11 g/m*3 8.5 C 0 km/h
2443 10-12-2009 08:44:02 8.5 C 8.11 g/m*3 8.5 C 0 km/h
2444 10-12-2009 08:56:01 8.4 C 8.06 g/m*3 8.4 C 0 km/h
2445 10-12-2009 09:08:01 8.7 C 8.22 g/m*3 8.7 C 0 km/h
2446 10-12-2009 09:20:01 8.7 C 8.22 g/m*3 8.7 C 0 km/h
2447 10-12-2009 09:32:01 8.8 C 8.27 g/m*3 8.8 C 0 km/h
2448 10-12-2009 09:44:01 8.9 C 8.32 g/m*3 8.9 C 0 km/h
2449 10-12-2009 09:56:02 8.9 C 8.32 g/m*3 8.9 C 0 km/h
2450 10-12-2009 10:08:02 8.9 C 8.32 g/m*3 8.9 C 0 km/h
Sensor: Nr:Datum:Temp:Abs-Feuchte:Windchill:Wind:
Aussen-T/F 2451 10-12-2009 10:20:01 9 C 8.38 g/m*3 9 C 0 km/h
2452 10-12-2009 10:32:02 9 C 8.29 g/m*3 9 C 0 km/h
2453 10-12-2009 10:44:02 8.9 C 8.32 g/m*3 8.9 C 0 km/h
2454 10-12-2009 10:56:02 9.1 C 8.34 g/m*3 9.1 C 0 km/h
2455 10-12-2009 11:08:02 9.3 C 8.45 g/m*3 9.3 C 0 km/h
2456 10-12-2009 11:20:01 9.7 C 8.57 g/m*3 9.7 C 0 km/h
2457 10-12-2009 11:32:01 9.6 C 8.43 g/m*3 9.6 C 0 km/h
2458 10-12-2009 11:44:01 9.8 C 8.35 g/m*3 9.8 C 0 km/h
2459 10-12-2009 11:56:02 10 C 7.99 g/m*3 10 C 0 km/h
2460 10-12-2009 12:08:02 10 C 7.52 g/m*3 10 C 0 km/h
2461 10-12-2009 12:20:02 10 C 7.8 g/m*3 10 C 0 km/h
2462 10-12-2009 12:32:01 10 C 7.61 g/m*3 10 C 0 km/h
2463 10-12-2009 12:44:01 10.1 C 7.09 g/m*3 10.1 C 0 km/h
2464 10-12-2009 12:56:03 10.1 C 6.71 g/m*3 10.1 C 0 km/h
2465 10-12-2009 13:08:02 10.3 C 6.8 g/m*3 10.3 C 0 km/h
2466 10-12-2009 13:20:03 10.4 C 6.46 g/m*3 10.4 C 0 km/h
2467 10-12-2009 13:32:02 10.7 C 6.29 g/m*3 10.7 C 0 km/h
2468 10-12-2009 13:44:02 10.8 C 6.13 g/m*3 10.8 C 0 km/h
2469 10-12-2009 13:56:02 10.9 C 5.97 g/m*3 10.9 C 0 km/h
2470 10-12-2009 14:08:01 10.8 C 6.03 g/m*3 10.8 C 0 km/h
2471 10-12-2009 14:20:02 10.8 C 6.03 g/m*3 10.8 C 0 km/h
2472 10-12-2009 14:32:02 10.8 C 6.03 g/m*3 10.8 C 0 km/h
2473 10-12-2009 14:44:02 10.8 C 5.93 g/m*3 10.8 C 0 km/h
2474 10-12-2009 14:56:02 11 C 5.71 g/m*3 11 C 0 km/h
2475 10-12-2009 15:08:02 10.8 C 5.73 g/m*3 10.8 C 0 km/h
Sensor: Nr:Datum:Temp:Abs-Feuchte:Windchill:Wind:
Aussen-T/F 2476 10-12-2009 15:20:02 10.8 C 5.63 g/m*3 10.8 C 0 km/h
2477 10-12-2009 15:32:02 10.5 C 5.53 g/m*3 10.5 C 0 km/h
2478 10-12-2009 15:44:02 10.4 C 5.3 g/m*3 10.4 C 0 km/h
2479 10-12-2009 15:56:02 10.4 C 5.11 g/m*3 10.4 C 0 km/h
2480 10-12-2009 16:08:02 10.2 C 5.14 g/m*3 10.2 C 0 km/h
2481 10-12-2009 16:20:01 10.1 C 5.01 g/m*3 10.1 C 0 km/h
2482 10-12-2009 16:32:02 9.9 C 5.04 g/m*3 9.9 C 0 km/h
2483 10-12-2009 16:44:02 9.8 C 5.1 g/m*3 9.8 C 0 km/h
2484 10-12-2009 16:56:02 9.8 C 5.2 g/m*3 9.8 C 0 km/h
2485 10-12-2009 17:08:02 9.7 C 5.35 g/m*3 9.7 C 0 km/h
2486 10-12-2009 17:20:02 9.5 C 5.37 g/m*3 9.5 C 0 km/h
2487 10-12-2009 17:32:02 9.3 C 5.39 g/m*3 9.3 C 0 km/h
2488 10-12-2009 17:44:03 9.1 C 5.5 g/m*3 9.1 C 0 km/h
2489 10-12-2009 17:56:01 9 C 5.29 g/m*3 9 C 0 km/h
2490 10-12-2009 18:08:02 8.7 C 5.28 g/m*3 8.7 C 0 km/h
2491 10-12-2009 18:20:01 8.5 C 5.29 g/m*3 8.5 C 0 km/h
2492 10-12-2009 18:32:02 8.7 C 5.45 g/m*3 8.7 C 0 km/h
2493 10-12-2009 18:44:02 8.7 C 5.53 g/m*3 8.7 C 0 km/h
2494 10-12-2009 18:56:01 8.7 C 5.53 g/m*3 8.7 C 0 km/h
2495 10-12-2009 19:08:02 8.7 C 5.71 g/m*3 8.7 C 0 km/h
2496 10-12-2009 19:20:02 8.2 C 5.95 g/m*3 8.2 C 0 km/h
2497 10-12-2009 19:32:02 8.2 C 6.11 g/m*3 8.2 C 0 km/h
2498 10-12-2009 19:44:02 8.1 C 6.16 g/m*3 8.1 C 0 km/h
2499 10-12-2009 19:56:02 8.3 C 6.15 g/m*3 8.3 C 0 km/h
2500 10-12-2009 20:08:03 8.3 C 6.15 g/m*3 8.3 C 0 km/h
Sensor: Nr:Datum:Temp:Abs-Feuchte:Windchill:Wind:
Aussen-T/F 2501 10-12-2009 20:20:04 8.6 C 6.1 g/m*3 8.6 C 0 km/h
2502 10-12-2009 20:32:02 8.6 C 6.02 g/m*3 8.6 C 0 km/h
2503 10-12-2009 20:44:02 8.5 C 5.98 g/m*3 8.5 C 0 km/h
2504 10-12-2009 20:56:02 8.6 C 5.93 g/m*3 8.6 C 0 km/h
2505 10-12-2009 21:08:02 8.5 C 6.06 g/m*3 8.5 C 0 km/h
2506 10-12-2009 21:20:02 7.9 C 6.24 g/m*3 7.9 C 0 km/h
2507 10-12-2009 21:32:02 7.9 C 6.32 g/m*3 7.9 C 0 km/h
2508 10-12-2009 21:44:02 7.9 C 6.32 g/m*3 7.9 C 0 km/h
2509 10-12-2009 21:56:02 8.2 C 6.2 g/m*3 8.2 C 0 km/h
2510 10-12-2009 22:08:01 8.5 C 6.06 g/m*3 8.5 C 0 km/h
2511 10-12-2009 22:21:03 8.5 C 6.06 g/m*3 8.5 C 0 km/h
2512 10-12-2009 22:33:03 8.4 C 6.11 g/m*3 8.4 C 0 km/h
2513 10-12-2009 22:45:03 8.3 C 6.24 g/m*3 8.3 C 0 km/h
2514 10-12-2009 22:57:03 8.3 C 6.32 g/m*3 8.3 C 0 km/h
2515 10-12-2009 23:09:03 8.3 C 6.32 g/m*3 8.3 C 0 km/h
2516 10-12-2009 23:21:03 8.1 C 6.41 g/m*3 8.1 C 0 km/h
2517 10-12-2009 23:33:03 8 C 6.45 g/m*3 8 C 0 km/h
2518 10-12-2009 23:45:03 7.9 C 6.74 g/m*3 7.9 C 0 km/h
2519 10-12-2009 23:57:03 7.7 C 6.81 g/m*3 7.7 C 0 km/h
2520 11-12-2009 00:09:03 7.6 C 6.93 g/m*3 7.6 C 0 km/h
2521 11-12-2009 00:21:03 7.5 C 7.04 g/m*3 7.5 C 0 km/h
2522 11-12-2009 00:33:03 7.6 C 7.09 g/m*3 7.6 C 0 km/h
2523 11-12-2009 00:45:03 7.7 C 7.14 g/m*3 7.7 C 0 km/h
2524 11-12-2009 00:57:03 7.8 C 7.1 g/m*3 7.8 C 0 km/h
2525 11-12-2009 01:09:03 7.8 C 7.1 g/m*3 7.8 C 0 km/h
Sensor: Nr:Datum:Temp:Abs-Feuchte:Windchill:Wind:
Aussen-T/F 2526 11-12-2009 01:21:03 7.8 C 7.1 g/m*3 7.8 C 0 km/h
2527 11-12-2009 01:33:03 7.8 C 7.1 g/m*3 7.8 C 0 km/h
2528 11-12-2009 01:45:03 7.9 C 7.06 g/m*3 7.9 C 0 km/h
2529 11-12-2009 01:57:03 7.9 C 6.98 g/m*3 7.9 C 0 km/h
2530 11-12-2009 02:09:04 8 C 6.86 g/m*3 8 C 0 km/h
2531 11-12-2009 02:21:04 7.9 C 6.9 g/m*3 7.9 C 0 km/h
2532 11-12-2009 02:33:04 7.8 C 6.94 g/m*3 7.8 C 0 km/h
2533 11-12-2009 02:45:04 7.9 C 6.98 g/m*3 7.9 C 0 km/h
2534 11-12-2009 02:57:04 8 C 6.94 g/m*3 8 C 0 km/h
2535 11-12-2009 03:09:04 8 C 6.94 g/m*3 8 C 0 km/h
2536 11-12-2009 03:21:04 8 C 6.86 g/m*3 8 C 0 km/h
2537 11-12-2009 03:33:04 7.9 C 6.98 g/m*3 7.9 C 0 km/h
2538 11-12-2009 03:45:04 7.9 C 7.06 g/m*3 7.9 C 0 km/h
2539 11-12-2009 03:57:04 7.9 C 7.06 g/m*3 7.9 C 0 km/h
2540 11-12-2009 04:09:04 8.1 C 6.91 g/m*3 8.1 C 0 km/h
2541 11-12-2009 04:21:04 8.2 C 6.95 g/m*3 8.2 C 0 km/h
2542 11-12-2009 04:33:04 8.1 C 6.91 g/m*3 8.1 C 0 km/h
2543 11-12-2009 04:45:04 8.1 C 6.91 g/m*3 8.1 C 0 km/h
2544 11-12-2009 04:57:04 8 C 6.86 g/m*3 8 C 0 km/h
2545 11-12-2009 05:09:04 7.9 C 6.98 g/m*3 7.9 C 0 km/h
2546 11-12-2009 05:21:04 7.8 C 7.02 g/m*3 7.8 C 0 km/h
2547 11-12-2009 05:33:04 7.8 C 7.02 g/m*3 7.8 C 0 km/h
2548 11-12-2009 05:45:04 7.9 C 7.06 g/m*3 7.9 C 0 km/h
2549 11-12-2009 05:57:04 7.9 C 6.9 g/m*3 7.9 C 0 km/h
2550 11-12-2009 06:09:04 8 C 6.7 g/m*3 8 C 0 km/h
Sensor: Nr:Datum:Temp:Abs-Feuchte:Windchill:Wind:
Aussen-T/F 2551 11-12-2009 06:21:04 7.8 C 6.77 g/m*3 7.8 C 0 km/h
2552 11-12-2009 06:33:05 7.6 C 6.93 g/m*3 7.6 C 0 km/h
2553 11-12-2009 06:45:05 7.4 C 7 g/m*3 7.4 C 0 km/h
2554 11-12-2009 06:57:05 7.3 C 6.95 g/m*3 7.3 C 0 km/h
2555 11-12-2009 07:09:02 7 C 6.82 g/m*3 7 C 0 km/h
2556 11-12-2009 07:21:03 7.3 C 7.03 g/m*3 7.3 C 0 km/h
2557 11-12-2009 07:33:03 7.4 C 7.08 g/m*3 7.4 C 0 km/h
2558 11-12-2009 07:45:02 7.4 C 7 g/m*3 7.4 C 0 km/h
2559 11-12-2009 07:57:02 7.6 C 7.01 g/m*3 7.6 C 0 km/h
2560 11-12-2009 08:09:02 7.6 C 6.77 g/m*3 7.6 C 0 km/h
2561 11-12-2009 08:21:02 7.7 C 6.57 g/m*3 7.7 C 0 km/h
2562 11-12-2009 08:33:03 7.7 C 6.49 g/m*3 7.7 C 0 km/h
2563 11-12-2009 08:45:02 7.7 C 6.57 g/m*3 7.7 C 0 km/h
2564 11-12-2009 08:57:02 7.8 C 6.61 g/m*3 7.8 C 0 km/h
2565 11-12-2009 09:09:02 7.7 C 6.49 g/m*3 7.7 C 0 km/h
2566 11-12-2009 09:21:01 7.7 C 6.41 g/m*3 7.7 C 0 km/h
2567 11-12-2009 09:33:02 7.6 C 6.2 g/m*3 7.6 C 0 km/h
2568 11-12-2009 09:45:02 7.6 C 6.04 g/m*3 7.6 C 0 km/h
2569 11-12-2009 09:57:02 7.6 C 5.96 g/m*3 7.6 C 0 km/h
2570 11-12-2009 10:09:02 7.4 C 5.73 g/m*3 7.4 C 0 km/h
2571 11-12-2009 10:21:02 7.4 C 5.57 g/m*3 7.4 C 0 km/h
2572 11-12-2009 10:33:02 7.3 C 5.45 g/m*3 7.3 C 0 km/h
2573 11-12-2009 10:45:02 7.3 C 5.45 g/m*3 7.3 C 0 km/h
2574 11-12-2009 10:57:02 7.5 C 5.44 g/m*3 7.5 C 0 km/h
2575 11-12-2009 11:09:02 7.6 C 5.4 g/m*3 7.6 C 0 km/h
Sensor: Nr:Datum:Temp:Abs-Feuchte:Windchill:Wind:
Aussen-T/F 2576 11-12-2009 11:21:02 7.5 C 5.44 g/m*3 7.5 C 0 km/h
2577 11-12-2009 11:33:02 7.5 C 5.36 g/m*3 7.5 C 0 km/h
2578 11-12-2009 11:45:02 7.9 C 5.42 g/m*3 7.9 C 0 km/h
2579 11-12-2009 11:57:02 8.2 C 5.36 g/m*3 8.2 C 0 km/h
2580 11-12-2009 12:09:02 8.3 C 5.31 g/m*3 8.3 C 0 km/h
2581 11-12-2009 12:21:03 8 C 5.29 g/m*3 8 C 0 km/h
2582 11-12-2009 12:33:02 7.8 C 5.3 g/m*3 7.8 C 0 km/h
2583 11-12-2009 12:45:03 7.7 C 5.27 g/m*3 7.7 C 0 km/h
2584 11-12-2009 12:57:03 7.7 C 5.27 g/m*3 7.7 C 0 km/h
2585 11-12-2009 13:09:02 7.9 C 5.34 g/m*3 7.9 C 0 km/h
2586 11-12-2009 13:21:02 7.9 C 5.42 g/m*3 7.9 C 0 km/h
2587 11-12-2009 13:33:02 7.8 C 5.3 g/m*3 7.8 C 0 km/h
2588 11-12-2009 13:45:02 7.7 C 5.27 g/m*3 7.7 C 0 km/h
2589 11-12-2009 13:57:02 7.7 C 5.35 g/m*3 7.7 C 0 km/h
2590 11-12-2009 14:09:02 7.6 C 5.32 g/m*3 7.6 C 0 km/h
2591 11-12-2009 14:21:02 7.4 C 5.17 g/m*3 7.4 C 0 km/h
2592 11-12-2009 14:33:02 7.3 C 5.14 g/m*3 7.3 C 0 km/h
2593 11-12-2009 14:45:02 7.3 C 5.14 g/m*3 7.3 C 0 km/h
2594 11-12-2009 14:57:03 7.3 C 5.21 g/m*3 7.3 C 0 km/h
2595 11-12-2009 15:09:01 7.1 C 5.15 g/m*3 7.1 C 0 km/h
2596 11-12-2009 15:21:01 7.1 C 5.15 g/m*3 7.1 C 0 km/h
2597 11-12-2009 15:33:02 7 C 5.19 g/m*3 7 C 0 km/h
2598 11-12-2009 15:45:02 7 C 5.27 g/m*3 7 C 0 km/h
2599 11-12-2009 15:57:02 6.8 C 5.51 g/m*3 6.8 C 0 km/h
2600 11-12-2009 16:09:02 6.5 C 5.55 g/m*3 6.5 C 0 km/h
Sensor: Nr:Datum:Temp:Abs-Feuchte:Windchill:Wind:
Aussen-T/F 2601 11-12-2009 16:21:02 6.3 C 5.63 g/m*3 6.3 C 0 km/h
2602 11-12-2009 16:33:02 6.4 C 5.74 g/m*3 6.4 C 0 km/h
2603 11-12-2009 16:45:02 6.3 C 5.7 g/m*3 6.3 C 0 km/h
2604 11-12-2009 16:57:02 6.3 C 5.7 g/m*3 6.3 C 0 km/h
2605 11-12-2009 17:09:02 6.3 C 5.63 g/m*3 6.3 C 0 km/h
2606 11-12-2009 17:21:02 6.2 C 5.66 g/m*3 6.2 C 0 km/h
2607 11-12-2009 17:33:02 6 C 5.81 g/m*3 6 C 0 km/h
2608 11-12-2009 17:45:02 5.8 C 6.02 g/m*3 5.8 C 0 km/h
2609 11-12-2009 17:57:02 5.8 C 6.16 g/m*3 5.8 C 0 km/h
2610 11-12-2009 18:09:02 5.8 C 6.23 g/m*3 5.8 C 0 km/h
2611 11-12-2009 18:21:02 5.9 C 6.35 g/m*3 5.9 C 0 km/h
2612 11-12-2009 18:33:02 5.7 C 6.33 g/m*3 5.7 C 0 km/h
2613 11-12-2009 18:45:02 5.6 C 6.36 g/m*3 5.6 C 0 km/h
2614 11-12-2009 18:57:02 5.4 C 6.28 g/m*3 5.4 C 0 km/h
2615 11-12-2009 19:09:01 5.4 C 6.35 g/m*3 5.4 C 0 km/h
2616 11-12-2009 19:21:02 5.4 C 6.35 g/m*3 5.4 C 0 km/h
2617 11-12-2009 19:33:02 5.3 C 6.38 g/m*3 5.3 C 0 km/h
2618 11-12-2009 19:45:02 5.1 C 6.29 g/m*3 5.1 C 0 km/h
2619 11-12-2009 19:57:02 4.6 C 6.09 g/m*3 4.6 C 0 km/h
2620 11-12-2009 20:09:02 4.3 C 5.9 g/m*3 4.3 C 0 km/h
2621 11-12-2009 20:21:02 4 C 5.79 g/m*3 4 C 0 km/h
2622 11-12-2009 20:33:02 3.9 C 5.75 g/m*3 3.9 C 0 km/h
2623 11-12-2009 20:45:01 3.7 C 5.73 g/m*3 3.7 C 0 km/h
2624 11-12-2009 20:57:01 3.5 C 5.6 g/m*3 3.5 C 0 km/h
2625 11-12-2009 21:09:01 3.4 C 5.56 g/m*3 3.4 C 0 km/h
Sensor: Nr:Datum:Temp:Abs-Feuchte:Windchill:Wind:
Aussen-T/F 2626 11-12-2009 21:21:02 3.2 C 5.54 g/m*3 3.2 C 0 km/h
2627 11-12-2009 21:33:01 3.3 C 5.58 g/m*3 3.3 C 0 km/h
2628 11-12-2009 21:45:02 3.4 C 5.68 g/m*3 3.4 C 0 km/h
2629 11-12-2009 21:57:02 3.4 C 5.68 g/m*3 3.4 C 0 km/h
2630 11-12-2009 22:09:02 3.4 C 5.68 g/m*3 3.4 C 0 km/h
2631 11-12-2009 22:21:02 3.4 C 5.68 g/m*3 3.4 C 0 km/h
2632 11-12-2009 22:33:02 3.3 C 5.64 g/m*3 3.3 C 0 km/h
2633 11-12-2009 22:45:02 3.4 C 5.68 g/m*3 3.4 C 0 km/h
2634 11-12-2009 22:57:02 3.4 C 5.68 g/m*3 3.4 C 0 km/h
2635 11-12-2009 23:09:01 3.4 C 5.68 g/m*3 3.4 C 0 km/h
2636 11-12-2009 23:21:02 3.4 C 5.68 g/m*3 3.4 C 0 km/h
2637 11-12-2009 23:33:02 3.4 C 5.68 g/m*3 3.4 C 0 km/h
2638 11-12-2009 23:45:02 3.2 C 5.6 g/m*3 3.2 C 0 km/h
2639 11-12-2009 23:57:02 3.3 C 5.64 g/m*3 3.3 C 0 km/h
2640 12-12-2009 00:09:03 3.4 C 5.68 g/m*3 3.4 C 0 km/h
2641 12-12-2009 00:21:02 3.4 C 5.68 g/m*3 3.4 C 0 km/h
2642 12-12-2009 00:33:02 3.1 C 5.57 g/m*3 3.1 C 0 km/h
2643 12-12-2009 00:45:01 3.1 C 5.63 g/m*3 3.1 C 0 km/h
2644 12-12-2009 00:57:01 3.3 C 5.7 g/m*3 3.3 C 0 km/h
2645 12-12-2009 01:09:02 3.4 C 5.74 g/m*3 3.4 C 0 km/h
2646 12-12-2009 01:21:01 3.2 C 5.66 g/m*3 3.2 C 0 km/h
2647 12-12-2009 01:33:01 3.2 C 5.66 g/m*3 3.2 C 0 km/h
2648 12-12-2009 01:45:01 3.1 C 5.63 g/m*3 3.1 C 0 km/h
2649 12-12-2009 01:57:01 3.3 C 5.7 g/m*3 3.3 C 0 km/h
2650 12-12-2009 02:09:02 3.3 C 5.7 g/m*3 3.3 C 0 km/h
Sensor: Nr:Datum:Temp:Abs-Feuchte:Windchill:Wind:
Aussen-T/F 2651 12-12-2009 02:21:02 3.2 C 5.66 g/m*3 3.2 C 0 km/h
2652 12-12-2009 02:33:01 3.1 C 5.63 g/m*3 3.1 C 0 km/h
2653 12-12-2009 02:46:03 3.2 C 5.72 g/m*3 3.2 C 0 km/h
2654 12-12-2009 02:58:03 3.4 C 5.8 g/m*3 3.4 C 0 km/h
2655 12-12-2009 03:10:03 3.4 C 5.8 g/m*3 3.4 C 0 km/h
2656 12-12-2009 03:22:03 3.3 C 5.7 g/m*3 3.3 C 0 km/h
2657 12-12-2009 03:34:02 3.4 C 5.74 g/m*3 3.4 C 0 km/h
2658 12-12-2009 03:46:02 3.2 C 5.6 g/m*3 3.2 C 0 km/h
2659 12-12-2009 03:58:02 3.1 C 5.57 g/m*3 3.1 C 0 km/h
2660 12-12-2009 04:10:02 3.1 C 5.51 g/m*3 3.1 C 0 km/h
2661 12-12-2009 04:22:02 3.1 C 5.51 g/m*3 3.1 C 0 km/h
2662 12-12-2009 04:34:02 2.9 C 5.49 g/m*3 2.9 C 0 km/h
2663 12-12-2009 04:46:02 2.9 C 5.49 g/m*3 2.9 C 0 km/h
2664 12-12-2009 04:58:02 2.9 C 5.49 g/m*3 2.9 C 0 km/h
2665 12-12-2009 05:10:02 3 C 5.47 g/m*3 3 C 0 km/h
2666 12-12-2009 05:22:02 2.9 C 5.49 g/m*3 2.9 C 0 km/h
2667 12-12-2009 05:34:02 2.9 C 5.49 g/m*3 2.9 C 0 km/h
2668 12-12-2009 05:46:02 3 C 5.47 g/m*3 3 C 0 km/h
2669 12-12-2009 05:58:02 2.9 C 5.49 g/m*3 2.9 C 0 km/h
2670 12-12-2009 06:10:02 2.9 C 5.49 g/m*3 2.9 C 0 km/h
2671 12-12-2009 06:22:02 3 C 5.47 g/m*3 3 C 0 km/h
2672 12-12-2009 06:34:02 3 C 5.47 g/m*3 3 C 0 km/h
2673 12-12-2009 06:46:02 3.1 C 5.51 g/m*3 3.1 C 0 km/h
2674 12-12-2009 06:58:02 3.1 C 5.51 g/m*3 3.1 C 0 km/h
2675 12-12-2009 07:10:01 3.1 C 5.51 g/m*3 3.1 C 0 km/h
Sensor: Nr:Datum:Temp:Abs-Feuchte:Windchill:Wind:
Aussen-T/F 2676 12-12-2009 07:22:02 3.1 C 5.51 g/m*3 3.1 C 0 km/h
2677 12-12-2009 07:34:01 3.1 C 5.51 g/m*3 3.1 C 0 km/h
2678 12-12-2009 07:46:02 3.1 C 5.51 g/m*3 3.1 C 0 km/h
2679 12-12-2009 07:58:02 3.1 C 5.51 g/m*3 3.1 C 0 km/h
2680 12-12-2009 08:10:02 3.1 C 5.51 g/m*3 3.1 C 0 km/h
2681 12-12-2009 08:22:02 3.1 C 5.51 g/m*3 3.1 C 0 km/h
2682 12-12-2009 08:34:02 3.4 C 5.62 g/m*3 3.4 C 0 km/h
2683 12-12-2009 08:46:02 3.1 C 5.51 g/m*3 3.1 C 0 km/h
2684 12-12-2009 08:58:02 3.1 C 5.51 g/m*3 3.1 C 0 km/h
2685 12-12-2009 09:10:02 3.2 C 5.54 g/m*3 3.2 C 0 km/h
2686 12-12-2009 09:22:01 3.2 C 5.54 g/m*3 3.2 C 0 km/h
2687 12-12-2009 09:34:02 3.3 C 5.58 g/m*3 3.3 C 0 km/h
2688 12-12-2009 09:46:02 3.4 C 5.62 g/m*3 3.4 C 0 km/h
2689 12-12-2009 09:58:02 3.4 C 5.62 g/m*3 3.4 C 0 km/h
2690 12-12-2009 10:10:02 3.4 C 5.56 g/m*3 3.4 C 0 km/h
2691 12-12-2009 10:22:01 3.5 C 5.6 g/m*3 3.5 C 0 km/h
2692 12-12-2009 10:34:02 3.4 C 5.56 g/m*3 3.4 C 0 km/h
2693 12-12-2009 10:46:02 3.3 C 5.52 g/m*3 3.3 C 0 km/h
2694 12-12-2009 10:58:02 3.4 C 5.56 g/m*3 3.4 C 0 km/h
2695 12-12-2009 11:10:02 3.6 C 5.63 g/m*3 3.6 C 0 km/h
2696 12-12-2009 11:22:02 3.6 C 5.63 g/m*3 3.6 C 0 km/h
2697 12-12-2009 11:34:02 3.6 C 5.63 g/m*3 3.6 C 0 km/h
2698 12-12-2009 11:46:02 3.7 C 5.61 g/m*3 3.7 C 0 km/h
2699 12-12-2009 11:58:02 3.8 C 5.65 g/m*3 3.8 C 0 km/h
2700 12-12-2009 12:10:02 3.8 C 5.58 g/m*3 3.8 C 0 km/h
Sensor: Nr:Datum:Temp:Abs-Feuchte:Windchill:Wind:
Aussen-T/F 2701 12-12-2009 12:22:01 3.8 C 5.58 g/m*3 3.8 C 0 km/h
2702 12-12-2009 12:34:02 3.8 C 5.58 g/m*3 3.8 C 0 km/h
2703 12-12-2009 12:46:01 3.8 C 5.52 g/m*3 3.8 C 0 km/h
2704 12-12-2009 12:58:01 4 C 5.53 g/m*3 4 C 0 km/h
2705 12-12-2009 13:10:02 4.2 C 5.54 g/m*3 4.2 C 0 km/h
2706 12-12-2009 13:22:02 4.2 C 5.54 g/m*3 4.2 C 0 km/h
2707 12-12-2009 13:34:01 4.4 C 5.55 g/m*3 4.4 C 0 km/h
2708 12-12-2009 13:46:02 4.5 C 5.52 g/m*3 4.5 C 0 km/h
2709 12-12-2009 13:58:02 4.5 C 5.46 g/m*3 4.5 C 0 km/h
2710 12-12-2009 14:10:01 4.5 C 5.39 g/m*3 4.5 C 0 km/h
2711 12-12-2009 14:22:02 4.6 C 5.43 g/m*3 4.6 C 0 km/h
2712 12-12-2009 14:34:01 4.7 C 5.46 g/m*3 4.7 C 0 km/h
2713 12-12-2009 14:46:03 4.6 C 5.43 g/m*3 4.6 C 0 km/h
2714 12-12-2009 14:58:03 4.5 C 5.39 g/m*3 4.5 C 0 km/h
2715 12-12-2009 15:10:02 4.4 C 5.29 g/m*3 4.4 C 0 km/h
2716 12-12-2009 15:22:02 4.4 C 5.22 g/m*3 4.4 C 0 km/h
2717 12-12-2009 15:34:02 4.4 C 5.22 g/m*3 4.4 C 0 km/h
2718 12-12-2009 15:46:02 4.4 C 5.03 g/m*3 4.4 C 0 km/h
2719 12-12-2009 15:58:02 4.4 C 4.9 g/m*3 4.4 C 0 km/h
2720 12-12-2009 16:10:01 4.4 C 4.83 g/m*3 4.4 C 0 km/h
2721 12-12-2009 16:22:02 4.3 C 4.74 g/m*3 4.3 C 0 km/h
2722 12-12-2009 16:34:02 4.2 C 4.77 g/m*3 4.2 C 0 km/h
2723 12-12-2009 16:46:02 4.2 C 4.9 g/m*3 4.2 C 0 km/h
2724 12-12-2009 16:58:03 4.1 C 4.86 g/m*3 4.1 C 0 km/h
2725 12-12-2009 17:10:01 4.1 C 4.8 g/m*3 4.1 C 0 km/h
Sensor: Nr:Datum:Temp:Abs-Feuchte:Windchill:Wind:
Aussen-T/F 2726 12-12-2009 17:22:01 4.1 C 4.74 g/m*3 4.1 C 0 km/h
2727 12-12-2009 17:34:02 4 C 4.77 g/m*3 4 C 0 km/h
2728 12-12-2009 17:46:02 4 C 4.77 g/m*3 4 C 0 km/h
2729 12-12-2009 17:58:02 4 C 4.77 g/m*3 4 C 0 km/h
2730 12-12-2009 18:10:01 3.9 C 4.86 g/m*3 3.9 C 0 km/h
2731 12-12-2009 18:22:02 3.9 C 4.86 g/m*3 3.9 C 0 km/h
2732 12-12-2009 18:34:02 3.8 C 4.83 g/m*3 3.8 C 0 km/h
2733 12-12-2009 18:46:01 3.9 C 4.8 g/m*3 3.9 C 0 km/h
2734 12-12-2009 18:58:01 3.9 C 4.86 g/m*3 3.9 C 0 km/h
2735 12-12-2009 19:10:02 3.8 C 4.83 g/m*3 3.8 C 0 km/h
2736 12-12-2009 19:22:01 3.8 C 4.77 g/m*3 3.8 C 0 km/h
2737 12-12-2009 19:34:02 3.5 C 4.67 g/m*3 3.5 C 0 km/h
2738 12-12-2009 19:46:02 3.1 C 4.61 g/m*3 3.1 C 0 km/h
2739 12-12-2009 19:58:02 2.8 C 4.69 g/m*3 2.8 C 0 km/h
2740 12-12-2009 20:10:02 2.7 C 4.72 g/m*3 2.7 C 0 km/h
2741 12-12-2009 20:22:01 2.8 C 4.81 g/m*3 2.8 C 0 km/h
2742 12-12-2009 20:34:02 3 C 4.82 g/m*3 3 C 0 km/h
2743 12-12-2009 20:46:02 3 C 4.82 g/m*3 3 C 0 km/h
2744 12-12-2009 20:58:02 3.2 C 4.76 g/m*3 3.2 C 0 km/h
2745 12-12-2009 21:10:02 3.1 C 4.73 g/m*3 3.1 C 0 km/h
2746 12-12-2009 21:22:02 3.2 C 4.82 g/m*3 3.2 C 0 km/h
2747 12-12-2009 21:34:01 3.1 C 4.79 g/m*3 3.1 C 0 km/h
2748 12-12-2009 21:46:02 3 C 4.76 g/m*3 3 C 0 km/h
2749 12-12-2009 21:58:02 3.1 C 4.85 g/m*3 3.1 C 0 km/h
2750 12-12-2009 22:10:01 3.1 C 4.85 g/m*3 3.1 C 0 km/h
Sensor: Nr:Datum:Temp:Abs-Feuchte:Windchill:Wind:
Aussen-T/F 2751 12-12-2009 22:22:02 3 C 4.82 g/m*3 3 C 0 km/h
2752 12-12-2009 22:34:01 3 C 4.82 g/m*3 3 C 0 km/h
2753 12-12-2009 22:46:02 3 C 4.82 g/m*3 3 C 0 km/h
2754 12-12-2009 22:58:02 3 C 4.82 g/m*3 3 C 0 km/h
2755 12-12-2009 23:10:02 3 C 4.76 g/m*3 3 C 0 km/h
2756 12-12-2009 23:22:02 3.1 C 4.73 g/m*3 3.1 C 0 km/h
2757 12-12-2009 23:34:03 3.1 C 4.67 g/m*3 3.1 C 0 km/h
2758 12-12-2009 23:46:02 3.2 C 4.7 g/m*3 3.2 C 0 km/h
2759 12-12-2009 23:58:02 3.1 C 4.67 g/m*3 3.1 C 0 km/h
2760 13-12-2009 00:10:01 3.1 C 4.61 g/m*3 3.1 C 0 km/h
2761 13-12-2009 00:22:01 3.1 C 4.61 g/m*3 3.1 C 0 km/h
2762 13-12-2009 00:34:02 3.1 C 4.61 g/m*3 3.1 C 0 km/h
2763 13-12-2009 00:46:01 3.1 C 4.67 g/m*3 3.1 C 0 km/h
2764 13-12-2009 00:58:01 3.1 C 4.67 g/m*3 3.1 C 0 km/h
2765 13-12-2009 01:10:02 3.1 C 4.67 g/m*3 3.1 C 0 km/h
2766 13-12-2009 01:22:02 3 C 4.58 g/m*3 3 C 0 km/h
2767 13-12-2009 01:34:02 2.9 C 4.61 g/m*3 2.9 C 0 km/h
2768 13-12-2009 01:46:02 2.8 C 4.63 g/m*3 2.8 C 0 km/h
2769 13-12-2009 01:58:02 2.6 C 4.63 g/m*3 2.6 C 0 km/h
2770 13-12-2009 02:10:02 2.6 C 4.69 g/m*3 2.6 C 0 km/h
2771 13-12-2009 02:22:02 2.4 C 4.68 g/m*3 2.4 C 0 km/h
2772 13-12-2009 02:34:01 2.4 C 4.74 g/m*3 2.4 C 0 km/h
2773 13-12-2009 02:47:04 2.2 C 4.79 g/m*3 2.2 C 0 km/h
2774 13-12-2009 02:59:04 2.2 C 4.79 g/m*3 2.2 C 0 km/h
2775 13-12-2009 03:11:03 2.1 C 4.81 g/m*3 2.1 C 0 km/h
Sensor: Nr:Datum:Temp:Abs-Feuchte:Windchill:Wind:
Aussen-T/F 2776 13-12-2009 03:23:03 2.1 C 4.87 g/m*3 2.1 C 0 km/h
2777 13-12-2009 03:35:01 2.2 C 4.9 g/m*3 2.2 C 0 km/h
2778 13-12-2009 03:47:01 2.3 C 4.99 g/m*3 2.3 C 0 km/h
2779 13-12-2009 03:59:01 2.2 C 4.96 g/m*3 2.2 C 0 km/h
2780 13-12-2009 04:11:02 2.2 C 4.96 g/m*3 2.2 C 0 km/h
2781 13-12-2009 04:23:01 2.2 C 4.96 g/m*3 2.2 C 0 km/h
2782 13-12-2009 04:35:01 2.2 C 4.96 g/m*3 2.2 C 0 km/h
2783 13-12-2009 04:47:01 2.2 C 4.9 g/m*3 2.2 C 0 km/h
2784 13-12-2009 04:59:01 2.2 C 4.9 g/m*3 2.2 C 0 km/h
2785 13-12-2009 05:11:01 2.2 C 4.9 g/m*3 2.2 C 0 km/h
2786 13-12-2009 05:23:02 2.2 C 4.84 g/m*3 2.2 C 0 km/h
2787 13-12-2009 05:35:01 2.2 C 4.84 g/m*3 2.2 C 0 km/h
2788 13-12-2009 05:47:03 2.2 C 4.84 g/m*3 2.2 C 0 km/h
2789 13-12-2009 05:59:03 2.2 C 4.84 g/m*3 2.2 C 0 km/h
2790 13-12-2009 06:11:02 2.2 C 4.79 g/m*3 2.2 C 0 km/h
2791 13-12-2009 06:23:02 2.2 C 4.79 g/m*3 2.2 C 0 km/h
2792 13-12-2009 06:35:02 2.2 C 4.79 g/m*3 2.2 C 0 km/h
2793 13-12-2009 06:47:02 2 C 4.56 g/m*3 2 C 0 km/h
2794 13-12-2009 06:59:02 2.1 C 4.25 g/m*3 2.1 C 0 km/h
2795 13-12-2009 07:11:01 2 C 4.06 g/m*3 2 C 0 km/h
2796 13-12-2009 07:23:02 1.7 C 4.03 g/m*3 1.7 C 0 km/h
2797 13-12-2009 07:35:02 1.7 C 4.08 g/m*3 1.7 C 0 km/h
2798 13-12-2009 07:47:02 1.7 C 4.03 g/m*3 1.7 C 0 km/h
2799 13-12-2009 07:59:02 1.7 C 3.97 g/m*3 1.7 C 0 km/h
2800 13-12-2009 08:11:03 1.7 C 4.03 g/m*3 1.7 C 0 km/h
Sensor: Nr:Datum:Temp:Abs-Feuchte:Windchill:Wind:
Aussen-T/F 2801 13-12-2009 08:23:02 1.7 C 4.08 g/m*3 1.7 C 0 km/h
2802 13-12-2009 08:35:02 1.7 C 4.08 g/m*3 1.7 C 0 km/h
2803 13-12-2009 08:47:01 1.7 C 4.08 g/m*3 1.7 C 0 km/h
2804 13-12-2009 08:59:01 1.8 C 4.11 g/m*3 1.8 C 0 km/h
2805 13-12-2009 09:11:02 1.8 C 4.11 g/m*3 1.8 C 0 km/h
2806 13-12-2009 09:23:01 1.9 C 4.14 g/m*3 1.9 C 0 km/h
2807 13-12-2009 09:35:01 2 C 4.11 g/m*3 2 C 0 km/h
2808 13-12-2009 09:47:01 2.1 C 4.14 g/m*3 2.1 C 0 km/h
2809 13-12-2009 09:59:01 2.1 C 4.08 g/m*3 2.1 C 0 km/h
2810 13-12-2009 10:11:02 2.1 C 3.97 g/m*3 2.1 C 0 km/h
2811 13-12-2009 10:23:01 2.1 C 3.92 g/m*3 2.1 C 0 km/h
2812 13-12-2009 10:35:02 2.1 C 3.75 g/m*3 2.1 C 0 km/h
2813 13-12-2009 10:47:01 2.3 C 3.69 g/m*3 2.3 C 0 km/h
2814 13-12-2009 10:59:01 2.3 C 3.52 g/m*3 2.3 C 0 km/h
2815 13-12-2009 11:11:02 2.3 C 3.52 g/m*3 2.3 C 0 km/h
2816 13-12-2009 11:23:01 2.3 C 3.52 g/m*3 2.3 C 0 km/h
2817 13-12-2009 11:35:01 2.7 C 3.67 g/m*3 2.7 C 0 km/h
2818 13-12-2009 11:47:01 2.8 C 3.7 g/m*3 2.8 C 0 km/h
2819 13-12-2009 11:59:01 2.5 C 3.56 g/m*3 2.5 C 0 km/h
2820 13-12-2009 12:11:01 2.5 C 3.56 g/m*3 2.5 C 0 km/h
2821 13-12-2009 12:23:02 2.6 C 3.59 g/m*3 2.6 C 0 km/h
2822 13-12-2009 12:35:01 2.6 C 3.59 g/m*3 2.6 C 0 km/h
2823 13-12-2009 12:47:02 2.9 C 3.48 g/m*3 2.9 C 0 km/h
2824 13-12-2009 12:59:02 2.8 C 3.4 g/m*3 2.8 C 0 km/h
2825 13-12-2009 13:11:02 2.6 C 3.47 g/m*3 2.6 C 0 km/h
Sensor: Nr:Datum:Temp:Abs-Feuchte:Windchill:Wind:
Aussen-T/F 2826 13-12-2009 13:23:02 2.6 C 3.47 g/m*3 2.6 C 0 km/h
2827 13-12-2009 13:35:02 2.7 C 3.5 g/m*3 2.7 C 0 km/h
2828 13-12-2009 13:47:02 2.8 C 3.58 g/m*3 2.8 C 0 km/h
2829 13-12-2009 13:59:02 2.8 C 3.28 g/m*3 2.8 C 0 km/h
2830 13-12-2009 14:11:02 2.6 C 3.07 g/m*3 2.6 C 0 km/h
2831 13-12-2009 14:23:02 2.3 C 3.01 g/m*3 2.3 C 0 km/h
2832 13-12-2009 14:35:01 2 C 2.95 g/m*3 2 C 0 km/h
2833 13-12-2009 14:47:02 1.7 C 2.99 g/m*3 1.7 C 0 km/h
2834 13-12-2009 14:59:02 1.6 C 2.97 g/m*3 1.6 C 0 km/h
2835 13-12-2009 15:11:02 1.6 C 2.97 g/m*3 1.6 C 0 km/h
2836 13-12-2009 15:23:02 1.5 C 3.01 g/m*3 1.5 C 0 km/h
2837 13-12-2009 15:35:03 1.4 C 2.72 g/m*3 1.4 C 0 km/h
2838 13-12-2009 15:47:02 1.4 C 2.72 g/m*3 1.4 C 0 km/h
2839 13-12-2009 15:59:02 1.3 C 2.7 g/m*3 1.3 C 0 km/h
2840 13-12-2009 16:11:01 1.2 C 2.63 g/m*3 1.2 C 0 km/h
2841 13-12-2009 16:23:02 1.1 C 2.67 g/m*3 1.1 C 0 km/h
2842 13-12-2009 16:35:01 1 C 2.7 g/m*3 1 C 0 km/h
2843 13-12-2009 16:47:02 1 C 2.8 g/m*3 1 C 0 km/h
2844 13-12-2009 16:59:02 0.9 C 2.73 g/m*3 0.9 C 0 km/h
2845 13-12-2009 17:11:01 0.8 C 2.61 g/m*3 0.8 C 0 km/h
2846 13-12-2009 17:23:01 0.8 C 2.61 g/m*3 0.8 C 0 km/h
2847 13-12-2009 17:35:02 0.8 C 2.51 g/m*3 0.8 C 0 km/h
2848 13-12-2009 17:47:02 0.6 C 2.42 g/m*3 0.6 C 0 km/h
2849 13-12-2009 17:59:02 0.6 C 2.42 g/m*3 0.6 C 0 km/h
2850 13-12-2009 18:11:02 0.5 C 2.41 g/m*3 0.5 C 0 km/h
Sensor: Nr:Datum:Temp:Abs-Feuchte:Windchill:Wind:
Aussen-T/F 2851 13-12-2009 18:23:02 0.5 C 2.46 g/m*3 0.5 C 0 km/h
2852 13-12-2009 18:35:02 0.4 C 2.39 g/m*3 0.4 C 0 km/h
2853 13-12-2009 18:47:01 0.3 C 2.37 g/m*3 0.3 C 0 km/h
2854 13-12-2009 18:59:01 0.2 C 2.41 g/m*3 0.2 C 0 km/h
2855 13-12-2009 19:11:02 0.2 C 2.36 g/m*3 0.2 C 0 km/h
2856 13-12-2009 19:23:01 0 C 2.37 g/m*3 0 C 0 km/h
2857 13-12-2009 19:35:02 -0.2 C 2.39 g/m*3 -0.2 C 0 km/h
2858 13-12-2009 19:47:02 -0.4 C 2.4 g/m*3 -0.4 C 0 km/h
2859 13-12-2009 19:59:02 -0.5 C 2.43 g/m*3 -0.5 C 0 km/h
2860 13-12-2009 20:11:02 -0.6 C 2.42 g/m*3 -0.6 C 0 km/h
2861 13-12-2009 20:23:02 -0.6 C 2.46 g/m*3 -0.6 C 0 km/h
2862 13-12-2009 20:35:02 -0.7 C 2.45 g/m*3 -0.7 C 0 km/h
2863 13-12-2009 20:47:02 -0.7 C 2.45 g/m*3 -0.7 C 0 km/h
2864 13-12-2009 20:59:02 -0.8 C 2.43 g/m*3 -0.8 C 0 km/h
2865 13-12-2009 21:11:02 -0.9 C 2.46 g/m*3 -0.9 C 0 km/h
2866 13-12-2009 21:23:02 -0.9 C 2.5 g/m*3 -0.9 C 0 km/h
2867 13-12-2009 21:35:02 -0.9 C 2.5 g/m*3 -0.9 C 0 km/h
2868 13-12-2009 21:47:02 -0.7 C 2.54 g/m*3 -0.7 C 0 km/h
2869 13-12-2009 21:59:02 -0.5 C 2.57 g/m*3 -0.5 C 0 km/h
2870 13-12-2009 22:11:02 -0.5 C 2.57 g/m*3 -0.5 C 0 km/h
2871 13-12-2009 22:24:02 -0.4 C 2.59 g/m*3 -0.4 C 0 km/h
2872 13-12-2009 22:36:02 -0.5 C 2.57 g/m*3 -0.5 C 0 km/h
2873 13-12-2009 22:48:02 -0.4 C 2.59 g/m*3 -0.4 C 0 km/h
2874 13-12-2009 23:00:02 -0.3 C 2.56 g/m*3 -0.3 C 0 km/h
2875 13-12-2009 23:12:02 -0.3 C 2.56 g/m*3 -0.3 C 0 km/h
Sensor: Nr:Datum:Temp:Abs-Feuchte:Windchill:Wind:
Aussen-T/F 2876 13-12-2009 23:24:02 -0.3 C 2.56 g/m*3 -0.3 C 0 km/h
2877 13-12-2009 23:36:02 -0.3 C 2.61 g/m*3 -0.3 C 0 km/h
2878 13-12-2009 23:48:02 -0.3 C 2.61 g/m*3 -0.3 C 0 km/h
2879 14-12-2009 00:00:02 -0.3 C 2.66 g/m*3 -0.3 C 0 km/h
2880 14-12-2009 00:12:02 -0.3 C 2.71 g/m*3 -0.3 C 0 km/h
2881 14-12-2009 00:24:02 -0.4 C 2.73 g/m*3 -0.4 C 0 km/h
2882 14-12-2009 00:36:02 -0.4 C 2.83 g/m*3 -0.4 C 0 km/h
2883 14-12-2009 00:48:02 -0.5 C 2.86 g/m*3 -0.5 C 0 km/h
2884 14-12-2009 01:00:02 -0.7 C 2.86 g/m*3 -0.7 C 0 km/h
2885 14-12-2009 01:12:02 -1.1 C 2.83 g/m*3 -1.1 C 0 km/h
2886 14-12-2009 01:24:02 -1.4 C 2.86 g/m*3 -1.4 C 0 km/h
2887 14-12-2009 01:36:02 -1.7 C 2.84 g/m*3 -1.7 C 0 km/h
2888 14-12-2009 01:48:02 -2 C 2.78 g/m*3 -2 C 0 km/h
2889 14-12-2009 02:00:03 -2.2 C 2.78 g/m*3 -2.2 C 0 km/h
2890 14-12-2009 02:12:03 -2.3 C 2.81 g/m*3 -2.3 C 0 km/h
2891 14-12-2009 02:24:03 -2.4 C 2.79 g/m*3 -2.4 C 0 km/h
2892 14-12-2009 02:36:03 -2.4 C 2.83 g/m*3 -2.4 C 0 km/h
2893 14-12-2009 02:48:03 -2.5 C 2.85 g/m*3 -2.5 C 0 km/h
2894 14-12-2009 03:00:03 -2.5 C 2.85 g/m*3 -2.5 C 0 km/h
2895 14-12-2009 03:12:03 -2.7 C 2.85 g/m*3 -2.7 C 0 km/h
2896 14-12-2009 03:24:03 -2.5 C 2.93 g/m*3 -2.5 C 0 km/h
2897 14-12-2009 03:36:03 -2.1 C 3.01 g/m*3 -2.1 C 0 km/h
2898 14-12-2009 03:48:03 -1.8 C 3.08 g/m*3 -1.8 C 0 km/h
2899 14-12-2009 04:00:03 -1.7 C 3.06 g/m*3 -1.7 C 0 km/h
2900 14-12-2009 04:12:03 -1.5 C 3.06 g/m*3 -1.5 C 0 km/h
Sensor: Nr:Datum:Temp:Abs-Feuchte:Windchill:Wind:
Aussen-T/F 2901 14-12-2009 04:24:03 -1.4 C 3.08 g/m*3 -1.4 C 0 km/h
2902 14-12-2009 04:36:03 -1.3 C 3.01 g/m*3 -1.3 C 0 km/h
2903 14-12-2009 04:48:03 -1.2 C 2.99 g/m*3 -1.2 C 0 km/h
2904 14-12-2009 05:00:03 -1.1 C 2.96 g/m*3 -1.1 C 0 km/h
2905 14-12-2009 05:12:03 -0.9 C 2.87 g/m*3 -0.9 C 0 km/h
2906 14-12-2009 05:24:03 -0.9 C 2.82 g/m*3 -0.9 C 0 km/h
2907 14-12-2009 05:36:03 -0.9 C 2.78 g/m*3 -0.9 C 0 km/h
2908 14-12-2009 05:48:03 -0.8 C 2.75 g/m*3 -0.8 C 0 km/h
2909 14-12-2009 06:00:03 -0.8 C 2.66 g/m*3 -0.8 C 0 km/h
2910 14-12-2009 06:12:04 -0.7 C 2.68 g/m*3 -0.7 C 0 km/h
2911 14-12-2009 06:24:04 -0.7 C 2.63 g/m*3 -0.7 C 0 km/h
2912 14-12-2009 06:36:04 -0.7 C 2.58 g/m*3 -0.7 C 0 km/h
2913 14-12-2009 06:48:04 -0.8 C 2.57 g/m*3 -0.8 C 0 km/h
2914 14-12-2009 07:00:04 -0.8 C 2.57 g/m*3 -0.8 C 0 km/h
2915 14-12-2009 07:12:04 -0.8 C 2.52 g/m*3 -0.8 C 0 km/h
2916 14-12-2009 07:24:04 -0.8 C 2.52 g/m*3 -0.8 C 0 km/h
2917 14-12-2009 07:36:04 -0.7 C 2.58 g/m*3 -0.7 C 0 km/h
2918 14-12-2009 07:48:02 -0.7 C 2.63 g/m*3 -0.7 C 0 km/h
2919 14-12-2009 08:00:02 -0.7 C 2.63 g/m*3 -0.7 C 0 km/h
2920 14-12-2009 08:12:02 -0.7 C 2.63 g/m*3 -0.7 C 0 km/h
2921 14-12-2009 08:24:02 -0.7 C 2.58 g/m*3 -0.7 C 0 km/h
2922 14-12-2009 08:36:01 -0.7 C 2.63 g/m*3 -0.7 C 0 km/h
2923 14-12-2009 08:48:02 -0.7 C 2.63 g/m*3 -0.7 C 0 km/h
2924 14-12-2009 09:00:02 -0.7 C 2.63 g/m*3 -0.7 C 0 km/h
2925 14-12-2009 09:12:02 -0.7 C 2.63 g/m*3 -0.7 C 0 km/h
Sensor: Nr:Datum:Temp:Abs-Feuchte:Windchill:Wind:
Aussen-T/F 2926 14-12-2009 09:24:02 -0.7 C 2.63 g/m*3 -0.7 C 0 km/h
2927 14-12-2009 09:36:03 -0.7 C 2.58 g/m*3 -0.7 C 0 km/h
2928 14-12-2009 09:48:02 -0.7 C 2.54 g/m*3 -0.7 C 0 km/h
2929 14-12-2009 10:00:02 -0.6 C 2.51 g/m*3 -0.6 C 0 km/h
2930 14-12-2009 10:12:03 -0.5 C 2.48 g/m*3 -0.5 C 0 km/h
2931 14-12-2009 10:24:02 -0.4 C 2.5 g/m*3 -0.4 C 0 km/h
2932 14-12-2009 10:36:03 -0.5 C 2.43 g/m*3 -0.5 C 0 km/h
2933 14-12-2009 10:48:02 -0.2 C 2.53 g/m*3 -0.2 C 0 km/h
2934 14-12-2009 11:00:02 -0.2 C 2.48 g/m*3 -0.2 C 0 km/h
2935 14-12-2009 11:12:02 -0.2 C 2.48 g/m*3 -0.2 C 0 km/h
2936 14-12-2009 11:24:01 0 C 2.52 g/m*3 0 C 0 km/h
2937 14-12-2009 11:36:02 0.1 C 2.49 g/m*3 0.1 C 0 km/h
2938 14-12-2009 11:48:01 0.3 C 2.52 g/m*3 0.3 C 0 km/h
2939 14-12-2009 12:00:01 0.2 C 2.46 g/m*3 0.2 C 0 km/h
2940 14-12-2009 12:12:02 0.1 C 2.44 g/m*3 0.1 C 0 km/h
2941 14-12-2009 12:24:01 0.1 C 2.44 g/m*3 0.1 C 0 km/h
2942 14-12-2009 12:36:02 0.1 C 2.44 g/m*3 0.1 C 0 km/h
2943 14-12-2009 12:48:01 0 C 2.42 g/m*3 0 C 0 km/h
2944 14-12-2009 13:00:01 0 C 2.42 g/m*3 0 C 0 km/h
2945 14-12-2009 13:12:02 0 C 2.42 g/m*3 0 C 0 km/h
2946 14-12-2009 13:24:01 0.1 C 2.44 g/m*3 0.1 C 0 km/h
2947 14-12-2009 13:36:01 0.2 C 2.46 g/m*3 0.2 C 0 km/h
2948 14-12-2009 13:48:01 0.4 C 2.49 g/m*3 0.4 C 0 km/h
2949 14-12-2009 14:00:01 0.6 C 2.58 g/m*3 0.6 C 0 km/h
2950 14-12-2009 14:12:01 0.6 C 2.63 g/m*3 0.6 C 0 km/h
Sensor: Nr:Datum:Temp:Abs-Feuchte:Windchill:Wind:
Aussen-T/F 2951 14-12-2009 14:24:02 0.3 C 2.57 g/m*3 0.3 C 0 km/h
2952 14-12-2009 14:36:01 0.2 C 2.6 g/m*3 0.2 C 0 km/h
2953 14-12-2009 14:48:02 0.1 C 2.63 g/m*3 0.1 C 0 km/h
2954 14-12-2009 15:00:02 0 C 2.62 g/m*3 0 C 0 km/h
2955 14-12-2009 15:12:01 -0.1 C 2.65 g/m*3 -0.1 C 0 km/h
2956 14-12-2009 15:24:02 -0.3 C 2.56 g/m*3 -0.3 C 0 km/h
2957 14-12-2009 15:36:01 -0.4 C 2.59 g/m*3 -0.4 C 0 km/h
2958 14-12-2009 15:48:02 -0.5 C 2.57 g/m*3 -0.5 C 0 km/h
2959 14-12-2009 16:00:02 -0.4 C 2.64 g/m*3 -0.4 C 0 km/h
2960 14-12-2009 16:12:02 -0.5 C 2.62 g/m*3 -0.5 C 0 km/h
2961 14-12-2009 16:24:02 -0.5 C 2.67 g/m*3 -0.5 C 0 km/h
2962 14-12-2009 16:36:02 -0.5 C 2.67 g/m*3 -0.5 C 0 km/h
2963 14-12-2009 16:48:02 -0.6 C 2.65 g/m*3 -0.6 C 0 km/h
2964 14-12-2009 17:00:03 -0.4 C 2.73 g/m*3 -0.4 C 0 km/h
2965 14-12-2009 17:12:01 -0.5 C 2.71 g/m*3 -0.5 C 0 km/h
2966 14-12-2009 17:24:01 -0.6 C 2.65 g/m*3 -0.6 C 0 km/h
2967 14-12-2009 17:36:02 -0.6 C 2.65 g/m*3 -0.6 C 0 km/h
2968 14-12-2009 17:48:02 -0.6 C 2.65 g/m*3 -0.6 C 0 km/h
2969 14-12-2009 18:00:02 -0.6 C 2.7 g/m*3 -0.6 C 0 km/h
2970 14-12-2009 18:12:02 -0.6 C 2.65 g/m*3 -0.6 C 0 km/h
2971 14-12-2009 18:24:02 -0.7 C 2.58 g/m*3 -0.7 C 0 km/h
2972 14-12-2009 18:36:02 -0.7 C 2.54 g/m*3 -0.7 C 0 km/h
2973 14-12-2009 18:48:02 -0.8 C 2.57 g/m*3 -0.8 C 0 km/h
2974 14-12-2009 19:00:02 -0.8 C 2.61 g/m*3 -0.8 C 0 km/h
2975 14-12-2009 19:12:02 -0.7 C 2.63 g/m*3 -0.7 C 0 km/h
Sensor: Nr:Datum:Temp:Abs-Feuchte:Windchill:Wind:
Aussen-T/F 2976 14-12-2009 19:24:02 -0.7 C 2.68 g/m*3 -0.7 C 0 km/h
2977 14-12-2009 19:36:02 -0.7 C 2.68 g/m*3 -0.7 C 0 km/h
2978 14-12-2009 19:48:01 -0.7 C 2.68 g/m*3 -0.7 C 0 km/h
2979 14-12-2009 20:00:01 -0.6 C 2.7 g/m*3 -0.6 C 0 km/h
2980 14-12-2009 20:12:02 -0.6 C 2.7 g/m*3 -0.6 C 0 km/h
2981 14-12-2009 20:24:02 -0.6 C 2.7 g/m*3 -0.6 C 0 km/h
2982 14-12-2009 20:36:02 -0.6 C 2.7 g/m*3 -0.6 C 0 km/h
2983 14-12-2009 20:48:02 -0.6 C 2.65 g/m*3 -0.6 C 0 km/h
2984 14-12-2009 21:00:02 -0.5 C 2.71 g/m*3 -0.5 C 0 km/h
2985 14-12-2009 21:12:02 -0.5 C 2.71 g/m*3 -0.5 C 0 km/h
2986 14-12-2009 21:24:02 -0.5 C 2.76 g/m*3 -0.5 C 0 km/h
2987 14-12-2009 21:36:02 -0.5 C 2.71 g/m*3 -0.5 C 0 km/h
2988 14-12-2009 21:49:04 -0.5 C 2.67 g/m*3 -0.5 C 0 km/h
2989 14-12-2009 22:01:04 -1.1 C 2.6 g/m*3 -1.1 C 0 km/h
2990 14-12-2009 22:13:04 -1.6 C 2.6 g/m*3 -1.6 C 0 km/h
2991 14-12-2009 22:25:04 -1.8 C 2.61 g/m*3 -1.8 C 0 km/h
2992 14-12-2009 22:37:04 -2 C 2.61 g/m*3 -2 C 0 km/h
2993 14-12-2009 22:49:04 -2 C 2.66 g/m*3 -2 C 0 km/h
2994 14-12-2009 23:01:04 -2.1 C 2.64 g/m*3 -2.1 C 0 km/h
2995 14-12-2009 23:13:04 -2.2 C 2.66 g/m*3 -2.2 C 0 km/h
2996 14-12-2009 23:25:05 -2.3 C 2.64 g/m*3 -2.3 C 0 km/h
2997 14-12-2009 23:37:05 -2.4 C 2.62 g/m*3 -2.4 C 0 km/h
2998 14-12-2009 23:49:05 -2.7 C 2.65 g/m*3 -2.7 C 0 km/h
2999 15-12-2009 00:01:05 -2.7 C 2.69 g/m*3 -2.7 C 0 km/h
3000 15-12-2009 00:13:05 -2.7 C 2.73 g/m*3 -2.7 C 0 km/h
Sensor: Nr:Datum:Temp:Abs-Feuchte:Windchill:Wind:
Aussen-T/F 3001 15-12-2009 00:25:05 -2.9 C 2.69 g/m*3 -2.9 C 0 km/h
3002 15-12-2009 00:37:05 -3 C 2.67 g/m*3 -3 C 0 km/h
3003 15-12-2009 00:49:05 -3.2 C 2.67 g/m*3 -3.2 C 0 km/h
3004 15-12-2009 01:01:05 -3.3 C 2.69 g/m*3 -3.3 C 0 km/h
3005 15-12-2009 01:13:05 -3.3 C 2.73 g/m*3 -3.3 C 0 km/h
3006 15-12-2009 01:25:05 -3.3 C 2.73 g/m*3 -3.3 C 0 km/h
3007 15-12-2009 01:37:05 -3.4 C 2.71 g/m*3 -3.4 C 0 km/h
3008 15-12-2009 01:49:05 -3.5 C 2.73 g/m*3 -3.5 C 0 km/h
3009 15-12-2009 02:01:05 -3.5 C 2.73 g/m*3 -3.5 C 0 km/h
3010 15-12-2009 02:13:05 -3.5 C 2.77 g/m*3 -3.5 C 0 km/h
3011 15-12-2009 02:25:05 -3.2 C 2.83 g/m*3 -3.2 C 0 km/h
3012 15-12-2009 02:37:05 -3 C 2.87 g/m*3 -3 C 0 km/h
3013 15-12-2009 02:49:05 -2.7 C 2.93 g/m*3 -2.7 C 0 km/h
3014 15-12-2009 03:01:06 -2.6 C 2.91 g/m*3 -2.6 C 0 km/h
3015 15-12-2009 03:13:06 -2.4 C 2.91 g/m*3 -2.4 C 0 km/h
3016 15-12-2009 03:25:06 -2.3 C 2.89 g/m*3 -2.3 C 0 km/h
3017 15-12-2009 03:37:06 -2.3 C 2.89 g/m*3 -2.3 C 0 km/h
3018 15-12-2009 03:49:06 -2.2 C 2.91 g/m*3 -2.2 C 0 km/h
3019 15-12-2009 04:01:06 -2.1 C 2.93 g/m*3 -2.1 C 0 km/h
3020 15-12-2009 04:13:06 -2 C 2.95 g/m*3 -2 C 0 km/h
3021 15-12-2009 04:25:06 -1.9 C 2.97 g/m*3 -1.9 C 0 km/h
3022 15-12-2009 04:37:06 -1.9 C 2.97 g/m*3 -1.9 C 0 km/h
3023 15-12-2009 04:49:06 -1.9 C 2.97 g/m*3 -1.9 C 0 km/h
3024 15-12-2009 05:01:06 -1.9 C 2.97 g/m*3 -1.9 C 0 km/h
3025 15-12-2009 05:13:06 -1.9 C 2.97 g/m*3 -1.9 C 0 km/h
Sensor: Nr:Datum:Temp:Abs-Feuchte:Windchill:Wind:
Aussen-T/F 3026 15-12-2009 05:25:06 -1.8 C 3.04 g/m*3 -1.8 C 0 km/h
3027 15-12-2009 05:37:06 -1.8 C 3.04 g/m*3 -1.8 C 0 km/h
3028 15-12-2009 05:49:06 -1.8 C 3.08 g/m*3 -1.8 C 0 km/h
3029 15-12-2009 06:01:06 -1.7 C 3.1 g/m*3 -1.7 C 0 km/h
3030 15-12-2009 06:13:06 -1.6 C 3.12 g/m*3 -1.6 C 0 km/h
3031 15-12-2009 06:25:06 -1.5 C 3.14 g/m*3 -1.5 C 0 km/h
3032 15-12-2009 06:37:06 -1.6 C 3.12 g/m*3 -1.6 C 0 km/h
3033 15-12-2009 06:49:06 -1.6 C 3.12 g/m*3 -1.6 C 0 km/h
3034 15-12-2009 07:01:07 -1.7 C 3.1 g/m*3 -1.7 C 0 km/h
3035 15-12-2009 07:13:07 -1.7 C 3.14 g/m*3 -1.7 C 0 km/h
3036 15-12-2009 07:25:02 -1.6 C 3.16 g/m*3 -1.6 C 0 km/h
3037 15-12-2009 07:37:02 -1.6 C 3.16 g/m*3 -1.6 C 0 km/h
3038 15-12-2009 07:49:02 -1.5 C 3.19 g/m*3 -1.5 C 0 km/h
3039 15-12-2009 08:01:01 -1.3 C 3.19 g/m*3 -1.3 C 0 km/h
3040 15-12-2009 08:13:01 -1.2 C 3.21 g/m*3 -1.2 C 0 km/h
3041 15-12-2009 08:25:02 -1.2 C 3.21 g/m*3 -1.2 C 0 km/h
3042 15-12-2009 08:37:02 -1.1 C 3.23 g/m*3 -1.1 C 0 km/h
3043 15-12-2009 08:49:02 -1 C 3.25 g/m*3 -1 C 0 km/h
3044 15-12-2009 09:01:02 -0.9 C 3.28 g/m*3 -0.9 C 0 km/h
3045 15-12-2009 09:13:02 -0.9 C 3.23 g/m*3 -0.9 C 0 km/h
3046 15-12-2009 09:25:01 -0.7 C 3.28 g/m*3 -0.7 C 0 km/h
3047 15-12-2009 09:37:02 -0.5 C 3.28 g/m*3 -0.5 C 0 km/h
3048 15-12-2009 09:49:02 -0.4 C 3.2 g/m*3 -0.4 C 0 km/h
3049 15-12-2009 10:01:02 -0.2 C 3.15 g/m*3 -0.2 C 0 km/h
3050 15-12-2009 10:13:02 0 C 3.15 g/m*3 0 C 0 km/h
Sensor: Nr:Datum:Temp:Abs-Feuchte:Windchill:Wind:
Aussen-T/F 3051 15-12-2009 10:25:02 0.1 C 3.17 g/m*3 0.1 C 0 km/h
3052 15-12-2009 10:37:02 0.2 C 3.14 g/m*3 0.2 C 0 km/h
3053 15-12-2009 10:49:02 0.3 C 3.17 g/m*3 0.3 C 0 km/h
3054 15-12-2009 11:01:02 0.3 C 3.12 g/m*3 0.3 C 0 km/h
3055 15-12-2009 11:13:03 0.4 C 3.14 g/m*3 0.4 C 0 km/h
3056 15-12-2009 11:25:02 0.3 C 3.12 g/m*3 0.3 C 0 km/h
3057 15-12-2009 11:37:02 0.5 C 3.11 g/m*3 0.5 C 0 km/h
3058 15-12-2009 11:49:01 0.7 C 3.05 g/m*3 0.7 C 0 km/h
3059 15-12-2009 12:01:01 0.9 C 3.04 g/m*3 0.9 C 0 km/h
3060 15-12-2009 12:13:01 1 C 2.91 g/m*3 1 C 0 km/h
3061 15-12-2009 12:25:02 1 C 2.91 g/m*3 1 C 0 km/h
3062 15-12-2009 12:37:01 0.8 C 2.92 g/m*3 0.8 C 0 km/h
3063 15-12-2009 12:49:01 0.7 C 2.85 g/m*3 0.7 C 0 km/h
3064 15-12-2009 13:01:01 0.8 C 2.87 g/m*3 0.8 C 0 km/h
3065 15-12-2009 13:13:01 1.1 C 2.87 g/m*3 1.1 C 0 km/h
3066 15-12-2009 13:25:02 1.6 C 2.87 g/m*3 1.6 C 0 km/h
3067 15-12-2009 13:37:01 1.6 C 2.81 g/m*3 1.6 C 0 km/h
3068 15-12-2009 13:49:02 1.6 C 2.76 g/m*3 1.6 C 0 km/h
3069 15-12-2009 14:01:02 1.6 C 2.7 g/m*3 1.6 C 0 km/h
3070 15-12-2009 14:13:02 1.6 C 2.65 g/m*3 1.6 C 0 km/h
3071 15-12-2009 14:25:02 1.5 C 2.69 g/m*3 1.5 C 0 km/h
3072 15-12-2009 14:37:02 1.4 C 2.67 g/m*3 1.4 C 0 km/h
3073 15-12-2009 14:49:02 1.3 C 2.65 g/m*3 1.3 C 0 km/h
3074 15-12-2009 15:01:01 1.2 C 2.63 g/m*3 1.2 C 0 km/h
3075 15-12-2009 15:13:01 1.2 C 2.63 g/m*3 1.2 C 0 km/h
Sensor: Nr:Datum:Temp:Abs-Feuchte:Windchill:Wind:
Aussen-T/F 3076 15-12-2009 15:25:02 1.2 C 2.63 g/m*3 1.2 C 0 km/h
3077 15-12-2009 15:37:02 1.1 C 2.67 g/m*3 1.1 C 0 km/h
3078 15-12-2009 15:49:02 1 C 2.65 g/m*3 1 C 0 km/h
3079 15-12-2009 16:01:02 1 C 2.65 g/m*3 1 C 0 km/h
3080 15-12-2009 16:13:02 1 C 2.6 g/m*3 1 C 0 km/h
3081 15-12-2009 16:25:02 0.9 C 2.63 g/m*3 0.9 C 0 km/h
3082 15-12-2009 16:37:02 0.9 C 2.68 g/m*3 0.9 C 0 km/h
3083 15-12-2009 16:49:02 0.8 C 2.66 g/m*3 0.8 C 0 km/h
3084 15-12-2009 17:01:02 0.7 C 2.64 g/m*3 0.7 C 0 km/h
3085 15-12-2009 17:13:02 0.7 C 2.64 g/m*3 0.7 C 0 km/h
3086 15-12-2009 17:25:02 0.6 C 2.68 g/m*3 0.6 C 0 km/h
3087 15-12-2009 17:37:02 0.6 C 2.73 g/m*3 0.6 C 0 km/h
3088 15-12-2009 17:49:01 0.6 C 2.68 g/m*3 0.6 C 0 km/h
3089 15-12-2009 18:01:01 0.6 C 2.68 g/m*3 0.6 C 0 km/h
3090 15-12-2009 18:13:01 0.6 C 2.63 g/m*3 0.6 C 0 km/h
3091 15-12-2009 18:25:02 0.6 C 2.63 g/m*3 0.6 C 0 km/h
3092 15-12-2009 18:37:02 0.6 C 2.63 g/m*3 0.6 C 0 km/h
3093 15-12-2009 18:49:02 0.6 C 2.68 g/m*3 0.6 C 0 km/h
3094 15-12-2009 19:01:02 0.5 C 2.71 g/m*3 0.5 C 0 km/h
3095 15-12-2009 19:13:02 0.4 C 2.69 g/m*3 0.4 C 0 km/h
3096 15-12-2009 19:25:05 0.4 C 2.74 g/m*3 0.4 C 0 km/h
3097 15-12-2009 19:37:02 0.4 C 2.69 g/m*3 0.4 C 0 km/h
3098 15-12-2009 19:49:02 0.4 C 2.74 g/m*3 0.4 C 0 km/h
3099 15-12-2009 20:01:56 0.5 C 2.71 g/m*3 0.5 C 0 km/h
3100 15-12-2009 20:13:56 0.5 C 2.76 g/m*3 0.5 C 0 km/h
Sensor: Nr:Datum:Temp:Abs-Feuchte:Windchill:Wind:
Aussen-T/F 3101 15-12-2009 20:25:02 0.4 C 2.69 g/m*3 0.4 C 0 km/h
3102 15-12-2009 20:37:02 0.5 C 2.66 g/m*3 0.5 C 0 km/h
3103 15-12-2009 20:49:02 0.5 C 2.71 g/m*3 0.5 C 0 km/h
3104 15-12-2009 21:01:01 0.5 C 2.71 g/m*3 0.5 C 0 km/h
3105 15-12-2009 21:13:01 0.5 C 2.71 g/m*3 0.5 C 0 km/h
3106 15-12-2009 21:25:01 0.3 C 2.67 g/m*3 0.3 C 0 km/h
3107 15-12-2009 21:37:02 0.2 C 2.65 g/m*3 0.2 C 0 km/h
3108 15-12-2009 21:49:02 0.2 C 2.65 g/m*3 0.2 C 0 km/h
3109 15-12-2009 22:01:02 0.1 C 2.63 g/m*3 0.1 C 0 km/h
3110 15-12-2009 22:13:02 0.1 C 2.68 g/m*3 0.1 C 0 km/h
3111 15-12-2009 22:25:02 0.1 C 2.68 g/m*3 0.1 C 0 km/h
3112 15-12-2009 22:38:02 0 C 2.66 g/m*3 0 C 0 km/h
3113 15-12-2009 22:50:02 0 C 2.66 g/m*3 0 C 0 km/h
3114 15-12-2009 23:02:02 -0.1 C 2.69 g/m*3 -0.1 C 0 km/h
3115 15-12-2009 23:14:02 -0.2 C 2.72 g/m*3 -0.2 C 0 km/h
3116 15-12-2009 23:26:03 -0.2 C 2.72 g/m*3 -0.2 C 0 km/h
3117 15-12-2009 23:38:03 -0.2 C 2.72 g/m*3 -0.2 C 0 km/h
3118 15-12-2009 23:50:03 -0.2 C 2.72 g/m*3 -0.2 C 0 km/h
3119 16-12-2009 00:02:03 -0.2 C 2.77 g/m*3 -0.2 C 0 km/h
3120 16-12-2009 00:14:03 -0.2 C 2.77 g/m*3 -0.2 C 0 km/h
3121 16-12-2009 00:26:03 -0.3 C 2.75 g/m*3 -0.3 C 0 km/h
3122 16-12-2009 00:38:03 -0.4 C 2.78 g/m*3 -0.4 C 0 km/h
3123 16-12-2009 00:50:03 -0.5 C 2.76 g/m*3 -0.5 C 0 km/h
3124 16-12-2009 01:02:03 -0.9 C 2.73 g/m*3 -0.9 C 0 km/h
3125 16-12-2009 01:14:03 -1 C 2.76 g/m*3 -1 C 0 km/h
Sensor: Nr:Datum:Temp:Abs-Feuchte:Windchill:Wind:
Aussen-T/F 3126 16-12-2009 01:26:03 -1.1 C 2.78 g/m*3 -1.1 C 0 km/h
3127 16-12-2009 01:38:03 -1.1 C 2.74 g/m*3 -1.1 C 0 km/h
3128 16-12-2009 01:50:03 -1.1 C 2.74 g/m*3 -1.1 C 0 km/h
3129 16-12-2009 02:02:03 -1.2 C 2.76 g/m*3 -1.2 C 0 km/h
3130 16-12-2009 02:14:03 -1.3 C 2.74 g/m*3 -1.3 C 0 km/h
3131 16-12-2009 02:26:03 -1.3 C 2.79 g/m*3 -1.3 C 0 km/h
3132 16-12-2009 02:38:03 -1.2 C 2.81 g/m*3 -1.2 C 0 km/h
3133 16-12-2009 02:50:03 -1.1 C 2.83 g/m*3 -1.1 C 0 km/h
3134 16-12-2009 03:02:03 -1.1 C 2.78 g/m*3 -1.1 C 0 km/h
3135 16-12-2009 03:14:04 -1.1 C 2.78 g/m*3 -1.1 C 0 km/h
3136 16-12-2009 03:26:04 -1.1 C 2.78 g/m*3 -1.1 C 0 km/h
3137 16-12-2009 03:38:04 -1 C 2.85 g/m*3 -1 C 0 km/h
3138 16-12-2009 03:50:04 -1 C 2.85 g/m*3 -1 C 0 km/h
3139 16-12-2009 04:02:04 -1 C 2.8 g/m*3 -1 C 0 km/h
3140 16-12-2009 04:14:04 -1 C 2.8 g/m*3 -1 C 0 km/h
3141 16-12-2009 04:26:04 -1 C 2.8 g/m*3 -1 C 0 km/h
3142 16-12-2009 04:38:04 -1.1 C 2.78 g/m*3 -1.1 C 0 km/h
3143 16-12-2009 04:50:04 -1.1 C 2.78 g/m*3 -1.1 C 0 km/h
3144 16-12-2009 05:02:04 -1.1 C 2.83 g/m*3 -1.1 C 0 km/h
3145 16-12-2009 05:14:04 -1.2 C 2.81 g/m*3 -1.2 C 0 km/h
3146 16-12-2009 05:26:04 -1.2 C 2.85 g/m*3 -1.2 C 0 km/h
3147 16-12-2009 05:38:04 -1.2 C 2.85 g/m*3 -1.2 C 0 km/h
3148 16-12-2009 05:50:04 -1.1 C 2.92 g/m*3 -1.1 C 0 km/h
3149 16-12-2009 06:02:04 -1.1 C 2.87 g/m*3 -1.1 C 0 km/h
3150 16-12-2009 06:14:04 -1.1 C 2.87 g/m*3 -1.1 C 0 km/h
Sensor: Nr:Datum:Temp:Abs-Feuchte:Windchill:Wind:
Aussen-T/F 3151 16-12-2009 06:26:04 -1.2 C 2.85 g/m*3 -1.2 C 0 km/h
3152 16-12-2009 06:38:04 -1.2 C 2.85 g/m*3 -1.2 C 0 km/h
3153 16-12-2009 06:50:04 -1.2 C 2.85 g/m*3 -1.2 C 0 km/h
3154 16-12-2009 07:02:03 -1.2 C 2.85 g/m*3 -1.2 C 0 km/h
3155 16-12-2009 07:14:03 -1.2 C 2.85 g/m*3 -1.2 C 0 km/h
3156 16-12-2009 07:26:02 -1.2 C 2.85 g/m*3 -1.2 C 0 km/h
3157 16-12-2009 07:38:02 -1.2 C 2.9 g/m*3 -1.2 C 0 km/h
3158 16-12-2009 07:50:01 -1.2 C 2.9 g/m*3 -1.2 C 0 km/h
3159 16-12-2009 08:02:02 -1.2 C 2.9 g/m*3 -1.2 C 0 km/h
3160 16-12-2009 08:14:02 -1.2 C 2.9 g/m*3 -1.2 C 0 km/h
3161 16-12-2009 08:26:02 -1.2 C 2.9 g/m*3 -1.2 C 0 km/h
3162 16-12-2009 08:38:02 -1.2 C 2.9 g/m*3 -1.2 C 0 km/h
3163 16-12-2009 08:50:03 -1.2 C 2.9 g/m*3 -1.2 C 0 km/h
3164 16-12-2009 09:02:02 -1.2 C 2.94 g/m*3 -1.2 C 0 km/h
3165 16-12-2009 09:14:02 -1.2 C 2.94 g/m*3 -1.2 C 0 km/h
3166 16-12-2009 09:26:03 -1.1 C 2.96 g/m*3 -1.1 C 0 km/h
3167 16-12-2009 09:38:02 -1 C 2.98 g/m*3 -1 C 0 km/h
3168 16-12-2009 09:50:02 -0.8 C 2.98 g/m*3 -0.8 C 0 km/h
3169 16-12-2009 10:02:02 -0.6 C 3.02 g/m*3 -0.6 C 0 km/h
3170 16-12-2009 10:14:02 -0.4 C 3.02 g/m*3 -0.4 C 0 km/h
3171 16-12-2009 10:26:02 -0.2 C 3.01 g/m*3 -0.2 C 0 km/h
3172 16-12-2009 10:38:02 -0.2 C 2.91 g/m*3 -0.2 C 0 km/h
3173 16-12-2009 10:50:02 0 C 2.96 g/m*3 0 C 0 km/h
3174 16-12-2009 11:02:02 0.1 C 2.98 g/m*3 0.1 C 0 km/h
3175 16-12-2009 11:14:02 0.2 C 2.95 g/m*3 0.2 C 0 km/h
Sensor: Nr:Datum:Temp:Abs-Feuchte:Windchill:Wind:
Aussen-T/F 3176 16-12-2009 11:26:02 0.1 C 2.88 g/m*3 0.1 C 0 km/h
3177 16-12-2009 11:38:03 0.2 C 2.9 g/m*3 0.2 C 0 km/h
3178 16-12-2009 11:50:02 0.4 C 2.89 g/m*3 0.4 C 0 km/h
3179 16-12-2009 12:02:02 0.6 C 2.98 g/m*3 0.6 C 0 km/h
3180 16-12-2009 12:14:02 0.8 C 2.97 g/m*3 0.8 C 0 km/h
3181 16-12-2009 12:26:02 0.7 C 2.9 g/m*3 0.7 C 0 km/h
3182 16-12-2009 12:38:02 1 C 2.96 g/m*3 1 C 0 km/h
3183 16-12-2009 12:50:02 1.1 C 2.93 g/m*3 1.1 C 0 km/h
3184 16-12-2009 13:02:03 1.1 C 2.93 g/m*3 1.1 C 0 km/h
3185 16-12-2009 13:14:03 1.2 C 2.89 g/m*3 1.2 C 0 km/h
3186 16-12-2009 13:26:02 1.1 C 2.82 g/m*3 1.1 C 0 km/h
3187 16-12-2009 13:38:03 0.6 C 2.78 g/m*3 0.6 C 0 km/h
3188 16-12-2009 13:50:02 0.6 C 2.78 g/m*3 0.6 C 0 km/h
3189 16-12-2009 14:02:02 0.8 C 2.76 g/m*3 0.8 C 0 km/h
3190 16-12-2009 14:14:02 0.9 C 2.84 g/m*3 0.9 C 0 km/h
3191 16-12-2009 14:26:01 1 C 2.7 g/m*3 1 C 0 km/h
3192 16-12-2009 14:38:02 1.3 C 2.75 g/m*3 1.3 C 0 km/h
3193 16-12-2009 14:50:02 1.1 C 2.72 g/m*3 1.1 C 0 km/h
3194 16-12-2009 15:02:02 0.7 C 2.69 g/m*3 0.7 C 0 km/h
3195 16-12-2009 15:14:03 0.4 C 2.59 g/m*3 0.4 C 0 km/h
3196 16-12-2009 15:26:01 0 C 2.62 g/m*3 0 C 0 km/h
3197 16-12-2009 15:38:02 -0.3 C 2.61 g/m*3 -0.3 C 0 km/h
3198 16-12-2009 15:50:02 -0.5 C 2.62 g/m*3 -0.5 C 0 km/h
3199 16-12-2009 16:02:02 -0.6 C 2.6 g/m*3 -0.6 C 0 km/h
3200 16-12-2009 16:14:02 -0.7 C 2.58 g/m*3 -0.7 C 0 km/h
Sensor: Nr:Datum:Temp:Abs-Feuchte:Windchill:Wind:
Aussen-T/F 3201 16-12-2009 16:26:02 -0.9 C 2.55 g/m*3 -0.9 C 0 km/h
3202 16-12-2009 16:38:02 -1.1 C 2.51 g/m*3 -1.1 C 0 km/h
3203 16-12-2009 16:50:01 -1.3 C 2.48 g/m*3 -1.3 C 0 km/h
3204 16-12-2009 17:02:02 -1.5 C 2.49 g/m*3 -1.5 C 0 km/h
3205 16-12-2009 17:14:02 -1.7 C 2.5 g/m*3 -1.7 C 0 km/h
3206 16-12-2009 17:26:02 -1.7 C 2.58 g/m*3 -1.7 C 0 km/h
3207 16-12-2009 17:38:02 -1.8 C 2.61 g/m*3 -1.8 C 0 km/h
3208 16-12-2009 17:50:02 -1.9 C 2.63 g/m*3 -1.9 C 0 km/h
3209 16-12-2009 18:02:02 -2 C 2.66 g/m*3 -2 C 0 km/h
3210 16-12-2009 18:14:02 -2.1 C 2.68 g/m*3 -2.1 C 0 km/h
3211 16-12-2009 18:26:02 -2 C 2.7 g/m*3 -2 C 0 km/h
3212 16-12-2009 18:38:03 -2 C 2.7 g/m*3 -2 C 0 km/h
3213 16-12-2009 18:50:02 -2 C 2.7 g/m*3 -2 C 0 km/h
3214 16-12-2009 19:02:01 -1.9 C 2.76 g/m*3 -1.9 C 0 km/h
3215 16-12-2009 19:14:01 -1.9 C 2.76 g/m*3 -1.9 C 0 km/h
3216 16-12-2009 19:26:01 -2.1 C 2.72 g/m*3 -2.1 C 0 km/h
3217 16-12-2009 19:38:02 -2.3 C 2.68 g/m*3 -2.3 C 0 km/h
3218 16-12-2009 19:50:02 -2.5 C 2.65 g/m*3 -2.5 C 0 km/h
3219 16-12-2009 20:02:02 -2.6 C 2.67 g/m*3 -2.6 C 0 km/h
3220 16-12-2009 20:14:02 -2.8 C 2.67 g/m*3 -2.8 C 0 km/h
3221 16-12-2009 20:26:01 -2.9 C 2.69 g/m*3 -2.9 C 0 km/h
3222 16-12-2009 20:38:02 -3 C 2.71 g/m*3 -3 C 0 km/h
3223 16-12-2009 20:50:02 -3.1 C 2.69 g/m*3 -3.1 C 0 km/h
3224 16-12-2009 21:02:02 -3.2 C 2.71 g/m*3 -3.2 C 0 km/h
3225 16-12-2009 21:14:02 -3.2 C 2.75 g/m*3 -3.2 C 0 km/h
Sensor: Nr:Datum:Temp:Abs-Feuchte:Windchill:Wind:
Aussen-T/F 3226 16-12-2009 21:26:02 -3.3 C 2.73 g/m*3 -3.3 C 0 km/h
3227 16-12-2009 21:38:02 -3.5 C 2.69 g/m*3 -3.5 C 0 km/h
3228 16-12-2009 21:50:02 -3.7 C 2.69 g/m*3 -3.7 C 0 km/h
3229 16-12-2009 22:02:02 -3.7 C 2.73 g/m*3 -3.7 C 0 km/h
3230 16-12-2009 22:14:02 -3.8 C 2.71 g/m*3 -3.8 C 0 km/h
3231 16-12-2009 22:27:05 -3.9 C 2.69 g/m*3 -3.9 C 0 km/h
3232 16-12-2009 22:39:05 -3.9 C 2.73 g/m*3 -3.9 C 0 km/h
3233 16-12-2009 22:51:05 -3.8 C 2.78 g/m*3 -3.8 C 0 km/h
3234 16-12-2009 23:03:05 -3.8 C 2.78 g/m*3 -3.8 C 0 km/h
3235 16-12-2009 23:15:06 -4.1 C 2.72 g/m*3 -4.1 C 0 km/h
3236 16-12-2009 23:27:06 -4.3 C 2.69 g/m*3 -4.3 C 0 km/h
3237 16-12-2009 23:39:06 -4.4 C 2.67 g/m*3 -4.4 C 0 km/h
3238 16-12-2009 23:51:06 -4.4 C 2.67 g/m*3 -4.4 C 0 km/h
3239 17-12-2009 00:03:06 -4.6 C 2.66 g/m*3 -4.6 C 0 km/h
3240 17-12-2009 00:15:06 -4.7 C 2.64 g/m*3 -4.7 C 0 km/h
3241 17-12-2009 00:27:06 -4.8 C 2.66 g/m*3 -4.8 C 0 km/h
3242 17-12-2009 00:39:06 -5.1 C 2.6 g/m*3 -5.1 C 0 km/h
3243 17-12-2009 00:51:06 -5.3 C 2.57 g/m*3 -5.3 C 0 km/h
3244 17-12-2009 01:03:06 -5.2 C 2.62 g/m*3 -5.2 C 0 km/h
3245 17-12-2009 01:15:06 -5.4 C 2.58 g/m*3 -5.4 C 0 km/h
3246 17-12-2009 01:27:06 -5.3